Darstellungsparameter: Aktuell verwendete Einstellungen:
Skalierung der Graphiken ... ?
xyx+y,   Skalierungsfaktor:      Skalierung: Modus: x, Faktor: 1
Darstellungszeitraum ... ?
Vom - - bis: - -   Zeitraum: 14.11.2018 - 13.05.2019
Min/Max/Avg-Anzeige ... ?
Zeige MMA aktuell
Zeige MMA Monat
Zeige MMA alles
Zeige --A aktuell
Zeige --A Monat
Zeige --A alles
Keine MMA-Anzeige
MMA:
Minimum Maximum Average (ber die Originaldaten)
MMA-Basis: 14.11.2018 - 13.05.2019
Quicknavigation für Darstellung... ?
Tage:      1T, 2T, 3T, 5T -1T -2T -3T -5T +1T +2T +3T +5T
Wochen: 1W, 2W, 3W -1W -2W -3W +1W +2W +3W
Monate: 1M, 3M, 6M -1M -3M -6M +1M +3M +6M
Jahre:    1J, 3J, 5J, 10J -1J -3J -5J -10J +1J +3J +5J +10J
Nutze für die Darstellung ... ?
Originaldaten oder Mittelwerte auf ...
Stundenbasis Tagesbasis Wochenbasis
Monatsbasis Jahresbasis      Datenbasis: Original-Daten
Darstellen als:
Statistik (Auto) Statistik J:M      Darstellung:
Zur Graphik,    zurück zur Übersicht aller Sensoren.
 
Tabellarische Datenbersicht: ?
 
Sensor: Nr:Datum:Temp:Feuchte:Taupunkt:
Aussen-T/F 1 14-11-2018 00:00:00 6.4 C 94 % 5.51 C
2 14-11-2018 00:05:00 6.3 C 94 % 5.41 C
3 14-11-2018 00:10:00 6.2 C 94 % 5.31 C
4 14-11-2018 00:15:00 6.1 C 94 % 5.21 C
5 14-11-2018 00:20:00 6 C 94 % 5.11 C
6 14-11-2018 00:25:00 6 C 94 % 5.11 C
7 14-11-2018 00:30:00 6 C 95 % 5.26 C
8 14-11-2018 00:35:00 6 C 95 % 5.26 C
9 14-11-2018 00:40:00 5.9 C 95 % 5.16 C
10 14-11-2018 00:45:00 5.8 C 95 % 5.06 C
11 14-11-2018 00:50:00 5.8 C 95 % 5.06 C
12 14-11-2018 00:55:00 5.8 C 95 % 5.06 C
13 14-11-2018 01:00:00 5.9 C 95 % 5.16 C
14 14-11-2018 01:05:00 5.7 C 95 % 4.96 C
15 14-11-2018 01:10:00 5.6 C 95 % 4.86 C
16 14-11-2018 01:15:00 5.4 C 95 % 4.66 C
17 14-11-2018 01:20:00 5.4 C 95 % 4.66 C
18 14-11-2018 01:25:00 5.3 C 95 % 4.57 C
19 14-11-2018 01:30:00 5.2 C 95 % 4.47 C
20 14-11-2018 01:35:00 5.1 C 95 % 4.37 C
21 14-11-2018 01:40:00 5 C 95 % 4.27 C
22 14-11-2018 01:45:00 4.9 C 95 % 4.17 C
23 14-11-2018 01:50:00 5 C 95 % 4.27 C
24 14-11-2018 01:55:00 5 C 95 % 4.27 C
25 14-11-2018 02:00:00 5.1 C 95 % 4.37 C
Sensor: Nr:Datum:Temp:Feuchte:Taupunkt:
Aussen-T/F 26 14-11-2018 02:05:00 5 C 95 % 4.27 C
27 14-11-2018 02:10:00 4.9 C 95 % 4.17 C
28 14-11-2018 02:15:00 4.9 C 95 % 4.17 C
29 14-11-2018 02:20:00 4.9 C 95 % 4.17 C
30 14-11-2018 02:25:00 4.8 C 96 % 4.22 C
31 14-11-2018 02:30:00 4.7 C 95 % 3.97 C
32 14-11-2018 02:35:00 4.7 C 95 % 3.97 C
33 14-11-2018 02:40:00 4.7 C 96 % 4.12 C
34 14-11-2018 02:45:00 4.6 C 95 % 3.87 C
35 14-11-2018 02:50:00 4.4 C 95 % 3.67 C
36 14-11-2018 02:55:00 4.4 C 96 % 3.82 C
37 14-11-2018 03:00:00 4.3 C 95 % 3.57 C
38 14-11-2018 03:05:00 4.4 C 96 % 3.82 C
39 14-11-2018 03:10:00 4.6 C 96 % 4.02 C
40 14-11-2018 03:15:00 4.6 C 96 % 4.02 C
41 14-11-2018 03:20:00 4.4 C 96 % 3.82 C
42 14-11-2018 03:25:00 4.3 C 96 % 3.72 C
43 14-11-2018 03:30:00 4.2 C 96 % 3.62 C
44 14-11-2018 03:35:00 4.1 C 95 % 3.37 C
45 14-11-2018 03:40:00 4 C 96 % 3.42 C
46 14-11-2018 03:45:00 4 C 96 % 3.42 C
47 14-11-2018 03:50:00 4 C 96 % 3.42 C
48 14-11-2018 03:55:00 4 C 96 % 3.42 C
49 14-11-2018 04:00:00 4.1 C 96 % 3.52 C
50 14-11-2018 04:05:00 4.2 C 96 % 3.62 C
Sensor: Nr:Datum:Temp:Feuchte:Taupunkt:
Aussen-T/F 51 14-11-2018 04:10:00 4.3 C 96 % 3.72 C
52 14-11-2018 04:15:00 4.5 C 97 % 4.07 C
53 14-11-2018 04:20:00 4.6 C 97 % 4.17 C
54 14-11-2018 04:25:00 4.5 C 96 % 3.92 C
55 14-11-2018 04:30:00 4.6 C 96 % 4.02 C
56 14-11-2018 04:35:00 4.6 C 96 % 4.02 C
57 14-11-2018 04:40:00 4.6 C 96 % 4.02 C
58 14-11-2018 04:45:00 4.6 C 96 % 4.02 C
59 14-11-2018 04:50:00 4.6 C 96 % 4.02 C
60 14-11-2018 04:55:00 4.7 C 97 % 4.27 C
61 14-11-2018 05:00:00 4.7 C 97 % 4.27 C
62 14-11-2018 05:05:00 4.8 C 97 % 4.37 C
63 14-11-2018 05:10:00 4.8 C 97 % 4.37 C
64 14-11-2018 05:15:00 4.7 C 96 % 4.12 C
65 14-11-2018 05:20:00 4.5 C 96 % 3.92 C
66 14-11-2018 05:25:00 4.3 C 96 % 3.72 C
67 14-11-2018 05:30:00 4.3 C 96 % 3.72 C
68 14-11-2018 05:35:00 4.2 C 96 % 3.62 C
69 14-11-2018 05:40:00 4.2 C 96 % 3.62 C
70 14-11-2018 05:45:00 4.3 C 96 % 3.72 C
71 14-11-2018 05:50:00 4.3 C 96 % 3.72 C
72 14-11-2018 05:55:00 4.3 C 96 % 3.72 C
73 14-11-2018 06:00:00 4.3 C 97 % 3.87 C
74 14-11-2018 06:05:00 4.4 C 97 % 3.97 C
75 14-11-2018 06:10:00 4.6 C 97 % 4.17 C
Sensor: Nr:Datum:Temp:Feuchte:Taupunkt:
Aussen-T/F 76 14-11-2018 06:15:00 4.7 C 97 % 4.27 C
77 14-11-2018 06:20:00 4.8 C 97 % 4.37 C
78 14-11-2018 06:25:00 4.9 C 97 % 4.46 C
79 14-11-2018 06:30:00 5 C 97 % 4.56 C
80 14-11-2018 06:35:00 5.1 C 97 % 4.66 C
81 14-11-2018 06:40:00 5.2 C 97 % 4.76 C
82 14-11-2018 06:45:00 5.2 C 97 % 4.76 C
83 14-11-2018 06:50:00 5.3 C 97 % 4.86 C
84 14-11-2018 06:55:00 5.3 C 97 % 4.86 C
85 14-11-2018 07:00:00 5.3 C 97 % 4.86 C
86 14-11-2018 07:05:00 5.4 C 97 % 4.96 C
87 14-11-2018 07:10:00 5.4 C 97 % 4.96 C
88 14-11-2018 07:15:00 5.4 C 97 % 4.96 C
89 14-11-2018 07:20:00 5.4 C 97 % 4.96 C
90 14-11-2018 07:25:00 5.4 C 97 % 4.96 C
91 14-11-2018 07:30:00 5.5 C 97 % 5.06 C
92 14-11-2018 07:35:00 5.5 C 97 % 5.06 C
93 14-11-2018 07:40:00 5.6 C 97 % 5.16 C
94 14-11-2018 07:45:00 5.6 C 97 % 5.16 C
95 14-11-2018 07:50:00 5.7 C 97 % 5.26 C
96 14-11-2018 07:55:00 5.7 C 97 % 5.26 C
97 14-11-2018 08:00:00 5.7 C 97 % 5.26 C
98 14-11-2018 08:05:00 5.7 C 97 % 5.26 C
99 14-11-2018 08:10:00 5.7 C 97 % 5.26 C
100 14-11-2018 08:15:00 5.8 C 97 % 5.36 C
Sensor: Nr:Datum:Temp:Feuchte:Taupunkt:
Aussen-T/F 101 14-11-2018 08:20:00 5.8 C 97 % 5.36 C
102 14-11-2018 08:25:00 5.8 C 97 % 5.36 C
103 14-11-2018 08:30:00 5.8 C 97 % 5.36 C
104 14-11-2018 08:35:00 5.8 C 97 % 5.36 C
105 14-11-2018 08:40:00 5.8 C 97 % 5.36 C
106 14-11-2018 08:45:00 5.9 C 97 % 5.46 C
107 14-11-2018 08:50:00 5.9 C 97 % 5.46 C
108 14-11-2018 08:55:00 5.9 C 97 % 5.46 C
109 14-11-2018 09:00:00 6.1 C 97 % 5.66 C
110 14-11-2018 09:05:00 6.1 C 97 % 5.66 C
111 14-11-2018 09:10:00 6.2 C 97 % 5.76 C
112 14-11-2018 09:15:00 6.2 C 97 % 5.76 C
113 14-11-2018 09:20:00 6.3 C 97 % 5.86 C
114 14-11-2018 09:25:00 6.3 C 97 % 5.86 C
115 14-11-2018 09:30:00 6.3 C 97 % 5.86 C
116 14-11-2018 09:35:00 6.3 C 97 % 5.86 C
117 14-11-2018 09:40:00 6.4 C 97 % 5.96 C
118 14-11-2018 09:45:00 6.4 C 97 % 5.96 C
119 14-11-2018 09:50:00 6.5 C 97 % 6.06 C
120 14-11-2018 09:55:00 6.6 C 97 % 6.16 C
121 14-11-2018 10:00:00 6.6 C 97 % 6.16 C
122 14-11-2018 10:05:00 6.6 C 97 % 6.16 C
123 14-11-2018 10:10:00 6.6 C 97 % 6.16 C
124 14-11-2018 10:15:00 6.6 C 97 % 6.16 C
125 14-11-2018 10:20:00 6.7 C 97 % 6.26 C
Sensor: Nr:Datum:Temp:Feuchte:Taupunkt:
Aussen-T/F 126 14-11-2018 10:25:00 6.7 C 97 % 6.26 C
127 14-11-2018 10:30:00 6.6 C 97 % 6.16 C
128 14-11-2018 10:35:00 6.5 C 97 % 6.06 C
129 14-11-2018 10:40:00 6.4 C 97 % 5.96 C
130 14-11-2018 10:45:00 6.4 C 97 % 5.96 C
131 14-11-2018 10:50:00 6.3 C 97 % 5.86 C
132 14-11-2018 10:55:00 6.3 C 97 % 5.86 C
133 14-11-2018 11:00:00 6.3 C 97 % 5.86 C
134 14-11-2018 11:05:00 6.3 C 97 % 5.86 C
135 14-11-2018 11:10:00 6.4 C 97 % 5.96 C
136 14-11-2018 11:15:00 6.4 C 97 % 5.96 C
137 14-11-2018 11:20:00 6.4 C 97 % 5.96 C
138 14-11-2018 11:25:00 6.4 C 97 % 5.96 C
139 14-11-2018 11:30:00 6.4 C 97 % 5.96 C
140 14-11-2018 11:35:00 6.4 C 97 % 5.96 C
141 14-11-2018 11:40:00 6.5 C 97 % 6.06 C
142 14-11-2018 11:45:00 6.6 C 97 % 6.16 C
143 14-11-2018 11:50:00 6.6 C 97 % 6.16 C
144 14-11-2018 11:55:00 6.6 C 97 % 6.16 C
145 14-11-2018 12:00:00 6.7 C 97 % 6.26 C
146 14-11-2018 12:05:00 6.8 C 97 % 6.36 C
147 14-11-2018 12:10:00 6.9 C 98 % 6.61 C
148 14-11-2018 12:15:00 6.9 C 98 % 6.61 C
149 14-11-2018 12:20:00 7.1 C 97 % 6.66 C
150 14-11-2018 12:25:00 7.1 C 97 % 6.66 C
Sensor: Nr:Datum:Temp:Feuchte:Taupunkt:
Aussen-T/F 151 14-11-2018 12:30:00 7.2 C 97 % 6.76 C
152 14-11-2018 12:35:00 7.2 C 97 % 6.76 C
153 14-11-2018 12:40:00 7.1 C 97 % 6.66 C
154 14-11-2018 12:45:00 7.1 C 97 % 6.66 C
155 14-11-2018 12:50:00 7.1 C 97 % 6.66 C
156 14-11-2018 12:55:00 7.1 C 97 % 6.66 C
157 14-11-2018 13:00:00 7.1 C 97 % 6.66 C
158 14-11-2018 13:05:00 7.1 C 97 % 6.66 C
159 14-11-2018 13:10:00 7 C 97 % 6.56 C
160 14-11-2018 13:15:00 7.1 C 97 % 6.66 C
161 14-11-2018 13:20:00 7.1 C 97 % 6.66 C
162 14-11-2018 13:25:00 7.1 C 97 % 6.66 C
163 14-11-2018 13:30:00 7.2 C 97 % 6.76 C
164 14-11-2018 13:35:00 7.2 C 97 % 6.76 C
165 14-11-2018 13:40:00 7.3 C 97 % 6.86 C
166 14-11-2018 13:45:00 7.4 C 97 % 6.96 C
167 14-11-2018 13:50:00 7.4 C 97 % 6.96 C
168 14-11-2018 13:55:00 7.6 C 98 % 7.3 C
169 14-11-2018 14:00:00 7.7 C 98 % 7.4 C
170 14-11-2018 14:05:00 7.8 C 97 % 7.35 C
171 14-11-2018 14:10:00 7.8 C 97 % 7.35 C
172 14-11-2018 14:15:00 7.9 C 98 % 7.6 C
173 14-11-2018 14:20:00 8.1 C 98 % 7.8 C
174 14-11-2018 14:25:00 8.1 C 98 % 7.8 C
175 14-11-2018 14:30:00 8.2 C 98 % 7.9 C
Sensor: Nr:Datum:Temp:Feuchte:Taupunkt:
Aussen-T/F 176 14-11-2018 14:35:00 8.3 C 98 % 8 C
177 14-11-2018 14:40:00 8.4 C 98 % 8.1 C
178 14-11-2018 14:45:00 8.5 C 98 % 8.2 C
179 14-11-2018 14:50:00 8.6 C 98 % 8.3 C
180 14-11-2018 14:55:00 8.6 C 98 % 8.3 C
181 14-11-2018 15:00:00 8.7 C 98 % 8.4 C
182 14-11-2018 15:05:00 8.7 C 98 % 8.4 C
183 14-11-2018 15:10:00 8.7 C 98 % 8.4 C
184 14-11-2018 15:15:00 8.7 C 97 % 8.25 C
185 14-11-2018 15:20:00 8.7 C 97 % 8.25 C
186 14-11-2018 15:25:00 8.7 C 97 % 8.25 C
187 14-11-2018 15:30:00 8.7 C 97 % 8.25 C
188 14-11-2018 15:35:00 8.7 C 97 % 8.25 C
189 14-11-2018 15:40:00 8.7 C 97 % 8.25 C
190 14-11-2018 15:45:00 8.7 C 97 % 8.25 C
191 14-11-2018 15:50:00 8.6 C 97 % 8.15 C
192 14-11-2018 15:55:00 8.6 C 97 % 8.15 C
193 14-11-2018 16:00:00 8.6 C 97 % 8.15 C
194 14-11-2018 16:05:00 8.6 C 97 % 8.15 C
195 14-11-2018 16:10:00 8.5 C 97 % 8.05 C
196 14-11-2018 16:15:00 8.4 C 97 % 7.95 C
197 14-11-2018 16:20:00 8.3 C 97 % 7.85 C
198 14-11-2018 16:25:00 8.3 C 97 % 7.85 C
199 14-11-2018 16:30:00 8.2 C 97 % 7.75 C
200 14-11-2018 16:35:00 8 C 97 % 7.55 C
Sensor: Nr:Datum:Temp:Feuchte:Taupunkt:
Aussen-T/F 201 14-11-2018 16:40:00 7.9 C 97 % 7.45 C
202 14-11-2018 16:45:00 7.7 C 97 % 7.25 C
203 14-11-2018 16:50:00 7.6 C 96 % 7 C
204 14-11-2018 16:55:00 7.4 C 96 % 6.8 C
205 14-11-2018 17:00:00 7.3 C 96 % 6.71 C
206 14-11-2018 17:05:00 7.1 C 96 % 6.51 C
207 14-11-2018 17:10:00 6.9 C 96 % 6.31 C
208 14-11-2018 17:15:00 6.8 C 96 % 6.21 C
209 14-11-2018 17:20:00 6.7 C 96 % 6.11 C
210 14-11-2018 17:25:00 6.6 C 96 % 6.01 C
211 14-11-2018 17:30:00 6.5 C 96 % 5.91 C
212 14-11-2018 17:35:00 6.4 C 96 % 5.81 C
213 14-11-2018 17:40:00 6.3 C 96 % 5.71 C
214 14-11-2018 17:45:00 6.2 C 96 % 5.61 C
215 14-11-2018 17:50:00 5.9 C 96 % 5.31 C
216 14-11-2018 17:55:00 5.8 C 96 % 5.21 C
217 14-11-2018 18:00:00 5.6 C 96 % 5.01 C
218 14-11-2018 18:05:00 5.5 C 96 % 4.91 C
219 14-11-2018 18:10:00 5.4 C 96 % 4.81 C
220 14-11-2018 18:15:00 5.2 C 96 % 4.62 C
221 14-11-2018 18:20:00 5.2 C 96 % 4.62 C
222 14-11-2018 18:25:00 5.1 C 96 % 4.52 C
223 14-11-2018 18:30:00 5 C 96 % 4.42 C
224 14-11-2018 18:35:00 4.9 C 96 % 4.32 C
225 14-11-2018 18:40:00 4.9 C 96 % 4.32 C
Sensor: Nr:Datum:Temp:Feuchte:Taupunkt:
Aussen-T/F 226 14-11-2018 18:45:00 4.9 C 96 % 4.32 C
227 14-11-2018 18:50:00 4.9 C 96 % 4.32 C
228 14-11-2018 18:55:00 5 C 96 % 4.42 C
229 14-11-2018 19:00:00 5.1 C 97 % 4.66 C
230 14-11-2018 19:05:00 5.2 C 97 % 4.76 C
231 14-11-2018 19:10:00 5.3 C 97 % 4.86 C
232 14-11-2018 19:15:00 5.4 C 97 % 4.96 C
233 14-11-2018 19:20:00 5.5 C 97 % 5.06 C
234 14-11-2018 19:25:00 5.6 C 97 % 5.16 C
235 14-11-2018 19:30:00 5.7 C 97 % 5.26 C
236 14-11-2018 19:35:00 5.8 C 97 % 5.36 C
237 14-11-2018 19:40:00 5.9 C 97 % 5.46 C
238 14-11-2018 19:45:00 6 C 97 % 5.56 C
239 14-11-2018 19:50:00 6.1 C 97 % 5.66 C
240 14-11-2018 19:55:00 6.2 C 97 % 5.76 C
241 14-11-2018 20:00:00 6.3 C 97 % 5.86 C
242 14-11-2018 20:05:00 6.4 C 97 % 5.96 C
243 14-11-2018 20:10:00 6.4 C 97 % 5.96 C
244 14-11-2018 20:15:00 6.5 C 97 % 6.06 C
245 14-11-2018 20:20:00 6.6 C 97 % 6.16 C
246 14-11-2018 20:25:00 6.7 C 97 % 6.26 C
247 14-11-2018 20:30:00 6.7 C 97 % 6.26 C
248 14-11-2018 20:35:00 6.7 C 97 % 6.26 C
249 14-11-2018 20:40:00 6.8 C 97 % 6.36 C
250 14-11-2018 20:45:00 6.8 C 97 % 6.36 C
Sensor: Nr:Datum:Temp:Feuchte:Taupunkt:
Aussen-T/F 251 14-11-2018 20:50:00 6.8 C 97 % 6.36 C
252 14-11-2018 20:55:00 6.8 C 97 % 6.36 C
253 14-11-2018 21:00:00 6.9 C 97 % 6.46 C
254 14-11-2018 21:05:00 6.9 C 97 % 6.46 C
255 14-11-2018 21:10:00 6.9 C 97 % 6.46 C
256 14-11-2018 21:15:00 7 C 97 % 6.56 C
257 14-11-2018 21:20:00 7 C 97 % 6.56 C
258 14-11-2018 21:25:00 7 C 97 % 6.56 C
259 14-11-2018 21:30:00 6.9 C 97 % 6.46 C
260 14-11-2018 21:35:00 6.9 C 97 % 6.46 C
261 14-11-2018 21:40:00 6.8 C 97 % 6.36 C
262 14-11-2018 21:45:00 6.7 C 97 % 6.26 C
263 14-11-2018 21:50:00 6.7 C 97 % 6.26 C
264 14-11-2018 21:55:00 6.7 C 97 % 6.26 C
265 14-11-2018 22:00:00 6.6 C 97 % 6.16 C
266 14-11-2018 22:05:00 6.7 C 97 % 6.26 C
267 14-11-2018 22:10:00 6.7 C 97 % 6.26 C
268 14-11-2018 22:15:00 6.7 C 97 % 6.26 C
269 14-11-2018 22:20:00 6.7 C 97 % 6.26 C
270 14-11-2018 22:25:00 6.7 C 97 % 6.26 C
271 14-11-2018 22:30:00 6.7 C 97 % 6.26 C
272 14-11-2018 22:35:00 6.7 C 97 % 6.26 C
273 14-11-2018 22:40:00 6.7 C 97 % 6.26 C
274 14-11-2018 22:45:00 6.7 C 97 % 6.26 C
275 14-11-2018 22:50:00 6.7 C 97 % 6.26 C
Sensor: Nr:Datum:Temp:Feuchte:Taupunkt:
Aussen-T/F 276 14-11-2018 22:55:00 6.7 C 97 % 6.26 C
277 14-11-2018 23:00:00 6.7 C 97 % 6.26 C
278 14-11-2018 23:05:00 6.8 C 97 % 6.36 C
279 14-11-2018 23:10:00 6.8 C 97 % 6.36 C
280 14-11-2018 23:15:00 6.8 C 97 % 6.36 C
281 14-11-2018 23:20:00 6.8 C 97 % 6.36 C
282 14-11-2018 23:25:00 6.9 C 97 % 6.46 C
283 14-11-2018 23:30:00 6.9 C 97 % 6.46 C
284 14-11-2018 23:35:00 7 C 97 % 6.56 C
285 14-11-2018 23:40:00 7.1 C 97 % 6.66 C
286 14-11-2018 23:45:00 7.1 C 97 % 6.66 C
287 14-11-2018 23:50:00 7.1 C 97 % 6.66 C
288 14-11-2018 23:55:00 7.2 C 97 % 6.76 C
289 15-11-2018 00:00:00 7.2 C 97 % 6.76 C
290 15-11-2018 00:05:00 7.2 C 97 % 6.76 C
291 15-11-2018 00:10:00 7.2 C 97 % 6.76 C
292 15-11-2018 00:15:00 7.2 C 97 % 6.76 C
293 15-11-2018 00:20:00 7.2 C 97 % 6.76 C
294 15-11-2018 00:25:00 7.2 C 97 % 6.76 C
295 15-11-2018 00:30:00 7.2 C 97 % 6.76 C
296 15-11-2018 00:35:00 7.2 C 97 % 6.76 C
297 15-11-2018 00:40:00 7.2 C 97 % 6.76 C
298 15-11-2018 00:45:00 7.3 C 97 % 6.86 C
299 15-11-2018 00:50:00 7.3 C 97 % 6.86 C
300 15-11-2018 00:55:00 7.3 C 97 % 6.86 C
Sensor: Nr:Datum:Temp:Feuchte:Taupunkt:
Aussen-T/F 301 15-11-2018 01:00:00 7.3 C 97 % 6.86 C
302 15-11-2018 01:05:00 7.3 C 97 % 6.86 C
303 15-11-2018 01:10:00 7.3 C 97 % 6.86 C
304 15-11-2018 01:15:00 7.3 C 97 % 6.86 C
305 15-11-2018 01:20:00 7.3 C 97 % 6.86 C
306 15-11-2018 01:25:00 7.3 C 97 % 6.86 C
307 15-11-2018 01:30:00 7.3 C 97 % 6.86 C
308 15-11-2018 01:35:00 7.3 C 97 % 6.86 C
309 15-11-2018 01:40:00 7.3 C 97 % 6.86 C
310 15-11-2018 01:45:00 7.3 C 97 % 6.86 C
311 15-11-2018 01:50:00 7.3 C 97 % 6.86 C
312 15-11-2018 01:55:00 7.3 C 97 % 6.86 C
313 15-11-2018 02:00:00 7.3 C 97 % 6.86 C
314 15-11-2018 02:05:00 7.3 C 97 % 6.86 C
315 15-11-2018 02:10:00 7.3 C 97 % 6.86 C
316 15-11-2018 02:15:00 7.3 C 97 % 6.86 C
317 15-11-2018 02:20:00 7.3 C 97 % 6.86 C
318 15-11-2018 02:25:00 7.3 C 97 % 6.86 C
319 15-11-2018 02:30:00 7.3 C 97 % 6.86 C
320 15-11-2018 02:35:00 7.3 C 97 % 6.86 C
321 15-11-2018 02:40:00 7.3 C 97 % 6.86 C
322 15-11-2018 02:45:00 7.3 C 97 % 6.86 C
323 15-11-2018 02:50:00 7.3 C 96 % 6.71 C
324 15-11-2018 02:55:00 7.3 C 96 % 6.71 C
325 15-11-2018 03:00:00 7.3 C 96 % 6.71 C
Sensor: Nr:Datum:Temp:Feuchte:Taupunkt:
Aussen-T/F 326 15-11-2018 03:05:00 7.3 C 96 % 6.71 C
327 15-11-2018 03:10:00 7.2 C 96 % 6.61 C
328 15-11-2018 03:15:00 7.3 C 96 % 6.71 C
329 15-11-2018 03:20:00 7.2 C 96 % 6.61 C
330 15-11-2018 03:25:00 7.3 C 96 % 6.71 C
331 15-11-2018 03:30:00 7.2 C 96 % 6.61 C
332 15-11-2018 03:35:00 7.2 C 96 % 6.61 C
333 15-11-2018 03:40:00 7.2 C 96 % 6.61 C
334 15-11-2018 03:45:00 7.2 C 96 % 6.61 C
335 15-11-2018 03:50:00 7.2 C 96 % 6.61 C
336 15-11-2018 03:55:00 7.2 C 96 % 6.61 C
337 15-11-2018 04:00:00 7.2 C 96 % 6.61 C
338 15-11-2018 04:05:00 7.2 C 96 % 6.61 C
339 15-11-2018 04:10:00 7.2 C 96 % 6.61 C
340 15-11-2018 04:15:00 7.2 C 96 % 6.61 C
341 15-11-2018 04:20:00 7.2 C 96 % 6.61 C
342 15-11-2018 04:25:00 7.2 C 96 % 6.61 C
343 15-11-2018 04:30:00 7.2 C 95 % 6.45 C
344 15-11-2018 04:35:00 7.2 C 95 % 6.45 C
345 15-11-2018 04:40:00 7.2 C 95 % 6.45 C
346 15-11-2018 04:45:00 7.2 C 95 % 6.45 C
347 15-11-2018 04:50:00 7.2 C 95 % 6.45 C
348 15-11-2018 04:55:00 7.2 C 95 % 6.45 C
349 15-11-2018 05:00:00 7.2 C 95 % 6.45 C
350 15-11-2018 05:05:00 7.2 C 95 % 6.45 C
Sensor: Nr:Datum:Temp:Feuchte:Taupunkt:
Aussen-T/F 351 15-11-2018 05:10:00 7.2 C 95 % 6.45 C
352 15-11-2018 05:15:00 7.2 C 95 % 6.45 C
353 15-11-2018 05:20:00 7.2 C 95 % 6.45 C
354 15-11-2018 05:25:00 7.2 C 95 % 6.45 C
355 15-11-2018 05:30:00 7.2 C 94 % 6.3 C
356 15-11-2018 05:35:00 7.2 C 94 % 6.3 C
357 15-11-2018 05:40:00 7.1 C 94 % 6.2 C
358 15-11-2018 05:45:00 7.1 C 94 % 6.2 C
359 15-11-2018 05:50:00 7.1 C 94 % 6.2 C
360 15-11-2018 05:55:00 7.1 C 94 % 6.2 C
361 15-11-2018 06:00:00 7.1 C 94 % 6.2 C
362 15-11-2018 06:05:00 7.1 C 94 % 6.2 C
363 15-11-2018 06:10:00 7.1 C 94 % 6.2 C
364 15-11-2018 06:15:00 7.1 C 94 % 6.2 C
365 15-11-2018 06:20:00 7.1 C 94 % 6.2 C
366 15-11-2018 06:25:00 7 C 94 % 6.1 C
367 15-11-2018 06:30:00 7 C 94 % 6.1 C
368 15-11-2018 06:35:00 7 C 94 % 6.1 C
369 15-11-2018 06:40:00 6.9 C 94 % 6 C
370 15-11-2018 06:45:00 6.9 C 94 % 6 C
371 15-11-2018 06:50:00 6.9 C 93 % 5.85 C
372 15-11-2018 06:55:00 6.9 C 93 % 5.85 C
373 15-11-2018 07:00:00 6.8 C 93 % 5.75 C
374 15-11-2018 07:05:00 6.8 C 93 % 5.75 C
375 15-11-2018 07:10:00 6.8 C 93 % 5.75 C
Sensor: Nr:Datum:Temp:Feuchte:Taupunkt:
Aussen-T/F 376 15-11-2018 07:15:00 6.8 C 93 % 5.75 C
377 15-11-2018 07:20:00 6.7 C 93 % 5.65 C
378 15-11-2018 07:25:00 6.7 C 93 % 5.65 C
379 15-11-2018 07:30:00 6.7 C 93 % 5.65 C
380 15-11-2018 07:35:00 6.7 C 93 % 5.65 C
381 15-11-2018 07:40:00 6.7 C 93 % 5.65 C
382 15-11-2018 07:45:00 6.6 C 93 % 5.55 C
383 15-11-2018 07:50:00 6.6 C 93 % 5.55 C
384 15-11-2018 07:55:00 6.6 C 93 % 5.55 C
385 15-11-2018 08:00:00 6.6 C 93 % 5.55 C
386 15-11-2018 08:05:00 6.6 C 93 % 5.55 C
387 15-11-2018 08:10:00 6.6 C 93 % 5.55 C
388 15-11-2018 08:15:00 6.6 C 93 % 5.55 C
389 15-11-2018 08:20:00 6.6 C 93 % 5.55 C
390 15-11-2018 08:25:00 6.6 C 93 % 5.55 C
391 15-11-2018 08:30:00 6.6 C 92 % 5.4 C
392 15-11-2018 08:35:00 6.6 C 92 % 5.4 C
393 15-11-2018 08:40:00 6.6 C 92 % 5.4 C
394 15-11-2018 08:45:00 6.6 C 92 % 5.4 C
395 15-11-2018 08:50:00 6.5 C 92 % 5.3 C
396 15-11-2018 08:55:00 6.5 C 92 % 5.3 C
397 15-11-2018 09:00:00 6.5 C 92 % 5.3 C
398 15-11-2018 09:05:00 6.5 C 92 % 5.3 C
399 15-11-2018 09:10:00 6.5 C 92 % 5.3 C
400 15-11-2018 09:15:00 6.5 C 92 % 5.3 C
Sensor: Nr:Datum:Temp:Feuchte:Taupunkt:
Aussen-T/F 401 15-11-2018 09:20:00 6.5 C 92 % 5.3 C
402 15-11-2018 09:25:00 6.5 C 92 % 5.3 C
403 15-11-2018 09:30:00 6.5 C 92 % 5.3 C
404 15-11-2018 09:35:00 6.5 C 91 % 5.14 C
405 15-11-2018 09:40:00 6.5 C 91 % 5.14 C
406 15-11-2018 09:45:00 6.6 C 91 % 5.24 C
407 15-11-2018 09:50:00 6.6 C 91 % 5.24 C
408 15-11-2018 09:55:00 6.6 C 91 % 5.24 C
409 15-11-2018 10:00:00 6.7 C 91 % 5.34 C
410 15-11-2018 10:05:00 6.7 C 91 % 5.34 C
411 15-11-2018 10:10:00 6.7 C 90 % 5.18 C
412 15-11-2018 10:15:00 6.7 C 90 % 5.18 C
413 15-11-2018 10:20:00 6.7 C 90 % 5.18 C
414 15-11-2018 10:25:00 6.8 C 90 % 5.28 C
415 15-11-2018 10:30:00 6.9 C 90 % 5.38 C
416 15-11-2018 10:35:00 6.9 C 90 % 5.38 C
417 15-11-2018 10:40:00 7 C 90 % 5.48 C
418 15-11-2018 10:45:00 7.1 C 90 % 5.57 C
419 15-11-2018 10:50:00 7.1 C 90 % 5.57 C
420 15-11-2018 10:55:00 7.1 C 90 % 5.57 C
421 15-11-2018 11:00:00 7.2 C 90 % 5.67 C
422 15-11-2018 11:05:00 7.2 C 89 % 5.51 C
423 15-11-2018 11:10:00 7.2 C 89 % 5.51 C
424 15-11-2018 11:15:00 7.2 C 89 % 5.51 C
425 15-11-2018 11:20:00 7.2 C 89 % 5.51 C
Sensor: Nr:Datum:Temp:Feuchte:Taupunkt:
Aussen-T/F 426 15-11-2018 11:25:00 7.3 C 89 % 5.61 C
427 15-11-2018 11:30:00 7.3 C 89 % 5.61 C
428 15-11-2018 11:35:00 7.2 C 88 % 5.35 C
429 15-11-2018 11:40:00 7.3 C 88 % 5.45 C
430 15-11-2018 11:45:00 7.3 C 88 % 5.45 C
431 15-11-2018 11:50:00 7.3 C 88 % 5.45 C
432 15-11-2018 11:55:00 7.3 C 88 % 5.45 C
433 15-11-2018 12:00:00 7.3 C 88 % 5.45 C
434 15-11-2018 12:05:00 7.4 C 88 % 5.55 C
435 15-11-2018 12:10:00 7.4 C 88 % 5.55 C
436 15-11-2018 12:15:00 7.4 C 88 % 5.55 C
437 15-11-2018 12:20:00 7.3 C 88 % 5.45 C
438 15-11-2018 12:25:00 7.3 C 88 % 5.45 C
439 15-11-2018 12:30:00 7.4 C 88 % 5.55 C
440 15-11-2018 12:35:00 7.4 C 88 % 5.55 C
441 15-11-2018 12:40:00 7.5 C 88 % 5.64 C
442 15-11-2018 12:45:00 7.4 C 87 % 5.38 C
443 15-11-2018 12:50:00 7.5 C 88 % 5.64 C
444 15-11-2018 12:55:00 7.6 C 88 % 5.74 C
445 15-11-2018 13:00:00 7.6 C 88 % 5.74 C
446 15-11-2018 13:05:00 7.6 C 87 % 5.58 C
447 15-11-2018 13:10:00 7.5 C 87 % 5.48 C
448 15-11-2018 13:15:00 7.5 C 87 % 5.48 C
449 15-11-2018 13:20:00 7.5 C 87 % 5.48 C
450 15-11-2018 13:25:00 7.5 C 87 % 5.48 C
Sensor: Nr:Datum:Temp:Feuchte:Taupunkt:
Aussen-T/F 451 15-11-2018 13:30:00 7.6 C 87 % 5.58 C
452 15-11-2018 13:35:00 7.6 C 87 % 5.58 C
453 15-11-2018 13:40:00 7.6 C 87 % 5.58 C
454 15-11-2018 13:45:00 7.6 C 87 % 5.58 C
455 15-11-2018 13:50:00 7.6 C 87 % 5.58 C
456 15-11-2018 13:55:00 7.5 C 86 % 5.31 C
457 15-11-2018 14:00:00 7.5 C 87 % 5.48 C
458 15-11-2018 14:05:00 7.5 C 86 % 5.31 C
459 15-11-2018 14:10:00 7.4 C 86 % 5.22 C
460 15-11-2018 14:15:00 7.4 C 86 % 5.22 C
461 15-11-2018 14:20:00 7.5 C 87 % 5.48 C
462 15-11-2018 14:25:00 7.6 C 87 % 5.58 C
463 15-11-2018 14:30:00 7.6 C 87 % 5.58 C
464 15-11-2018 14:35:00 7.6 C 87 % 5.58 C
465 15-11-2018 14:40:00 7.6 C 86 % 5.41 C
466 15-11-2018 14:45:00 7.6 C 87 % 5.58 C
467 15-11-2018 14:50:00 7.6 C 87 % 5.58 C
468 15-11-2018 14:55:00 7.6 C 87 % 5.58 C
469 15-11-2018 15:00:00 7.6 C 86 % 5.41 C
470 15-11-2018 15:05:00 7.5 C 87 % 5.48 C
471 15-11-2018 15:10:00 7.4 C 87 % 5.38 C
472 15-11-2018 15:15:00 7.4 C 87 % 5.38 C
473 15-11-2018 15:20:00 7.4 C 87 % 5.38 C
474 15-11-2018 15:25:00 7.3 C 87 % 5.28 C
475 15-11-2018 15:30:00 7.3 C 87 % 5.28 C
Sensor: Nr:Datum:Temp:Feuchte:Taupunkt:
Aussen-T/F 476 15-11-2018 15:35:00 7.3 C 87 % 5.28 C
477 15-11-2018 15:40:00 7.2 C 87 % 5.19 C
478 15-11-2018 15:45:00 7.3 C 87 % 5.28 C
479 15-11-2018 15:50:00 7.2 C 87 % 5.19 C
480 15-11-2018 15:55:00 7.2 C 87 % 5.19 C
481 15-11-2018 16:00:00 7.2 C 87 % 5.19 C
482 15-11-2018 16:05:00 7.2 C 87 % 5.19 C
483 15-11-2018 16:10:00 7.2 C 87 % 5.19 C
484 15-11-2018 16:15:00 7.2 C 87 % 5.19 C
485 15-11-2018 16:20:00 7.2 C 88 % 5.35 C
486 15-11-2018 16:25:00 7.2 C 88 % 5.35 C
487 15-11-2018 16:30:00 7.1 C 88 % 5.25 C
488 15-11-2018 16:35:00 7.1 C 88 % 5.25 C
489 15-11-2018 16:40:00 7.1 C 88 % 5.25 C
490 15-11-2018 16:45:00 7.1 C 88 % 5.25 C
491 15-11-2018 16:50:00 7.1 C 88 % 5.25 C
492 15-11-2018 16:55:00 7 C 88 % 5.15 C
493 15-11-2018 17:00:00 7 C 89 % 5.31 C
494 15-11-2018 17:05:00 6.9 C 89 % 5.22 C
495 15-11-2018 17:10:00 6.9 C 89 % 5.22 C
496 15-11-2018 17:15:00 6.9 C 89 % 5.22 C
497 15-11-2018 17:20:00 6.9 C 89 % 5.22 C
498 15-11-2018 17:25:00 6.9 C 89 % 5.22 C
499 15-11-2018 17:30:00 6.9 C 89 % 5.22 C
500 15-11-2018 17:35:00 6.9 C 89 % 5.22 C
Sensor: Nr:Datum:Temp:Feuchte:Taupunkt:
Aussen-T/F 501 15-11-2018 17:40:00 6.8 C 89 % 5.12 C
502 15-11-2018 17:45:00 6.9 C 89 % 5.22 C
503 15-11-2018 17:50:00 6.8 C 89 % 5.12 C
504 15-11-2018 17:55:00 6.8 C 89 % 5.12 C
505 15-11-2018 18:00:00 6.8 C 89 % 5.12 C
506 15-11-2018 18:05:00 6.8 C 90 % 5.28 C
507 15-11-2018 18:10:00 6.8 C 90 % 5.28 C
508 15-11-2018 18:15:00 6.8 C 90 % 5.28 C
509 15-11-2018 18:20:00 6.8 C 89 % 5.12 C
510 15-11-2018 18:25:00 6.8 C 90 % 5.28 C
511 15-11-2018 18:30:00 6.8 C 90 % 5.28 C
512 15-11-2018 18:35:00 6.8 C 90 % 5.28 C
513 15-11-2018 18:40:00 6.8 C 90 % 5.28 C
514 15-11-2018 18:45:00 6.8 C 90 % 5.28 C
515 15-11-2018 18:50:00 6.7 C 90 % 5.18 C
516 15-11-2018 18:55:00 6.7 C 90 % 5.18 C
517 15-11-2018 19:00:00 6.8 C 90 % 5.28 C
518 15-11-2018 19:05:00 6.7 C 90 % 5.18 C
519 15-11-2018 19:10:00 6.7 C 90 % 5.18 C
520 15-11-2018 19:15:00 6.7 C 90 % 5.18 C
521 15-11-2018 19:20:00 6.7 C 90 % 5.18 C
522 15-11-2018 19:25:00 6.7 C 90 % 5.18 C
523 15-11-2018 19:30:00 6.7 C 90 % 5.18 C
524 15-11-2018 19:35:00 6.7 C 90 % 5.18 C
525 15-11-2018 19:40:00 6.6 C 90 % 5.08 C
Sensor: Nr:Datum:Temp:Feuchte:Taupunkt:
Aussen-T/F 526 15-11-2018 19:45:00 6.6 C 90 % 5.08 C
527 15-11-2018 19:50:00 6.6 C 90 % 5.08 C
528 15-11-2018 19:55:00 6.6 C 90 % 5.08 C
529 15-11-2018 20:00:00 6.6 C 91 % 5.24 C
530 15-11-2018 20:05:00 6.6 C 91 % 5.24 C
531 15-11-2018 20:10:00 6.6 C 91 % 5.24 C
532 15-11-2018 20:15:00 6.6 C 91 % 5.24 C
533 15-11-2018 20:20:00 6.6 C 91 % 5.24 C
534 15-11-2018 20:25:00 6.6 C 91 % 5.24 C
535 15-11-2018 20:30:00 6.6 C 91 % 5.24 C
536 15-11-2018 20:35:00 6.6 C 91 % 5.24 C
537 15-11-2018 20:40:00 6.6 C 91 % 5.24 C
538 15-11-2018 20:45:00 6.6 C 92 % 5.4 C
539 15-11-2018 20:50:00 6.6 C 92 % 5.4 C
540 15-11-2018 20:55:00 6.6 C 92 % 5.4 C
541 15-11-2018 21:00:00 6.6 C 92 % 5.4 C
542 15-11-2018 21:05:00 6.6 C 92 % 5.4 C
543 15-11-2018 21:10:00 6.6 C 92 % 5.4 C
544 15-11-2018 21:15:00 6.6 C 92 % 5.4 C
545 15-11-2018 21:20:00 6.6 C 92 % 5.4 C
546 15-11-2018 21:25:00 6.6 C 92 % 5.4 C
547 15-11-2018 21:30:00 6.6 C 92 % 5.4 C
548 15-11-2018 21:35:00 6.6 C 92 % 5.4 C
549 15-11-2018 21:40:00 6.6 C 92 % 5.4 C
550 15-11-2018 21:45:00 6.6 C 92 % 5.4 C
Sensor: Nr:Datum:Temp:Feuchte:Taupunkt:
Aussen-T/F 551 15-11-2018 21:50:00 6.6 C 92 % 5.4 C
552 15-11-2018 21:55:00 6.6 C 92 % 5.4 C
553 15-11-2018 22:00:00 6.6 C 92 % 5.4 C
554 15-11-2018 22:05:00 6.6 C 92 % 5.4 C
555 15-11-2018 22:10:00 6.5 C 92 % 5.3 C
556 15-11-2018 22:15:00 6.5 C 92 % 5.3 C
557 15-11-2018 22:20:00 6.5 C 92 % 5.3 C
558 15-11-2018 22:25:00 6.4 C 92 % 5.2 C
559 15-11-2018 22:30:00 6.4 C 92 % 5.2 C
560 15-11-2018 22:35:00 6.4 C 92 % 5.2 C
561 15-11-2018 22:40:00 6.3 C 92 % 5.1 C
562 15-11-2018 22:45:00 6.3 C 91 % 4.94 C
563 15-11-2018 22:50:00 6.3 C 91 % 4.94 C
564 15-11-2018 22:55:00 6.3 C 91 % 4.94 C
565 15-11-2018 23:00:00 6.2 C 91 % 4.84 C
566 15-11-2018 23:05:00 6.2 C 91 % 4.84 C
567 15-11-2018 23:10:00 6.2 C 91 % 4.84 C
568 15-11-2018 23:15:00 6.2 C 91 % 4.84 C
569 15-11-2018 23:20:00 6.2 C 91 % 4.84 C
570 15-11-2018 23:25:00 6.2 C 91 % 4.84 C
571 15-11-2018 23:30:00 6.2 C 91 % 4.84 C
572 15-11-2018 23:35:00 6.2 C 91 % 4.84 C
573 15-11-2018 23:40:00 6.3 C 91 % 4.94 C
574 15-11-2018 23:45:00 6.3 C 91 % 4.94 C
575 15-11-2018 23:50:00 6.3 C 91 % 4.94 C
Sensor: Nr:Datum:Temp:Feuchte:Taupunkt:
Aussen-T/F 576 15-11-2018 23:55:00 6.3 C 91 % 4.94 C
577 16-11-2018 00:00:00 6.3 C 91 % 4.94 C
578 16-11-2018 00:05:00 6.3 C 91 % 4.94 C
579 16-11-2018 00:10:00 6.3 C 91 % 4.94 C
580 16-11-2018 00:15:00 6.3 C 91 % 4.94 C
581 16-11-2018 00:20:00 6.3 C 91 % 4.94 C
582 16-11-2018 00:25:00 6.3 C 91 % 4.94 C
583 16-11-2018 00:30:00 6.3 C 91 % 4.94 C
584 16-11-2018 00:35:00 6.3 C 91 % 4.94 C
585 16-11-2018 00:40:00 6.3 C 91 % 4.94 C
586 16-11-2018 00:45:00 6.3 C 91 % 4.94 C
587 16-11-2018 00:50:00 6.3 C 91 % 4.94 C
588 16-11-2018 00:55:00 6.3 C 91 % 4.94 C
589 16-11-2018 01:00:00 6.3 C 91 % 4.94 C
590 16-11-2018 01:05:00 6.3 C 91 % 4.94 C
591 16-11-2018 01:10:00 6.3 C 91 % 4.94 C
592 16-11-2018 01:15:00 6.3 C 91 % 4.94 C
593 16-11-2018 01:20:00 6.3 C 91 % 4.94 C
594 16-11-2018 01:25:00 6.3 C 91 % 4.94 C
595 16-11-2018 01:30:00 6.3 C 91 % 4.94 C
596 16-11-2018 01:35:00 6.4 C 91 % 5.04 C
597 16-11-2018 01:40:00 6.4 C 91 % 5.04 C
598 16-11-2018 01:45:00 6.4 C 91 % 5.04 C
599 16-11-2018 01:50:00 6.4 C 91 % 5.04 C
600 16-11-2018 01:55:00 6.4 C 91 % 5.04 C
Sensor: Nr:Datum:Temp:Feuchte:Taupunkt:
Aussen-T/F 601 16-11-2018 02:00:00 6.4 C 91 % 5.04 C
602 16-11-2018 02:05:00 6.4 C 91 % 5.04 C
603 16-11-2018 02:10:00 6.4 C 91 % 5.04 C
604 16-11-2018 02:15:00 6.4 C 91 % 5.04 C
605 16-11-2018 02:20:00 6.4 C 91 % 5.04 C
606 16-11-2018 02:25:00 6.4 C 91 % 5.04 C
607 16-11-2018 02:30:00 6.4 C 91 % 5.04 C
608 16-11-2018 02:35:00 6.4 C 91 % 5.04 C
609 16-11-2018 02:40:00 6.4 C 90 % 4.88 C
610 16-11-2018 02:45:00 6.5 C 91 % 5.14 C
611 16-11-2018 02:50:00 6.5 C 90 % 4.98 C
612 16-11-2018 02:55:00 6.5 C 90 % 4.98 C
613 16-11-2018 03:00:00 6.5 C 91 % 5.14 C
614 16-11-2018 03:05:00 6.6 C 90 % 5.08 C
615 16-11-2018 03:10:00 6.6 C 91 % 5.24 C
616 16-11-2018 03:15:00 6.5 C 90 % 4.98 C
617 16-11-2018 03:20:00 6.5 C 90 % 4.98 C
618 16-11-2018 03:25:00 6.6 C 90 % 5.08 C
619 16-11-2018 03:30:00 6.6 C 90 % 5.08 C
620 16-11-2018 03:35:00 6.6 C 90 % 5.08 C
621 16-11-2018 03:40:00 6.6 C 90 % 5.08 C
622 16-11-2018 03:45:00 6.6 C 90 % 5.08 C
623 16-11-2018 03:50:00 6.6 C 90 % 5.08 C
624 16-11-2018 03:55:00 6.6 C 90 % 5.08 C
625 16-11-2018 04:00:00 6.6 C 90 % 5.08 C
Sensor: Nr:Datum:Temp:Feuchte:Taupunkt:
Aussen-T/F 626 16-11-2018 04:05:00 6.6 C 91 % 5.24 C
627 16-11-2018 04:10:00 6.6 C 91 % 5.24 C
628 16-11-2018 04:15:00 6.6 C 90 % 5.08 C
629 16-11-2018 04:20:00 6.6 C 90 % 5.08 C
630 16-11-2018 04:25:00 6.6 C 90 % 5.08 C
631 16-11-2018 04:30:00 6.6 C 90 % 5.08 C
632 16-11-2018 04:35:00 6.6 C 90 % 5.08 C
633 16-11-2018 04:40:00 6.6 C 90 % 5.08 C
634 16-11-2018 04:45:00 6.6 C 90 % 5.08 C
635 16-11-2018 04:50:00 6.6 C 90 % 5.08 C
636 16-11-2018 04:55:00 6.6 C 90 % 5.08 C
637 16-11-2018 05:00:00 6.6 C 91 % 5.24 C
638 16-11-2018 05:05:00 6.6 C 91 % 5.24 C
639 16-11-2018 05:10:00 6.6 C 91 % 5.24 C
640 16-11-2018 05:15:00 6.6 C 91 % 5.24 C
641 16-11-2018 05:20:00 6.6 C 91 % 5.24 C
642 16-11-2018 05:25:00 6.5 C 90 % 4.98 C
643 16-11-2018 05:30:00 6.5 C 90 % 4.98 C
644 16-11-2018 05:35:00 6.4 C 90 % 4.88 C
645 16-11-2018 05:40:00 6.4 C 89 % 4.72 C
646 16-11-2018 05:45:00 6.4 C 89 % 4.72 C
647 16-11-2018 05:50:00 6.4 C 89 % 4.72 C
648 16-11-2018 05:55:00 6.4 C 89 % 4.72 C
649 16-11-2018 06:00:00 6.4 C 89 % 4.72 C
650 16-11-2018 06:05:00 6.4 C 89 % 4.72 C
Sensor: Nr:Datum:Temp:Feuchte:Taupunkt:
Aussen-T/F 651 16-11-2018 06:10:00 6.4 C 89 % 4.72 C
652 16-11-2018 06:15:00 6.4 C 89 % 4.72 C
653 16-11-2018 06:20:00 6.4 C 89 % 4.72 C
654 16-11-2018 06:25:00 6.4 C 90 % 4.88 C
655 16-11-2018 06:30:00 6.4 C 89 % 4.72 C
656 16-11-2018 06:35:00 6.4 C 90 % 4.88 C
657 16-11-2018 06:40:00 6.4 C 90 % 4.88 C
658 16-11-2018 06:45:00 6.3 C 90 % 4.78 C
659 16-11-2018 06:50:00 6.3 C 90 % 4.78 C
660 16-11-2018 06:55:00 6.3 C 90 % 4.78 C
661 16-11-2018 07:00:00 6.3 C 90 % 4.78 C
662 16-11-2018 07:05:00 6.3 C 90 % 4.78 C
663 16-11-2018 07:10:00 6.3 C 90 % 4.78 C
664 16-11-2018 07:15:00 6.3 C 90 % 4.78 C
665 16-11-2018 07:20:00 6.2 C 90 % 4.69 C
666 16-11-2018 07:25:00 6.2 C 90 % 4.69 C
667 16-11-2018 07:30:00 6.2 C 89 % 4.53 C
668 16-11-2018 07:35:00 6.3 C 89 % 4.62 C
669 16-11-2018 07:40:00 6.3 C 89 % 4.62 C
670 16-11-2018 07:45:00 6.3 C 89 % 4.62 C
671 16-11-2018 07:50:00 6.3 C 90 % 4.78 C
672 16-11-2018 07:55:00 6.3 C 89 % 4.62 C
673 16-11-2018 08:00:00 6.3 C 89 % 4.62 C
674 16-11-2018 08:05:00 6.3 C 89 % 4.62 C
675 16-11-2018 08:10:00 6.3 C 88 % 4.46 C
Sensor: Nr:Datum:Temp:Feuchte:Taupunkt:
Aussen-T/F 676 16-11-2018 08:15:00 6.3 C 88 % 4.46 C
677 16-11-2018 08:20:00 6.4 C 88 % 4.56 C
678 16-11-2018 08:25:00 6.4 C 89 % 4.72 C
679 16-11-2018 08:30:00 6.4 C 88 % 4.56 C
680 16-11-2018 08:35:00 6.5 C 89 % 4.82 C
681 16-11-2018 08:40:00 6.5 C 89 % 4.82 C
682 16-11-2018 08:45:00 6.6 C 88 % 4.76 C
683 16-11-2018 08:50:00 6.6 C 88 % 4.76 C
684 16-11-2018 08:55:00 6.7 C 88 % 4.86 C
685 16-11-2018 09:00:00 6.7 C 88 % 4.86 C
686 16-11-2018 09:05:00 6.7 C 88 % 4.86 C
687 16-11-2018 09:10:00 6.8 C 87 % 4.79 C
688 16-11-2018 09:15:00 6.8 C 87 % 4.79 C
689 16-11-2018 09:20:00 6.9 C 88 % 5.05 C
690 16-11-2018 09:25:00 6.9 C 88 % 5.05 C
691 16-11-2018 09:30:00 7 C 87 % 4.99 C
692 16-11-2018 09:35:00 7 C 87 % 4.99 C
693 16-11-2018 09:40:00 7.1 C 87 % 5.09 C
694 16-11-2018 09:45:00 7.1 C 87 % 5.09 C
695 16-11-2018 09:50:00 7.2 C 87 % 5.19 C
696 16-11-2018 09:55:00 7.2 C 87 % 5.19 C
697 16-11-2018 10:00:00 7.2 C 86 % 5.02 C
698 16-11-2018 10:05:00 7.3 C 86 % 5.12 C
699 16-11-2018 10:10:00 7.3 C 86 % 5.12 C
700 16-11-2018 10:15:00 7.3 C 86 % 5.12 C
Sensor: Nr:Datum:Temp:Feuchte:Taupunkt:
Aussen-T/F 701 16-11-2018 10:20:00 7.3 C 86 % 5.12 C
702 16-11-2018 10:25:00 7.2 C 86 % 5.02 C
703 16-11-2018 10:30:00 7.2 C 86 % 5.02 C
704 16-11-2018 10:35:00 7.2 C 86 % 5.02 C
705 16-11-2018 10:40:00 7.2 C 86 % 5.02 C
706 16-11-2018 10:45:00 7.1 C 87 % 5.09 C
707 16-11-2018 10:50:00 7 C 86 % 4.82 C
708 16-11-2018 10:55:00 6.9 C 87 % 4.89 C
709 16-11-2018 11:00:00 6.9 C 87 % 4.89 C
710 16-11-2018 11:05:00 6.8 C 88 % 4.96 C
711 16-11-2018 11:10:00 6.8 C 88 % 4.96 C
712 16-11-2018 11:15:00 6.7 C 88 % 4.86 C
713 16-11-2018 11:20:00 6.7 C 89 % 5.02 C
714 16-11-2018 11:25:00 6.6 C 89 % 4.92 C
715 16-11-2018 11:30:00 6.6 C 89 % 4.92 C
716 16-11-2018 11:35:00 6.6 C 90 % 5.08 C
717 16-11-2018 11:40:00 6.6 C 89 % 4.92 C
718 16-11-2018 11:45:00 6.7 C 90 % 5.18 C
719 16-11-2018 11:50:00 6.7 C 90 % 5.18 C
720 16-11-2018 11:55:00 6.7 C 90 % 5.18 C
721 16-11-2018 12:00:00 6.7 C 90 % 5.18 C
722 16-11-2018 12:05:00 6.8 C 90 % 5.28 C
723 16-11-2018 12:10:00 6.8 C 90 % 5.28 C
724 16-11-2018 12:15:00 6.8 C 90 % 5.28 C
725 16-11-2018 12:20:00 6.8 C 90 % 5.28 C
Sensor: Nr:Datum:Temp:Feuchte:Taupunkt:
Aussen-T/F 726 16-11-2018 12:25:00 6.8 C 90 % 5.28 C
727 16-11-2018 12:30:00 6.8 C 91 % 5.44 C
728 16-11-2018 12:35:00 6.8 C 91 % 5.44 C
729 16-11-2018 12:40:00 6.8 C 91 % 5.44 C
730 16-11-2018 12:45:00 6.9 C 91 % 5.54 C
731 16-11-2018 12:50:00 6.9 C 91 % 5.54 C
732 16-11-2018 12:55:00 6.9 C 91 % 5.54 C
733 16-11-2018 13:00:00 7 C 91 % 5.63 C
734 16-11-2018 13:05:00 7.1 C 91 % 5.73 C
735 16-11-2018 13:10:00 7.2 C 91 % 5.83 C
736 16-11-2018 13:15:00 7.2 C 91 % 5.83 C
737 16-11-2018 13:20:00 7.2 C 91 % 5.83 C
738 16-11-2018 13:25:00 7.3 C 91 % 5.93 C
739 16-11-2018 13:30:00 7.3 C 91 % 5.93 C
740 16-11-2018 13:35:00 7.3 C 91 % 5.93 C
741 16-11-2018 13:40:00 7.4 C 91 % 6.03 C
742 16-11-2018 13:45:00 7.4 C 90 % 5.87 C
743 16-11-2018 13:50:00 7.4 C 90 % 5.87 C
744 16-11-2018 13:55:00 7.5 C 90 % 5.97 C
745 16-11-2018 14:00:00 7.5 C 90 % 5.97 C
746 16-11-2018 14:05:00 7.6 C 89 % 5.91 C
747 16-11-2018 14:10:00 7.6 C 88 % 5.74 C
748 16-11-2018 14:15:00 7.6 C 88 % 5.74 C
749 16-11-2018 14:20:00 7.6 C 87 % 5.58 C
750 16-11-2018 14:25:00 7.6 C 87 % 5.58 C
Sensor: Nr:Datum:Temp:Feuchte:Taupunkt:
Aussen-T/F 751 16-11-2018 14:30:00 7.6 C 86 % 5.41 C
752 16-11-2018 14:35:00 7.7 C 86 % 5.51 C
753 16-11-2018 14:40:00 7.8 C 86 % 5.61 C
754 16-11-2018 14:45:00 7.8 C 86 % 5.61 C
755 16-11-2018 14:50:00 7.8 C 86 % 5.61 C
756 16-11-2018 14:55:00 7.8 C 86 % 5.61 C
757 16-11-2018 15:00:00 7.8 C 86 % 5.61 C
758 16-11-2018 15:05:00 7.8 C 85 % 5.44 C
759 16-11-2018 15:10:00 7.8 C 86 % 5.61 C
760 16-11-2018 15:15:00 7.9 C 86 % 5.71 C
761 16-11-2018 15:20:00 7.8 C 84 % 5.27 C
762 16-11-2018 15:25:00 7.9 C 85 % 5.54 C
763 16-11-2018 15:30:00 7.8 C 84 % 5.27 C
764 16-11-2018 15:35:00 7.9 C 83 % 5.2 C
765 16-11-2018 15:40:00 7.9 C 84 % 5.37 C
766 16-11-2018 15:45:00 7.8 C 84 % 5.27 C
767 16-11-2018 15:50:00 7.7 C 84 % 5.17 C
768 16-11-2018 15:55:00 7.7 C 84 % 5.17 C
769 16-11-2018 16:00:00 7.6 C 84 % 5.07 C
770 16-11-2018 16:05:00 7.4 C 85 % 5.05 C
771 16-11-2018 16:10:00 7.3 C 84 % 4.78 C
772 16-11-2018 16:15:00 7.2 C 85 % 4.85 C
773 16-11-2018 16:20:00 7 C 85 % 4.66 C
774 16-11-2018 16:25:00 6.9 C 85 % 4.56 C
775 16-11-2018 16:30:00 6.8 C 86 % 4.63 C
Sensor: Nr:Datum:Temp:Feuchte:Taupunkt:
Aussen-T/F 776 16-11-2018 16:35:00 6.7 C 86 % 4.53 C
777 16-11-2018 16:40:00 6.6 C 86 % 4.43 C
778 16-11-2018 16:45:00 6.5 C 86 % 4.33 C
779 16-11-2018 16:50:00 6.4 C 86 % 4.23 C
780 16-11-2018 16:55:00 6.3 C 87 % 4.3 C
781 16-11-2018 17:00:00 6.2 C 87 % 4.2 C
782 16-11-2018 17:05:00 6.2 C 87 % 4.2 C
783 16-11-2018 17:10:00 6.1 C 87 % 4.1 C
784 16-11-2018 17:15:00 6.1 C 88 % 4.27 C
785 16-11-2018 17:20:00 5.9 C 88 % 4.07 C
786 16-11-2018 17:25:00 5.8 C 88 % 3.97 C
787 16-11-2018 17:30:00 5.8 C 88 % 3.97 C
788 16-11-2018 17:35:00 5.7 C 88 % 3.87 C
789 16-11-2018 17:40:00 5.6 C 88 % 3.77 C
790 16-11-2018 17:45:00 5.6 C 89 % 3.93 C
791 16-11-2018 17:50:00 5.4 C 89 % 3.74 C
792 16-11-2018 17:55:00 5.4 C 89 % 3.74 C
793 16-11-2018 18:00:00 5.3 C 89 % 3.64 C
794 16-11-2018 18:05:00 5.3 C 90 % 3.8 C
795 16-11-2018 18:10:00 5.3 C 90 % 3.8 C
796 16-11-2018 18:15:00 5.2 C 90 % 3.7 C
797 16-11-2018 18:20:00 5.2 C 90 % 3.7 C
798 16-11-2018 18:25:00 5.1 C 90 % 3.6 C
799 16-11-2018 18:30:00 5.1 C 90 % 3.6 C
800 16-11-2018 18:35:00 5.1 C 90 % 3.6 C
Sensor: Nr:Datum:Temp:Feuchte:Taupunkt:
Aussen-T/F 801 16-11-2018 18:40:00 5 C 90 % 3.5 C
802 16-11-2018 18:45:00 4.9 C 90 % 3.4 C
803 16-11-2018 18:50:00 4.9 C 90 % 3.4 C
804 16-11-2018 18:55:00 4.9 C 91 % 3.56 C
805 16-11-2018 19:00:00 4.8 C 91 % 3.46 C
806 16-11-2018 19:05:00 4.8 C 90 % 3.3 C
807 16-11-2018 19:10:00 4.7 C 91 % 3.36 C
808 16-11-2018 19:15:00 4.7 C 91 % 3.36 C
809 16-11-2018 19:20:00 4.7 C 91 % 3.36 C
810 16-11-2018 19:25:00 4.6 C 91 % 3.26 C
811 16-11-2018 19:30:00 4.6 C 91 % 3.26 C
812 16-11-2018 19:35:00 4.5 C 91 % 3.16 C
813 16-11-2018 19:40:00 4.4 C 91 % 3.06 C
814 16-11-2018 19:45:00 4.4 C 91 % 3.06 C
815 16-11-2018 19:50:00 4.3 C 92 % 3.12 C
816 16-11-2018 19:55:00 4.3 C 92 % 3.12 C
817 16-11-2018 20:00:00 4.3 C 92 % 3.12 C
818 16-11-2018 20:05:00 4.2 C 92 % 3.02 C
819 16-11-2018 20:10:00 4.2 C 92 % 3.02 C
820 16-11-2018 20:15:00 4.2 C 92 % 3.02 C
821 16-11-2018 20:20:00 4.1 C 92 % 2.92 C
822 16-11-2018 20:25:00 4.1 C 92 % 2.92 C
823 16-11-2018 20:30:00 3.9 C 93 % 2.87 C
824 16-11-2018 20:35:00 3.9 C 93 % 2.87 C
825 16-11-2018 20:40:00 3.8 C 93 % 2.77 C
Sensor: Nr:Datum:Temp:Feuchte:Taupunkt:
Aussen-T/F 826 16-11-2018 20:45:00 3.8 C 93 % 2.77 C
827 16-11-2018 20:50:00 3.8 C 93 % 2.77 C
828 16-11-2018 20:55:00 3.7 C 93 % 2.68 C
829 16-11-2018 21:00:00 3.6 C 93 % 2.58 C
830 16-11-2018 21:05:00 3.6 C 93 % 2.58 C
831 16-11-2018 21:10:00 3.5 C 93 % 2.48 C
832 16-11-2018 21:15:00 3.5 C 93 % 2.48 C
833 16-11-2018 21:20:00 3.4 C 93 % 2.38 C
834 16-11-2018 21:25:00 3.4 C 94 % 2.53 C
835 16-11-2018 21:30:00 3.4 C 94 % 2.53 C
836 16-11-2018 21:35:00 3.4 C 94 % 2.53 C
837 16-11-2018 21:40:00 3.3 C 94 % 2.43 C
838 16-11-2018 21:45:00 3.3 C 94 % 2.43 C
839 16-11-2018 21:50:00 3.2 C 94 % 2.33 C
840 16-11-2018 21:55:00 3.1 C 93 % 2.08 C
841 16-11-2018 22:00:00 3.1 C 94 % 2.23 C
842 16-11-2018 22:05:00 3 C 94 % 2.13 C
843 16-11-2018 22:10:00 2.9 C 93 % 1.88 C
844 16-11-2018 22:15:00 2.8 C 94 % 1.93 C
845 16-11-2018 22:20:00 2.8 C 94 % 1.93 C
846 16-11-2018 22:25:00 2.7 C 94 % 1.83 C
847 16-11-2018 22:30:00 2.6 C 94 % 1.73 C
848 16-11-2018 22:35:00 2.4 C 94 % 1.54 C
849 16-11-2018 22:40:00 2.3 C 94 % 1.44 C
850 16-11-2018 22:45:00 2.2 C 94 % 1.34 C
Sensor: Nr:Datum:Temp:Feuchte:Taupunkt:
Aussen-T/F 851 16-11-2018 22:50:00 2.1 C 94 % 1.24 C
852 16-11-2018 22:55:00 2 C 94 % 1.14 C
853 16-11-2018 23:00:00 1.9 C 94 % 1.04 C
854 16-11-2018 23:05:00 1.8 C 94 % 0.94 C
855 16-11-2018 23:10:00 1.8 C 94 % 0.94 C
856 16-11-2018 23:15:00 1.8 C 94 % 0.94 C
857 16-11-2018 23:20:00 1.7 C 94 % 0.84 C
858 16-11-2018 23:25:00 1.7 C 94 % 0.84 C
859 16-11-2018 23:30:00 1.7 C 95 % 0.99 C
860 16-11-2018 23:35:00 1.6 C 95 % 0.89 C
861 16-11-2018 23:40:00 1.6 C 95 % 0.89 C
862 16-11-2018 23:45:00 1.6 C 95 % 0.89 C
863 16-11-2018 23:50:00 1.5 C 95 % 0.79 C
864 16-11-2018 23:55:00 1.4 C 95 % 0.69 C
865 17-11-2018 00:00:00 1.4 C 95 % 0.69 C
866 17-11-2018 00:05:00 1.3 C 95 % 0.59 C
867 17-11-2018 00:10:00 1.2 C 95 % 0.49 C
868 17-11-2018 00:15:00 1.1 C 95 % 0.39 C
869 17-11-2018 00:20:00 1.1 C 95 % 0.39 C
870 17-11-2018 00:25:00 1.1 C 95 % 0.39 C
871 17-11-2018 00:30:00 1.1 C 95 % 0.39 C
872 17-11-2018 00:35:00 1 C 95 % 0.29 C
873 17-11-2018 00:40:00 0.9 C 95 % 0.19 C
874 17-11-2018 00:45:00 0.9 C 95 % 0.19 C
875 17-11-2018 00:50:00 1 C 95 % 0.29 C
Sensor: Nr:Datum:Temp:Feuchte:Taupunkt:
Aussen-T/F 876 17-11-2018 00:55:00 1.1 C 95 % 0.39 C
877 17-11-2018 01:00:00 1 C 95 % 0.29 C
878 17-11-2018 01:05:00 0.9 C 95 % 0.19 C
879 17-11-2018 01:10:00 0.8 C 95 % 0.09 C
880 17-11-2018 01:15:00 0.8 C 95 % 0.09 C
881 17-11-2018 01:20:00 0.8 C 95 % 0.09 C
882 17-11-2018 01:25:00 0.7 C 95 % -0.01 C
883 17-11-2018 01:30:00 0.7 C 95 % -0.01 C
884 17-11-2018 01:35:00 0.6 C 95 % -0.11 C
885 17-11-2018 01:40:00 0.6 C 95 % -0.11 C
886 17-11-2018 01:45:00 0.6 C 96 % 0.04 C
887 17-11-2018 01:50:00 0.7 C 96 % 0.14 C
888 17-11-2018 01:55:00 0.6 C 96 % 0.04 C
889 17-11-2018 02:00:00 0.5 C 95 % -0.21 C
890 17-11-2018 02:05:00 0.4 C 95 % -0.31 C
891 17-11-2018 02:10:00 0.4 C 95 % -0.31 C
892 17-11-2018 02:15:00 0.3 C 96 % -0.26 C
893 17-11-2018 02:20:00 0.3 C 96 % -0.26 C
894 17-11-2018 02:25:00 0.2 C 95 % -0.5 C
895 17-11-2018 02:30:00 0.1 C 95 % -0.6 C
896 17-11-2018 02:35:00 0.2 C 95 % -0.5 C
897 17-11-2018 02:40:00 0.1 C 96 % -0.46 C
898 17-11-2018 02:45:00 0.1 C 96 % -0.46 C
899 17-11-2018 02:50:00 0.1 C 96 % -0.46 C
900 17-11-2018 02:55:00 0.2 C 96 % -0.36 C
Sensor: Nr:Datum:Temp:Feuchte:Taupunkt:
Aussen-T/F 901 17-11-2018 03:00:00 0.2 C 96 % -0.36 C
902 17-11-2018 03:05:00 0.3 C 96 % -0.26 C
903 17-11-2018 03:10:00 0.3 C 96 % -0.26 C
904 17-11-2018 03:15:00 0.3 C 96 % -0.26 C
905 17-11-2018 03:20:00 0.3 C 96 % -0.26 C
906 17-11-2018 03:25:00 0.3 C 96 % -0.26 C
907 17-11-2018 03:30:00 0.2 C 96 % -0.36 C
908 17-11-2018 03:35:00 0.1 C 96 % -0.46 C
909 17-11-2018 03:40:00 0.1 C 96 % -0.46 C
910 17-11-2018 03:45:00 0.1 C 96 % -0.46 C
911 17-11-2018 03:50:00 0.1 C 96 % -0.46 C
912 17-11-2018 03:55:00 0.2 C 96 % -0.36 C
913 17-11-2018 04:00:00 0.2 C 96 % -0.36 C
914 17-11-2018 04:05:00 0.2 C 96 % -0.36 C
915 17-11-2018 04:10:00 0.2 C 96 % -0.36 C
916 17-11-2018 04:15:00 0.3 C 96 % -0.26 C
917 17-11-2018 04:20:00 0.4 C 96 % -0.16 C
918 17-11-2018 04:25:00 0.4 C 96 % -0.16 C
919 17-11-2018 04:30:00 0.5 C 96 % -0.06 C
920 17-11-2018 04:35:00 0.5 C 96 % -0.06 C
921 17-11-2018 04:40:00 0.5 C 96 % -0.06 C
922 17-11-2018 04:45:00 0.5 C 96 % -0.06 C
923 17-11-2018 04:50:00 0.5 C 96 % -0.06 C
924 17-11-2018 04:55:00 0.4 C 96 % -0.16 C
925 17-11-2018 05:00:00 0.4 C 96 % -0.16 C
Sensor: Nr:Datum:Temp:Feuchte:Taupunkt:
Aussen-T/F 926 17-11-2018 05:05:00 0.4 C 96 % -0.16 C
927 17-11-2018 05:10:00 0.4 C 96 % -0.16 C
928 17-11-2018 05:15:00 0.4 C 96 % -0.16 C
929 17-11-2018 05:20:00 0.4 C 96 % -0.16 C
930 17-11-2018 05:25:00 0.4 C 96 % -0.16 C
931 17-11-2018 05:30:00 0.4 C 96 % -0.16 C
932 17-11-2018 05:35:00 0.4 C 96 % -0.16 C
933 17-11-2018 05:40:00 0.3 C 96 % -0.26 C
934 17-11-2018 05:45:00 0.3 C 96 % -0.26 C
935 17-11-2018 05:50:00 0.3 C 96 % -0.26 C
936 17-11-2018 05:55:00 0.3 C 96 % -0.26 C
937 17-11-2018 06:00:00 0.3 C 96 % -0.26 C
938 17-11-2018 06:05:00 0.2 C 96 % -0.36 C
939 17-11-2018 06:10:00 0.2 C 96 % -0.36 C
940 17-11-2018 06:15:00 0.2 C 96 % -0.36 C
941 17-11-2018 06:20:00 0.1 C 96 % -0.46 C
942 17-11-2018 06:25:00 0 C 96 % -0.56 C
943 17-11-2018 06:30:00 -0.1 C 96 % -0.66 C
944 17-11-2018 06:35:00 -0.1 C 96 % -0.66 C
945 17-11-2018 06:40:00 -0.1 C 96 % -0.66 C
946 17-11-2018 06:45:00 -0.1 C 96 % -0.66 C
947 17-11-2018 06:50:00 0 C 96 % -0.56 C
948 17-11-2018 06:55:00 0.1 C 96 % -0.46 C
949 17-11-2018 07:00:00 0.2 C 96 % -0.36 C
950 17-11-2018 07:05:00 0.2 C 97 % -0.22 C
Sensor: Nr:Datum:Temp:Feuchte:Taupunkt:
Aussen-T/F 951 17-11-2018 07:10:00 0.2 C 96 % -0.36 C
952 17-11-2018 07:15:00 0.1 C 96 % -0.46 C
953 17-11-2018 07:20:00 0.1 C 96 % -0.46 C
954 17-11-2018 07:25:00 0 C 96 % -0.56 C
955 17-11-2018 07:30:00 -0.1 C 96 % -0.66 C
956 17-11-2018 07:35:00 -0.1 C 96 % -0.66 C
957 17-11-2018 07:40:00 -0.2 C 96 % -0.76 C
958 17-11-2018 07:45:00 -0.2 C 96 % -0.76 C
959 17-11-2018 07:50:00 -0.3 C 96 % -0.86 C
960 17-11-2018 07:55:00 -0.3 C 96 % -0.86 C
961 17-11-2018 08:00:00 -0.3 C 96 % -0.86 C
962 17-11-2018 08:05:00 -0.3 C 96 % -0.86 C
963 17-11-2018 08:10:00 -0.3 C 96 % -0.86 C
964 17-11-2018 08:15:00 -0.2 C 96 % -0.76 C
965 17-11-2018 08:20:00 -0.2 C 96 % -0.76 C
966 17-11-2018 08:25:00 -0.2 C 96 % -0.76 C
967 17-11-2018 08:30:00 -0.1 C 96 % -0.66 C
968 17-11-2018 08:35:00 -0.1 C 97 % -0.52 C
969 17-11-2018 08:40:00 0 C 97 % -0.42 C
970 17-11-2018 08:45:00 0 C 97 % -0.42 C
971 17-11-2018 08:50:00 0.1 C 97 % -0.32 C
972 17-11-2018 08:55:00 0.1 C 97 % -0.32 C
973 17-11-2018 09:00:00 0.2 C 97 % -0.22 C
974 17-11-2018 09:05:00 0.3 C 97 % -0.12 C
975 17-11-2018 09:10:00 0.3 C 97 % -0.12 C
Sensor: Nr:Datum:Temp:Feuchte:Taupunkt:
Aussen-T/F 976 17-11-2018 09:15:00 0.3 C 97 % -0.12 C
977 17-11-2018 09:20:00 0.4 C 97 % -0.02 C
978 17-11-2018 09:25:00 0.4 C 97 % -0.02 C
979 17-11-2018 09:30:00 0.4 C 97 % -0.02 C
980 17-11-2018 09:35:00 0.4 C 97 % -0.02 C
981 17-11-2018 09:40:00 0.5 C 97 % 0.08 C
982 17-11-2018 09:45:00 0.6 C 97 % 0.18 C
983 17-11-2018 09:50:00 0.6 C 97 % 0.18 C
984 17-11-2018 09:55:00 0.7 C 97 % 0.28 C
985 17-11-2018 10:00:00 0.8 C 97 % 0.38 C
986 17-11-2018 10:05:00 0.8 C 97 % 0.38 C
987 17-11-2018 10:10:00 0.9 C 97 % 0.48 C
988 17-11-2018 10:15:00 1.1 C 97 % 0.68 C
989 17-11-2018 10:20:00 1.2 C 97 % 0.78 C
990 17-11-2018 10:25:00 1.2 C 97 % 0.78 C
991 17-11-2018 10:30:00 1.3 C 97 % 0.88 C
992 17-11-2018 10:35:00 1.3 C 97 % 0.88 C
993 17-11-2018 10:40:00 1.4 C 97 % 0.98 C
994 17-11-2018 10:45:00 1.4 C 97 % 0.98 C
995 17-11-2018 10:50:00 1.5 C 97 % 1.08 C
996 17-11-2018 10:55:00 1.5 C 97 % 1.08 C
997 17-11-2018 11:00:00 1.6 C 97 % 1.18 C
998 17-11-2018 11:05:00 1.6 C 97 % 1.18 C
999 17-11-2018 11:10:00 1.6 C 97 % 1.18 C
1000 17-11-2018 11:15:00 1.7 C 97 % 1.28 C
Sensor: Nr:Datum:Temp:Feuchte:Taupunkt:
Aussen-T/F 1001 17-11-2018 11:20:00 1.7 C 97 % 1.28 C
1002 17-11-2018 11:25:00 1.8 C 97 % 1.38 C
1003 17-11-2018 11:30:00 1.9 C 97 % 1.48 C
1004 17-11-2018 11:35:00 2.1 C 97 % 1.67 C
1005 17-11-2018 11:40:00 2.2 C 97 % 1.77 C
1006 17-11-2018 11:45:00 2.3 C 97 % 1.87 C
1007 17-11-2018 11:50:00 2.4 C 97 % 1.97 C
1008 17-11-2018 11:55:00 2.4 C 97 % 1.97 C
1009 17-11-2018 12:00:00 2.6 C 97 % 2.17 C
1010 17-11-2018 12:05:00 2.6 C 97 % 2.17 C
1011 17-11-2018 12:10:00 2.7 C 97 % 2.27 C
1012 17-11-2018 12:15:00 2.7 C 97 % 2.27 C
1013 17-11-2018 12:20:00 2.8 C 97 % 2.37 C
1014 17-11-2018 12:25:00 2.8 C 97 % 2.37 C
1015 17-11-2018 12:30:00 2.9 C 97 % 2.47 C
1016 17-11-2018 12:35:00 3 C 97 % 2.57 C
1017 17-11-2018 12:40:00 3.1 C 97 % 2.67 C
1018 17-11-2018 12:45:00 3.2 C 97 % 2.77 C
1019 17-11-2018 12:50:00 3.3 C 97 % 2.87 C
1020 17-11-2018 12:55:00 3.4 C 97 % 2.97 C
1021 17-11-2018 13:00:00 3.5 C 97 % 3.07 C
1022 17-11-2018 13:05:00 3.6 C 97 % 3.17 C
1023 17-11-2018 13:10:00 3.7 C 97 % 3.27 C
1024 17-11-2018 13:15:00 3.8 C 97 % 3.37 C
1025 17-11-2018 13:20:00 3.9 C 97 % 3.47 C
Sensor: Nr:Datum:Temp:Feuchte:Taupunkt:
Aussen-T/F 1026 17-11-2018 13:25:00 4.1 C 97 % 3.67 C
1027 17-11-2018 13:30:00 4.2 C 97 % 3.77 C
1028 17-11-2018 13:35:00 4.3 C 97 % 3.87 C
1029 17-11-2018 13:40:00 4.3 C 96 % 3.72 C
1030 17-11-2018 13:45:00 4.4 C 97 % 3.97 C
1031 17-11-2018 13:50:00 4.6 C 96 % 4.02 C
1032 17-11-2018 13:55:00 4.6 C 96 % 4.02 C
1033 17-11-2018 14:00:00 4.8 C 96 % 4.22 C
1034 17-11-2018 14:05:00 4.9 C 95 % 4.17 C
1035 17-11-2018 14:10:00 5.1 C 95 % 4.37 C
1036 17-11-2018 14:15:00 5.2 C 94 % 4.32 C
1037 17-11-2018 14:20:00 5.3 C 92 % 4.11 C
1038 17-11-2018 14:25:00 5.8 C 90 % 4.29 C
1039 17-11-2018 14:30:00 6 C 89 % 4.33 C
1040 17-11-2018 14:35:00 6.1 C 89 % 4.43 C
1041 17-11-2018 14:40:00 6.1 C 88 % 4.27 C
1042 17-11-2018 14:45:00 6.3 C 85 % 3.97 C
1043 17-11-2018 14:50:00 6.7 C 84 % 4.19 C
1044 17-11-2018 14:55:00 6.8 C 83 % 4.12 C
1045 17-11-2018 15:00:00 6.8 C 82 % 3.95 C
1046 17-11-2018 15:05:00 7.1 C 80 % 3.89 C
1047 17-11-2018 15:10:00 7.1 C 80 % 3.89 C
1048 17-11-2018 15:15:00 7 C 81 % 3.97 C
1049 17-11-2018 15:20:00 6.9 C 79 % 3.52 C
1050 17-11-2018 15:25:00 6.8 C 80 % 3.6 C
Sensor: Nr:Datum:Temp:Feuchte:Taupunkt:
Aussen-T/F 1051 17-11-2018 15:30:00 7.2 C 77 % 3.45 C
1052 17-11-2018 15:35:00 7.3 C 74 % 2.98 C
1053 17-11-2018 15:40:00 7.6 C 71 % 2.69 C
1054 17-11-2018 15:45:00 7.9 C 71 % 2.98 C
1055 17-11-2018 15:50:00 8.2 C 70 % 3.06 C
1056 17-11-2018 15:55:00 8.2 C 69 % 2.86 C
1057 17-11-2018 16:00:00 8.1 C 68 % 2.56 C
1058 17-11-2018 16:05:00 8.1 C 69 % 2.77 C
1059 17-11-2018 16:10:00 7.9 C 71 % 2.98 C
1060 17-11-2018 16:15:00 7.7 C 72 % 2.98 C
1061 17-11-2018 16:20:00 7.8 C 71 % 2.88 C
1062 17-11-2018 16:25:00 7.7 C 69 % 2.38 C
1063 17-11-2018 16:30:00 7.6 C 73 % 3.08 C
1064 17-11-2018 16:35:00 7.2 C 74 % 2.89 C
1065 17-11-2018 16:40:00 6.9 C 75 % 2.78 C
1066 17-11-2018 16:45:00 6.6 C 77 % 2.86 C
1067 17-11-2018 16:50:00 6.2 C 78 % 2.66 C
1068 17-11-2018 16:55:00 5.9 C 78 % 2.37 C
1069 17-11-2018 17:00:00 6.1 C 78 % 2.56 C
1070 17-11-2018 17:05:00 5.9 C 78 % 2.37 C
1071 17-11-2018 17:10:00 5.7 C 79 % 2.35 C
1072 17-11-2018 17:15:00 5.6 C 79 % 2.25 C
1073 17-11-2018 17:20:00 5.5 C 80 % 2.33 C
1074 17-11-2018 17:25:00 5.3 C 80 % 2.14 C
1075 17-11-2018 17:30:00 5.1 C 81 % 2.12 C
Sensor: Nr:Datum:Temp:Feuchte:Taupunkt:
Aussen-T/F 1076 17-11-2018 17:35:00 4.9 C 82 % 2.09 C
1077 17-11-2018 17:40:00 4.8 C 82 % 1.99 C
1078 17-11-2018 17:45:00 4.7 C 82 % 1.9 C
1079 17-11-2018 17:50:00 4.9 C 82 % 2.09 C
1080 17-11-2018 17:55:00 4.8 C 82 % 1.99 C
1081 17-11-2018 18:00:00 4.7 C 82 % 1.9 C
1082 17-11-2018 18:05:00 4.7 C 82 % 1.9 C
1083 17-11-2018 18:10:00 4.6 C 82 % 1.8 C
1084 17-11-2018 18:15:00 4.5 C 83 % 1.87 C
1085 17-11-2018 18:20:00 4.4 C 83 % 1.77 C
1086 17-11-2018 18:25:00 4.3 C 83 % 1.67 C
1087 17-11-2018 18:30:00 4.3 C 83 % 1.67 C
1088 17-11-2018 18:35:00 4.3 C 82 % 1.51 C
1089 17-11-2018 18:40:00 4.3 C 83 % 1.67 C
1090 17-11-2018 18:45:00 4.2 C 83 % 1.58 C
1091 17-11-2018 18:50:00 4.2 C 83 % 1.58 C
1092 17-11-2018 18:55:00 4.2 C 83 % 1.58 C
1093 17-11-2018 19:00:00 4.1 C 83 % 1.48 C
1094 17-11-2018 19:05:00 4 C 83 % 1.38 C
1095 17-11-2018 19:10:00 4.1 C 83 % 1.48 C
1096 17-11-2018 19:15:00 4.3 C 81 % 1.34 C
1097 17-11-2018 19:20:00 4.6 C 80 % 1.46 C
1098 17-11-2018 19:25:00 4.6 C 80 % 1.46 C
1099 17-11-2018 19:30:00 4.5 C 80 % 1.36 C
1100 17-11-2018 19:35:00 4.5 C 80 % 1.36 C
Sensor: Nr:Datum:Temp:Feuchte:Taupunkt:
Aussen-T/F 1101 17-11-2018 19:40:00 4.8 C 78 % 1.3 C
1102 17-11-2018 19:45:00 5.1 C 77 % 1.41 C
1103 17-11-2018 19:50:00 5.3 C 74 % 1.05 C
1104 17-11-2018 19:55:00 5.3 C 74 % 1.05 C
1105 17-11-2018 20:00:00 5.3 C 73 % 0.86 C
1106 17-11-2018 20:05:00 5.5 C 72 % 0.86 C
1107 17-11-2018 20:10:00 5.6 C 72 % 0.96 C
1108 17-11-2018 20:15:00 5.7 C 72 % 1.06 C
1109 17-11-2018 20:20:00 5.6 C 72 % 0.96 C
1110 17-11-2018 20:25:00 5.4 C 73 % 0.96 C
1111 17-11-2018 20:30:00 5.2 C 73 % 0.77 C
1112 17-11-2018 20:35:00 5.1 C 74 % 0.86 C
1113 17-11-2018 20:40:00 5 C 74 % 0.76 C
1114 17-11-2018 20:45:00 5.1 C 74 % 0.86 C
1115 17-11-2018 20:50:00 5.1 C 73 % 0.67 C
1116 17-11-2018 20:55:00 5 C 74 % 0.76 C
1117 17-11-2018 21:00:00 4.8 C 74 % 0.57 C
1118 17-11-2018 21:05:00 4.9 C 73 % 0.48 C
1119 17-11-2018 21:10:00 4.9 C 72 % 0.29 C
1120 17-11-2018 21:15:00 4.8 C 73 % 0.38 C
1121 17-11-2018 21:20:00 4.8 C 73 % 0.38 C
1122 17-11-2018 21:25:00 4.9 C 72 % 0.29 C
1123 17-11-2018 21:30:00 4.8 C 73 % 0.38 C
1124 17-11-2018 21:35:00 4.8 C 72 % 0.19 C
1125 17-11-2018 21:40:00 4.8 C 73 % 0.38 C
Sensor: Nr:Datum:Temp:Feuchte:Taupunkt:
Aussen-T/F 1126 17-11-2018 21:45:00 4.7 C 73 % 0.28 C
1127 17-11-2018 21:50:00 4.7 C 73 % 0.28 C
1128 17-11-2018 21:55:00 4.6 C 74 % 0.38 C
1129 17-11-2018 22:00:00 4.6 C 74 % 0.38 C
1130 17-11-2018 22:05:00 4.5 C 74 % 0.28 C
1131 17-11-2018 22:10:00 4.4 C 74 % 0.18 C
1132 17-11-2018 22:15:00 4.4 C 74 % 0.18 C
1133 17-11-2018 22:20:00 4.3 C 75 % 0.27 C
1134 17-11-2018 22:25:00 4.3 C 75 % 0.27 C
1135 17-11-2018 22:30:00 4.2 C 75 % 0.17 C
1136 17-11-2018 22:35:00 4.2 C 76 % 0.36 C
1137 17-11-2018 22:40:00 4.1 C 76 % 0.26 C
1138 17-11-2018 22:45:00 4.1 C 76 % 0.26 C
1139 17-11-2018 22:50:00 4 C 76 % 0.16 C
1140 17-11-2018 22:55:00 4 C 76 % 0.16 C
1141 17-11-2018 23:00:00 3.9 C 77 % 0.25 C
1142 17-11-2018 23:05:00 3.9 C 77 % 0.25 C
1143 17-11-2018 23:10:00 3.8 C 77 % 0.15 C
1144 17-11-2018 23:15:00 3.8 C 77 % 0.15 C
1145 17-11-2018 23:20:00 3.7 C 78 % 0.23 C
1146 17-11-2018 23:25:00 3.7 C 78 % 0.23 C
1147 17-11-2018 23:30:00 3.5 C 79 % 0.21 C
1148 17-11-2018 23:35:00 3.4 C 79 % 0.11 C
1149 17-11-2018 23:40:00 3.3 C 80 % 0.19 C
1150 17-11-2018 23:45:00 3.3 C 79 % 0.02 C
Sensor: Nr:Datum:Temp:Feuchte:Taupunkt:
Aussen-T/F 1151 17-11-2018 23:50:00 3.3 C 80 % 0.19 C
1152 17-11-2018 23:55:00 3.2 C 80 % 0.09 C
1153 18-11-2018 00:00:00 3 C 81 % 0.07 C
1154 18-11-2018 00:05:00 2.8 C 81 % -0.13 C
1155 18-11-2018 00:10:00 2.7 C 82 % -0.06 C
1156 18-11-2018 00:15:00 2.7 C 82 % -0.06 C
1157 18-11-2018 00:20:00 2.7 C 83 % 0.11 C
1158 18-11-2018 00:25:00 2.6 C 83 % 0.01 C
1159 18-11-2018 00:30:00 2.6 C 84 % 0.18 C
1160 18-11-2018 00:35:00 2.6 C 83 % 0.01 C
1161 18-11-2018 00:40:00 2.6 C 83 % 0.01 C
1162 18-11-2018 00:45:00 2.6 C 84 % 0.18 C
1163 18-11-2018 00:50:00 2.6 C 84 % 0.18 C
1164 18-11-2018 00:55:00 2.6 C 84 % 0.18 C
1165 18-11-2018 01:00:00 2.7 C 83 % 0.11 C
1166 18-11-2018 01:05:00 2.7 C 83 % 0.11 C
1167 18-11-2018 01:10:00 2.6 C 83 % 0.01 C
1168 18-11-2018 01:15:00 2.6 C 83 % 0.01 C
1169 18-11-2018 01:20:00 2.6 C 84 % 0.18 C
1170 18-11-2018 01:25:00 2.4 C 84 % -0.02 C
1171 18-11-2018 01:30:00 2.3 C 85 % 0.04 C
1172 18-11-2018 01:35:00 2.2 C 85 % -0.05 C
1173 18-11-2018 01:40:00 2.1 C 85 % -0.15 C
1174 18-11-2018 01:45:00 2.2 C 86 % 0.11 C
1175 18-11-2018 01:50:00 2.2 C 85 % -0.05 C
Sensor: Nr:Datum:Temp:Feuchte:Taupunkt:
Aussen-T/F 1176 18-11-2018 01:55:00 2 C 86 % -0.09 C
1177 18-11-2018 02:00:00 1.9 C 86 % -0.19 C
1178 18-11-2018 02:05:00 1.9 C 87 % -0.03 C
1179 18-11-2018 02:10:00 2.1 C 86 % 0.01 C
1180 18-11-2018 02:15:00 2.2 C 86 % 0.11 C
1181 18-11-2018 02:20:00 2.3 C 85 % 0.04 C
1182 18-11-2018 02:25:00 2.1 C 85 % -0.15 C
1183 18-11-2018 02:30:00 2.1 C 86 % 0.01 C
1184 18-11-2018 02:35:00 2.1 C 86 % 0.01 C
1185 18-11-2018 02:40:00 2.1 C 86 % 0.01 C
1186 18-11-2018 02:45:00 1.9 C 86 % -0.19 C
1187 18-11-2018 02:50:00 1.8 C 86 % -0.29 C
1188 18-11-2018 02:55:00 1.8 C 87 % -0.13 C
1189 18-11-2018 03:00:00 1.8 C 87 % -0.13 C
1190 18-11-2018 03:05:00 1.8 C 87 % -0.13 C
1191 18-11-2018 03:10:00 1.9 C 87 % -0.03 C
1192 18-11-2018 03:15:00 1.9 C 87 % -0.03 C
1193 18-11-2018 03:20:00 2 C 87 % 0.07 C
1194 18-11-2018 03:25:00 1.9 C 86 % -0.19 C
1195 18-11-2018 03:30:00 1.8 C 86 % -0.29 C
1196 18-11-2018 03:35:00 1.7 C 86 % -0.38 C
1197 18-11-2018 03:40:00 1.5 C 87 % -0.42 C
1198 18-11-2018 03:45:00 1.4 C 87 % -0.52 C
1199 18-11-2018 03:50:00 1.2 C 87 % -0.72 C
1200 18-11-2018 03:55:00 1.2 C 88 % -0.56 C
Sensor: Nr:Datum:Temp:Feuchte:Taupunkt:
Aussen-T/F 1201 18-11-2018 04:00:00 1.1 C 88 % -0.66 C
1202 18-11-2018 04:05:00 0.9 C 88 % -0.86 C
1203 18-11-2018 04:10:00 0.9 C 88 % -0.86 C
1204 18-11-2018 04:15:00 0.9 C 89 % -0.7 C
1205 18-11-2018 04:20:00 0.9 C 89 % -0.7 C
1206 18-11-2018 04:25:00 1.1 C 89 % -0.51 C
1207 18-11-2018 04:30:00 1.2 C 88 % -0.56 C
1208 18-11-2018 04:35:00 1.2 C 88 % -0.56 C
1209 18-11-2018 04:40:00 1.3 C 88 % -0.46 C
1210 18-11-2018 04:45:00 1.4 C 88 % -0.36 C
1211 18-11-2018 04:50:00 1.4 C 87 % -0.52 C
1212 18-11-2018 04:55:00 1.3 C 87 % -0.62 C
1213 18-11-2018 05:00:00 1.3 C 87 % -0.62 C
1214 18-11-2018 05:05:00 1.2 C 87 % -0.72 C
1215 18-11-2018 05:10:00 1.3 C 87 % -0.62 C
1216 18-11-2018 05:15:00 1.2 C 86 % -0.88 C
1217 18-11-2018 05:20:00 1.1 C 87 % -0.82 C
1218 18-11-2018 05:25:00 1 C 87 % -0.91 C
1219 18-11-2018 05:30:00 0.8 C 87 % -1.11 C
1220 18-11-2018 05:35:00 0.7 C 87 % -1.21 C
1221 18-11-2018 05:40:00 0.6 C 87 % -1.31 C
1222 18-11-2018 05:45:00 0.7 C 89 % -0.9 C
1223 18-11-2018 05:50:00 0.7 C 88 % -1.05 C
1224 18-11-2018 05:55:00 0.8 C 88 % -0.96 C
1225 18-11-2018 06:00:00 0.8 C 88 % -0.96 C
Sensor: Nr:Datum:Temp:Feuchte:Taupunkt:
Aussen-T/F 1226 18-11-2018 06:05:00 0.7 C 87 % -1.21 C
1227 18-11-2018 06:10:00 0.4 C 87 % -1.5 C
1228 18-11-2018 06:15:00 0.2 C 88 % -1.55 C
1229 18-11-2018 06:20:00 0.1 C 88 % -1.65 C
1230 18-11-2018 06:25:00 -0.1 C 89 % -1.69 C
1231 18-11-2018 06:30:00 -0.1 C 89 % -1.69 C
1232 18-11-2018 06:35:00 -0.2 C 89 % -1.79 C
1233 18-11-2018 06:40:00 -0.3 C 89 % -1.89 C
1234 18-11-2018 06:45:00 -0.5 C 89 % -2.09 C
1235 18-11-2018 06:50:00 -0.6 C 90 % -2.03 C
1236 18-11-2018 06:55:00 -0.7 C 90 % -2.13 C
1237 18-11-2018 07:00:00 -0.7 C 91 % -1.98 C
1238 18-11-2018 07:05:00 -0.7 C 91 % -1.98 C
1239 18-11-2018 07:10:00 -0.7 C 91 % -1.98 C
1240 18-11-2018 07:15:00 -0.8 C 91 % -2.08 C
1241 18-11-2018 07:20:00 -0.9 C 91 % -2.18 C
1242 18-11-2018 07:25:00 -0.9 C 91 % -2.18 C
1243 18-11-2018 07:30:00 -0.9 C 91 % -2.18 C
1244 18-11-2018 07:35:00 -1 C 91 % -2.28 C
1245 18-11-2018 07:40:00 -1 C 91 % -2.28 C
1246 18-11-2018 07:45:00 -1 C 92 % -2.13 C
1247 18-11-2018 07:50:00 -1.1 C 92 % -2.23 C
1248 18-11-2018 07:55:00 -1.1 C 92 % -2.23 C
1249 18-11-2018 08:00:00 -1.1 C 92 % -2.23 C
1250 18-11-2018 08:05:00 -1 C 92 % -2.13 C
Sensor: Nr:Datum:Temp:Feuchte:Taupunkt:
Aussen-T/F 1251 18-11-2018 08:10:00 -0.8 C 93 % -1.79 C
1252 18-11-2018 08:15:00 -0.6 C 93 % -1.59 C
1253 18-11-2018 08:20:00 -0.5 C 92 % -1.64 C
1254 18-11-2018 08:25:00 -0.5 C 92 % -1.64 C
1255 18-11-2018 08:30:00 -0.3 C 91 % -1.59 C
1256 18-11-2018 08:35:00 0.1 C 90 % -1.34 C
1257 18-11-2018 08:40:00 0.3 C 89 % -1.29 C
1258 18-11-2018 08:45:00 0.3 C 89 % -1.29 C
1259 18-11-2018 08:50:00 0.2 C 89 % -1.39 C
1260 18-11-2018 08:55:00 0.1 C 89 % -1.49 C
1261 18-11-2018 09:00:00 0 C 89 % -1.59 C
1262 18-11-2018 09:05:00 -0.1 C 90 % -1.54 C
1263 18-11-2018 09:10:00 -0.1 C 90 % -1.54 C
1264 18-11-2018 09:15:00 -0.1 C 90 % -1.54 C
1265 18-11-2018 09:20:00 -0.2 C 90 % -1.64 C
1266 18-11-2018 09:25:00 -0.2 C 90 % -1.64 C
1267 18-11-2018 09:30:00 -0.2 C 90 % -1.64 C
1268 18-11-2018 09:35:00 -0.2 C 91 % -1.49 C
1269 18-11-2018 09:40:00 -0.2 C 91 % -1.49 C
1270 18-11-2018 09:45:00 -0.2 C 91 % -1.49 C
1271 18-11-2018 09:50:00 -0.2 C 91 % -1.49 C
1272 18-11-2018 09:55:00 -0.2 C 91 % -1.49 C
1273 18-11-2018 10:00:00 -0.2 C 91 % -1.49 C
1274 18-11-2018 10:05:00 -0.1 C 91 % -1.39 C
1275 18-11-2018 10:10:00 -0.1 C 91 % -1.39 C
Sensor: Nr:Datum:Temp:Feuchte:Taupunkt:
Aussen-T/F 1276 18-11-2018 10:15:00 -0.1 C 91 % -1.39 C
1277 18-11-2018 10:20:00 0 C 91 % -1.29 C
1278 18-11-2018 10:25:00 0 C 91 % -1.29 C
1279 18-11-2018 10:30:00 0.1 C 91 % -1.19 C
1280 18-11-2018 10:35:00 0.1 C 91 % -1.19 C
1281 18-11-2018 10:40:00 0.1 C 91 % -1.19 C
1282 18-11-2018 10:45:00 0.1 C 91 % -1.19 C
1283 18-11-2018 10:50:00 0.2 C 91 % -1.09 C
1284 18-11-2018 10:55:00 0.2 C 92 % -0.94 C
1285 18-11-2018 11:00:00 0.3 C 92 % -0.84 C
1286 18-11-2018 11:05:00 0.4 C 92 % -0.74 C
1287 18-11-2018 11:10:00 0.6 C 92 % -0.55 C
1288 18-11-2018 11:15:00 0.7 C 92 % -0.45 C
1289 18-11-2018 11:20:00 0.8 C 91 % -0.5 C
1290 18-11-2018 11:25:00 0.9 C 91 % -0.4 C
1291 18-11-2018 11:30:00 1 C 91 % -0.3 C
1292 18-11-2018 11:35:00 1.1 C 91 % -0.2 C
1293 18-11-2018 11:40:00 1.2 C 91 % -0.1 C
1294 18-11-2018 11:45:00 1.3 C 90 % -0.15 C
1295 18-11-2018 11:50:00 1.4 C 90 % -0.06 C
1296 18-11-2018 11:55:00 1.5 C 90 % 0.04 C
1297 18-11-2018 12:00:00 1.6 C 89 % -0.01 C
1298 18-11-2018 12:05:00 1.7 C 89 % 0.09 C
1299 18-11-2018 12:10:00 1.7 C 89 % 0.09 C
1300 18-11-2018 12:15:00 1.7 C 89 % 0.09 C
Sensor: Nr:Datum:Temp:Feuchte:Taupunkt:
Aussen-T/F 1301 18-11-2018 12:20:00 1.8 C 89 % 0.19 C
1302 18-11-2018 12:25:00 1.8 C 89 % 0.19 C
1303 18-11-2018 12:30:00 1.8 C 89 % 0.19 C
1304 18-11-2018 12:35:00 1.8 C 89 % 0.19 C
1305 18-11-2018 12:40:00 1.9 C 89 % 0.28 C
1306 18-11-2018 12:45:00 1.9 C 89 % 0.28 C
1307 18-11-2018 12:50:00 2.1 C 89 % 0.48 C
1308 18-11-2018 12:55:00 2.1 C 88 % 0.33 C
1309 18-11-2018 13:00:00 2.2 C 88 % 0.42 C
1310 18-11-2018 13:05:00 2.3 C 88 % 0.52 C
1311 18-11-2018 13:10:00 2.4 C 88 % 0.62 C
1312 18-11-2018 13:15:00 2.6 C 88 % 0.82 C
1313 18-11-2018 13:20:00 2.6 C 88 % 0.82 C
1314 18-11-2018 13:25:00 2.7 C 87 % 0.76 C
1315 18-11-2018 13:30:00 2.8 C 87 % 0.86 C
1316 18-11-2018 13:35:00 2.9 C 87 % 0.96 C
1317 18-11-2018 13:40:00 3 C 86 % 0.89 C
1318 18-11-2018 13:45:00 3.1 C 86 % 0.99 C
1319 18-11-2018 13:50:00 3.2 C 86 % 1.09 C
1320 18-11-2018 13:55:00 3.2 C 85 % 0.93 C
1321 18-11-2018 14:00:00 3.3 C 85 % 1.03 C
1322 18-11-2018 14:05:00 3.4 C 83 % 0.79 C
1323 18-11-2018 14:10:00 3.6 C 81 % 0.65 C
1324 18-11-2018 14:15:00 3.8 C 80 % 0.68 C
1325 18-11-2018 14:20:00 3.9 C 79 % 0.6 C
Sensor: Nr:Datum:Temp:Feuchte:Taupunkt:
Aussen-T/F 1326 18-11-2018 14:25:00 4.1 C 78 % 0.62 C
1327 18-11-2018 14:30:00 4.3 C 77 % 0.63 C
1328 18-11-2018 14:35:00 4.4 C 75 % 0.37 C
1329 18-11-2018 14:40:00 4.8 C 69 % -0.39 C
1330 18-11-2018 14:45:00 5.1 C 70 % 0.09 C
1331 18-11-2018 14:50:00 5.4 C 63 % -1.06 C
1332 18-11-2018 14:55:00 5.6 C 68 % 0.17 C
1333 18-11-2018 15:00:00 5.6 C 70 % 0.57 C
1334 18-11-2018 15:05:00 5.3 C 70 % 0.28 C
1335 18-11-2018 15:10:00 5.2 C 71 % 0.38 C
1336 18-11-2018 15:15:00 5 C 72 % 0.38 C
1337 18-11-2018 15:20:00 4.9 C 72 % 0.29 C
1338 18-11-2018 15:25:00 4.8 C 72 % 0.19 C
1339 18-11-2018 15:30:00 4.7 C 73 % 0.28 C
1340 18-11-2018 15:35:00 4.7 C 71 % -0.1 C
1341 18-11-2018 15:40:00 4.7 C 72 % 0.09 C
1342 18-11-2018 15:45:00 4.7 C 71 % -0.1 C
1343 18-11-2018 15:50:00 4.8 C 72 % 0.19 C
1344 18-11-2018 15:55:00 4.9 C 72 % 0.29 C
1345 18-11-2018 16:00:00 5 C 73 % 0.57 C
1346 18-11-2018 16:05:00 5.1 C 73 % 0.67 C
1347 18-11-2018 16:10:00 5.1 C 70 % 0.09 C
1348 18-11-2018 16:15:00 5.2 C 69 % -0.01 C
1349 18-11-2018 16:20:00 5.1 C 70 % 0.09 C
1350 18-11-2018 16:25:00 4.9 C 71 % 0.09 C
Sensor: Nr:Datum:Temp:Feuchte:Taupunkt:
Aussen-T/F 1351 18-11-2018 16:30:00 4.7 C 71 % -0.1 C
1352 18-11-2018 16:35:00 4.6 C 73 % 0.19 C
1353 18-11-2018 16:40:00 4.4 C 72 % -0.19 C
1354 18-11-2018 16:45:00 4.3 C 72 % -0.29 C
1355 18-11-2018 16:50:00 4.3 C 72 % -0.29 C
1356 18-11-2018 16:55:00 4.2 C 73 % -0.2 C
1357 18-11-2018 17:00:00 4.2 C 71 % -0.58 C
1358 18-11-2018 17:05:00 4.2 C 72 % -0.39 C
1359 18-11-2018 17:10:00 4.2 C 71 % -0.58 C
1360 18-11-2018 17:15:00 4.2 C 73 % -0.2 C
1361 18-11-2018 17:20:00 4.1 C 72 % -0.48 C
1362 18-11-2018 17:25:00 3.8 C 72 % -0.77 C
1363 18-11-2018 17:30:00 3.6 C 72 % -0.96 C
1364 18-11-2018 17:35:00 3.4 C 71 % -1.35 C
1365 18-11-2018 17:40:00 3.3 C 71 % -1.44 C
1366 18-11-2018 17:45:00 3.2 C 71 % -1.54 C
1367 18-11-2018 17:50:00 3.2 C 67 % -2.32 C
1368 18-11-2018 17:55:00 3.2 C 68 % -2.12 C
1369 18-11-2018 18:00:00 3.2 C 68 % -2.12 C
1370 18-11-2018 18:05:00 3.2 C 65 % -2.73 C
1371 18-11-2018 18:10:00 3.2 C 68 % -2.12 C
1372 18-11-2018 18:15:00 3.1 C 67 % -2.42 C
1373 18-11-2018 18:20:00 3 C 66 % -2.72 C
1374 18-11-2018 18:25:00 3 C 67 % -2.51 C
1375 18-11-2018 18:30:00 2.8 C 67 % -2.7 C
Sensor: Nr:Datum:Temp:Feuchte:Taupunkt:
Aussen-T/F 1376 18-11-2018 18:35:00 2.7 C 67 % -2.8 C
1377 18-11-2018 18:40:00 2.6 C 65 % -3.3 C
1378 18-11-2018 18:45:00 2.7 C 65 % -3.21 C
1379 18-11-2018 18:50:00 2.7 C 66 % -3 C
1380 18-11-2018 18:55:00 2.7 C 66 % -3 C
1381 18-11-2018 19:00:00 2.7 C 65 % -3.21 C
1382 18-11-2018 19:05:00 2.7 C 66 % -3 C
1383 18-11-2018 19:10:00 2.6 C 65 % -3.3 C
1384 18-11-2018 19:15:00 2.6 C 63 % -3.72 C
1385 18-11-2018 19:20:00 2.5 C 63 % -3.81 C
1386 18-11-2018 19:25:00 2.5 C 63 % -3.81 C
1387 18-11-2018 19:30:00 2.5 C 65 % -3.4 C
1388 18-11-2018 19:35:00 2.4 C 64 % -3.7 C
1389 18-11-2018 19:40:00 2.4 C 64 % -3.7 C
1390 18-11-2018 19:45:00 2.3 C 63 % -4 C
1391 18-11-2018 19:50:00 2.3 C 65 % -3.59 C
1392 18-11-2018 19:55:00 2.3 C 64 % -3.79 C
1393 18-11-2018 20:00:00 2.3 C 64 % -3.79 C
1394 18-11-2018 20:05:00 2.3 C 65 % -3.59 C
1395 18-11-2018 20:10:00 2.3 C 60 % -4.65 C
1396 18-11-2018 20:15:00 2.4 C 64 % -3.7 C
1397 18-11-2018 20:20:00 2.3 C 65 % -3.59 C
1398 18-11-2018 20:25:00 2.2 C 60 % -4.74 C
1399 18-11-2018 20:30:00 2.2 C 63 % -4.1 C
1400 18-11-2018 20:35:00 2.1 C 64 % -3.98 C
Sensor: Nr:Datum:Temp:Feuchte:Taupunkt:
Aussen-T/F 1401 18-11-2018 20:40:00 2 C 61 % -4.71 C
1402 18-11-2018 20:45:00 1.9 C 61 % -4.81 C
1403 18-11-2018 20:50:00 2.1 C 57 % -5.51 C
1404 18-11-2018 20:55:00 2.3 C 60 % -4.65 C
1405 18-11-2018 21:00:00 2.4 C 58 % -5 C
1406 18-11-2018 21:05:00 2.4 C 64 % -3.7 C
1407 18-11-2018 21:10:00 2.4 C 65 % -3.49 C
1408 18-11-2018 21:15:00 2.3 C 64 % -3.79 C
1409 18-11-2018 21:20:00 2.2 C 65 % -3.68 C
1410 18-11-2018 21:25:00 2.2 C 67 % -3.28 C
1411 18-11-2018 21:30:00 2.1 C 66 % -3.57 C
1412 18-11-2018 21:35:00 1.9 C 68 % -3.37 C
1413 18-11-2018 21:40:00 1.8 C 67 % -3.66 C
1414 18-11-2018 21:45:00 1.7 C 67 % -3.75 C
1415 18-11-2018 21:50:00 1.6 C 65 % -4.25 C
1416 18-11-2018 21:55:00 1.6 C 68 % -3.65 C
1417 18-11-2018 22:00:00 1.4 C 67 % -4.04 C
1418 18-11-2018 22:05:00 1.4 C 69 % -3.65 C
1419 18-11-2018 22:10:00 1.4 C 66 % -4.24 C
1420 18-11-2018 22:15:00 1.4 C 67 % -4.04 C
1421 18-11-2018 22:20:00 1.4 C 66 % -4.24 C
1422 18-11-2018 22:25:00 1.4 C 66 % -4.24 C
1423 18-11-2018 22:30:00 1.3 C 66 % -4.34 C
1424 18-11-2018 22:35:00 1.4 C 66 % -4.24 C
1425 18-11-2018 22:40:00 1.4 C 66 % -4.24 C
Sensor: Nr:Datum:Temp:Feuchte:Taupunkt:
Aussen-T/F 1426 18-11-2018 22:45:00 1.3 C 67 % -4.14 C
1427 18-11-2018 22:50:00 1.2 C 69 % -3.84 C
1428 18-11-2018 22:55:00 1 C 69 % -4.03 C
1429 18-11-2018 23:00:00 0.9 C 66 % -4.72 C
1430 18-11-2018 23:05:00 0.9 C 69 % -4.13 C
1431 18-11-2018 23:10:00 0.8 C 69 % -4.22 C
1432 18-11-2018 23:15:00 0.7 C 68 % -4.51 C
1433 18-11-2018 23:20:00 0.6 C 70 % -4.23 C
1434 18-11-2018 23:25:00 0.6 C 66 % -5 C
1435 18-11-2018 23:30:00 0.6 C 66 % -5 C
1436 18-11-2018 23:35:00 0.7 C 65 % -5.11 C
1437 18-11-2018 23:40:00 1.1 C 65 % -4.73 C
1438 18-11-2018 23:45:00 1.2 C 66 % -4.43 C
1439 18-11-2018 23:50:00 1.3 C 66 % -4.34 C
1440 18-11-2018 23:55:00 1.4 C 67 % -4.04 C
1441 19-11-2018 00:00:00 1.7 C 67 % -3.75 C
1442 19-11-2018 00:05:00 1.9 C 69 % -3.17 C
1443 19-11-2018 00:10:00 1.9 C 69 % -3.17 C
1444 19-11-2018 00:15:00 1.8 C 70 % -3.07 C
1445 19-11-2018 00:20:00 1.7 C 72 % -2.79 C
1446 19-11-2018 00:25:00 1.7 C 73 % -2.61 C
1447 19-11-2018 00:30:00 1.6 C 74 % -2.52 C
1448 19-11-2018 00:35:00 1.4 C 75 % -2.53 C
1449 19-11-2018 00:40:00 1.3 C 77 % -2.28 C
1450 19-11-2018 00:45:00 1.2 C 77 % -2.37 C
Sensor: Nr:Datum:Temp:Feuchte:Taupunkt:
Aussen-T/F 1451 19-11-2018 00:50:00 1.1 C 78 % -2.3 C
1452 19-11-2018 00:55:00 1 C 79 % -2.22 C
1453 19-11-2018 01:00:00 0.9 C 80 % -2.15 C
1454 19-11-2018 01:05:00 0.8 C 81 % -2.08 C
1455 19-11-2018 01:10:00 0.7 C 83 % -1.85 C
1456 19-11-2018 01:15:00 0.7 C 83 % -1.85 C
1457 19-11-2018 01:20:00 0.7 C 84 % -1.69 C
1458 19-11-2018 01:25:00 0.7 C 84 % -1.69 C
1459 19-11-2018 01:30:00 0.7 C 85 % -1.53 C
1460 19-11-2018 01:35:00 0.8 C 86 % -1.27 C
1461 19-11-2018 01:40:00 0.8 C 86 % -1.27 C
1462 19-11-2018 01:45:00 0.9 C 86 % -1.17 C
1463 19-11-2018 01:50:00 0.9 C 86 % -1.17 C
1464 19-11-2018 01:55:00 1.1 C 86 % -0.97 C
1465 19-11-2018 02:00:00 1.2 C 86 % -0.88 C
1466 19-11-2018 02:05:00 1.2 C 86 % -0.88 C
1467 19-11-2018 02:10:00 1.3 C 86 % -0.78 C
1468 19-11-2018 02:15:00 1.4 C 87 % -0.52 C
1469 19-11-2018 02:20:00 1.6 C 87 % -0.32 C
1470 19-11-2018 02:25:00 1.6 C 86 % -0.48 C
1471 19-11-2018 02:30:00 1.7 C 86 % -0.38 C
1472 19-11-2018 02:35:00 1.7 C 86 % -0.38 C
1473 19-11-2018 02:40:00 1.8 C 86 % -0.29 C
1474 19-11-2018 02:45:00 1.8 C 86 % -0.29 C
1475 19-11-2018 02:50:00 1.8 C 86 % -0.29 C
Sensor: Nr:Datum:Temp:Feuchte:Taupunkt:
Aussen-T/F 1476 19-11-2018 02:55:00 1.9 C 86 % -0.19 C
1477 19-11-2018 03:00:00 1.9 C 86 % -0.19 C
1478 19-11-2018 03:05:00 1.9 C 86 % -0.19 C
1479 19-11-2018 03:10:00 1.8 C 86 % -0.29 C
1480 19-11-2018 03:15:00 1.8 C 86 % -0.29 C
1481 19-11-2018 03:20:00 1.8 C 87 % -0.13 C
1482 19-11-2018 03:25:00 1.9 C 87 % -0.03 C
1483 19-11-2018 03:30:00 1.9 C 87 % -0.03 C
1484 19-11-2018 03:35:00 1.9 C 87 % -0.03 C
1485 19-11-2018 03:40:00 2 C 87 % 0.07 C
1486 19-11-2018 03:45:00 2.1 C 87 % 0.17 C
1487 19-11-2018 03:50:00 2.1 C 86 % 0.01 C
1488 19-11-2018 03:55:00 2.1 C 86 % 0.01 C
1489 19-11-2018 04:00:00 2.1 C 85 % -0.15 C
1490 19-11-2018 04:05:00 2.1 C 85 % -0.15 C
1491 19-11-2018 04:10:00 2.1 C 85 % -0.15 C
1492 19-11-2018 04:15:00 2 C 85 % -0.25 C
1493 19-11-2018 04:20:00 2 C 85 % -0.25 C
1494 19-11-2018 04:25:00 2 C 84 % -0.41 C
1495 19-11-2018 04:30:00 1.9 C 84 % -0.51 C
1496 19-11-2018 04:35:00 1.9 C 84 % -0.51 C
1497 19-11-2018 04:40:00 1.9 C 84 % -0.51 C
1498 19-11-2018 04:45:00 1.9 C 84 % -0.51 C
1499 19-11-2018 04:50:00 1.8 C 84 % -0.61 C
1500 19-11-2018 04:55:00 1.8 C 84 % -0.61 C
Sensor: Nr:Datum:Temp:Feuchte:Taupunkt:
Aussen-T/F 1501 19-11-2018 05:00:00 1.8 C 84 % -0.61 C
1502 19-11-2018 05:05:00 1.8 C 84 % -0.61 C
1503 19-11-2018 05:10:00 1.8 C 84 % -0.61 C
1504 19-11-2018 05:15:00 1.8 C 84 % -0.61 C
1505 19-11-2018 05:20:00 1.8 C 84 % -0.61 C
1506 19-11-2018 05:25:00 1.8 C 84 % -0.61 C
1507 19-11-2018 05:30:00 1.8 C 84 % -0.61 C
1508 19-11-2018 05:35:00 1.8 C 84 % -0.61 C
1509 19-11-2018 05:40:00 1.7 C 83 % -0.87 C
1510 19-11-2018 05:45:00 1.7 C 83 % -0.87 C
1511 19-11-2018 05:50:00 1.7 C 84 % -0.71 C
1512 19-11-2018 05:55:00 1.7 C 84 % -0.71 C
1513 19-11-2018 06:00:00 1.7 C 84 % -0.71 C
1514 19-11-2018 06:05:00 1.7 C 84 % -0.71 C
1515 19-11-2018 06:10:00 1.7 C 84 % -0.71 C
1516 19-11-2018 06:15:00 1.7 C 84 % -0.71 C
1517 19-11-2018 06:20:00 1.7 C 84 % -0.71 C
1518 19-11-2018 06:25:00 1.7 C 84 % -0.71 C
1519 19-11-2018 06:30:00 1.7 C 84 % -0.71 C
1520 19-11-2018 06:35:00 1.7 C 84 % -0.71 C
1521 19-11-2018 06:40:00 1.7 C 83 % -0.87 C
1522 19-11-2018 06:45:00 1.7 C 83 % -0.87 C
1523 19-11-2018 06:50:00 1.6 C 84 % -0.8 C
1524 19-11-2018 06:55:00 1.6 C 84 % -0.8 C
1525 19-11-2018 07:00:00 1.7 C 84 % -0.71 C
Sensor: Nr:Datum:Temp:Feuchte:Taupunkt:
Aussen-T/F 1526 19-11-2018 07:05:00 1.6 C 84 % -0.8 C
1527 19-11-2018 07:10:00 1.6 C 84 % -0.8 C
1528 19-11-2018 07:15:00 1.6 C 84 % -0.8 C
1529 19-11-2018 07:20:00 1.6 C 85 % -0.64 C
1530 19-11-2018 07:25:00 1.6 C 85 % -0.64 C
1531 19-11-2018 07:30:00 1.6 C 85 % -0.64 C
1532 19-11-2018 07:35:00 1.6 C 85 % -0.64 C
1533 19-11-2018 07:40:00 1.6 C 85 % -0.64 C
1534 19-11-2018 07:45:00 1.6 C 85 % -0.64 C
1535 19-11-2018 07:50:00 1.5 C 85 % -0.74 C
1536 19-11-2018 07:55:00 1.4 C 86 % -0.68 C
1537 19-11-2018 08:00:00 1.4 C 86 % -0.68 C
1538 19-11-2018 08:05:00 1.3 C 86 % -0.78 C
1539 19-11-2018 08:10:00 1.2 C 86 % -0.88 C
1540 19-11-2018 08:15:00 1.1 C 87 % -0.82 C
1541 19-11-2018 08:20:00 1.2 C 88 % -0.56 C
1542 19-11-2018 08:25:00 1.2 C 89 % -0.41 C
1543 19-11-2018 08:30:00 1.3 C 89 % -0.31 C
1544 19-11-2018 08:35:00 1.3 C 89 % -0.31 C
1545 19-11-2018 08:40:00 1.4 C 89 % -0.21 C
1546 19-11-2018 08:45:00 1.4 C 89 % -0.21 C
1547 19-11-2018 08:50:00 1.6 C 88 % -0.17 C
1548 19-11-2018 08:55:00 1.6 C 88 % -0.17 C
1549 19-11-2018 09:00:00 1.7 C 88 % -0.07 C
1550 19-11-2018 09:05:00 1.8 C 88 % 0.03 C
Sensor: Nr:Datum:Temp:Feuchte:Taupunkt:
Aussen-T/F 1551 19-11-2018 09:10:00 1.8 C 88 % 0.03 C
1552 19-11-2018 09:15:00 1.9 C 88 % 0.13 C
1553 19-11-2018 09:20:00 2.1 C 88 % 0.33 C
1554 19-11-2018 09:25:00 2.1 C 87 % 0.17 C
1555 19-11-2018 09:30:00 2.2 C 88 % 0.42 C
1556 19-11-2018 09:35:00 2.3 C 88 % 0.52 C
1557 19-11-2018 09:40:00 2.4 C 87 % 0.46 C
1558 19-11-2018 09:45:00 2.5 C 87 % 0.56 C
1559 19-11-2018 09:50:00 2.6 C 87 % 0.66 C
1560 19-11-2018 09:55:00 2.7 C 87 % 0.76 C
1561 19-11-2018 10:00:00 2.8 C 86 % 0.7 C
1562 19-11-2018 10:05:00 3.1 C 87 % 1.15 C
1563 19-11-2018 10:10:00 3.4 C 88 % 1.61 C
1564 19-11-2018 10:15:00 3.7 C 87 % 1.74 C
1565 19-11-2018 10:20:00 4 C 87 % 2.04 C
1566 19-11-2018 10:25:00 4.3 C 87 % 2.33 C
1567 19-11-2018 10:30:00 4.6 C 86 % 2.47 C
1568 19-11-2018 10:35:00 4.8 C 85 % 2.5 C
1569 19-11-2018 10:40:00 5.2 C 83 % 2.56 C
1570 19-11-2018 10:45:00 5.3 C 83 % 2.65 C
1571 19-11-2018 10:50:00 5.5 C 82 % 2.68 C
1572 19-11-2018 10:55:00 5.6 C 81 % 2.6 C
1573 19-11-2018 11:00:00 5.7 C 80 % 2.53 C
1574 19-11-2018 11:05:00 5.8 C 80 % 2.62 C
1575 19-11-2018 11:10:00 5.8 C 80 % 2.62 C
Sensor: Nr:Datum:Temp:Feuchte:Taupunkt:
Aussen-T/F 1576 19-11-2018 11:15:00 5.8 C 79 % 2.45 C
1577 19-11-2018 11:20:00 5.8 C 79 % 2.45 C
1578 19-11-2018 11:25:00 5.8 C 79 % 2.45 C
1579 19-11-2018 11:30:00 5.8 C 82 % 2.97 C
1580 19-11-2018 11:35:00 5.6 C 83 % 2.95 C
1581 19-11-2018 11:40:00 5.4 C 85 % 3.09 C
1582 19-11-2018 11:45:00 5.3 C 85 % 2.99 C
1583 19-11-2018 11:50:00 5.2 C 86 % 3.05 C
1584 19-11-2018 11:55:00 5.1 C 86 % 2.96 C
1585 19-11-2018 12:00:00 5.1 C 86 % 2.96 C
1586 19-11-2018 12:05:00 5.1 C 86 % 2.96 C
1587 19-11-2018 12:10:00 5.1 C 87 % 3.12 C
1588 19-11-2018 12:15:00 5.1 C 86 % 2.96 C
1589 19-11-2018 12:20:00 5.2 C 84 % 2.72 C
1590 19-11-2018 12:25:00 5.3 C 84 % 2.82 C
1591 19-11-2018 12:30:00 5.3 C 83 % 2.65 C
1592 19-11-2018 12:35:00 5.4 C 81 % 2.41 C
1593 19-11-2018 12:40:00 5.4 C 81 % 2.41 C
1594 19-11-2018 12:45:00 5.5 C 80 % 2.33 C
1595 19-11-2018 12:50:00 5.6 C 80 % 2.43 C
1596 19-11-2018 12:55:00 5.6 C 80 % 2.43 C
1597 19-11-2018 13:00:00 5.6 C 79 % 2.25 C
1598 19-11-2018 13:05:00 5.7 C 79 % 2.35 C
1599 19-11-2018 13:10:00 5.7 C 78 % 2.17 C
1600 19-11-2018 13:15:00 5.7 C 79 % 2.35 C
Sensor: Nr:Datum:Temp:Feuchte:Taupunkt:
Aussen-T/F 1601 19-11-2018 13:20:00 5.7 C 78 % 2.17 C
1602 19-11-2018 13:25:00 5.8 C 77 % 2.09 C
1603 19-11-2018 13:30:00 5.8 C 77 % 2.09 C
1604 19-11-2018 13:35:00 5.8 C 77 % 2.09 C
1605 19-11-2018 13:40:00 5.8 C 77 % 2.09 C
1606 19-11-2018 13:45:00 5.8 C 77 % 2.09 C
1607 19-11-2018 13:50:00 5.8 C 77 % 2.09 C
1608 19-11-2018 13:55:00 5.8 C 77 % 2.09 C
1609 19-11-2018 14:00:00 5.8 C 77 % 2.09 C
1610 19-11-2018 14:05:00 5.8 C 76 % 1.91 C
1611 19-11-2018 14:10:00 5.8 C 76 % 1.91 C
1612 19-11-2018 14:15:00 5.8 C 76 % 1.91 C
1613 19-11-2018 14:20:00 5.8 C 76 % 1.91 C
1614 19-11-2018 14:25:00 5.8 C 76 % 1.91 C
1615 19-11-2018 14:30:00 5.8 C 76 % 1.91 C
1616 19-11-2018 14:35:00 5.7 C 76 % 1.81 C
1617 19-11-2018 14:40:00 5.8 C 76 % 1.91 C
1618 19-11-2018 14:45:00 5.7 C 77 % 1.99 C
1619 19-11-2018 14:50:00 5.7 C 77 % 1.99 C
1620 19-11-2018 14:55:00 5.7 C 77 % 1.99 C
1621 19-11-2018 15:00:00 5.7 C 76 % 1.81 C
1622 19-11-2018 15:05:00 5.7 C 77 % 1.99 C
1623 19-11-2018 15:10:00 5.7 C 76 % 1.81 C
1624 19-11-2018 15:15:00 5.6 C 77 % 1.89 C
1625 19-11-2018 15:20:00 5.4 C 80 % 2.23 C
Sensor: Nr:Datum:Temp:Feuchte:Taupunkt:
Aussen-T/F 1626 19-11-2018 15:25:00 5.3 C 80 % 2.14 C
1627 19-11-2018 15:30:00 5.3 C 81 % 2.31 C
1628 19-11-2018 15:35:00 5.2 C 81 % 2.21 C
1629 19-11-2018 15:40:00 5.1 C 81 % 2.12 C
1630 19-11-2018 15:45:00 5.1 C 81 % 2.12 C
1631 19-11-2018 15:50:00 5.1 C 80 % 1.94 C
1632 19-11-2018 15:55:00 5.1 C 81 % 2.12 C
1633 19-11-2018 16:00:00 5.1 C 80 % 1.94 C
1634 19-11-2018 16:05:00 5.2 C 79 % 1.86 C
1635 19-11-2018 16:10:00 5.2 C 79 % 1.86 C
1636 19-11-2018 16:15:00 5.2 C 79 % 1.86 C
1637 19-11-2018 16:20:00 5.2 C 78 % 1.69 C
1638 19-11-2018 16:25:00 5.2 C 78 % 1.69 C
1639 19-11-2018 16:30:00 5.1 C 78 % 1.59 C
1640 19-11-2018 16:35:00 5.1 C 78 % 1.59 C
1641 19-11-2018 16:40:00 5.1 C 78 % 1.59 C
1642 19-11-2018 16:45:00 5 C 78 % 1.49 C
1643 19-11-2018 16:50:00 4.9 C 78 % 1.39 C
1644 19-11-2018 16:55:00 4.9 C 78 % 1.39 C
1645 19-11-2018 17:00:00 4.9 C 78 % 1.39 C
1646 19-11-2018 17:05:00 4.9 C 79 % 1.57 C
1647 19-11-2018 17:10:00 4.9 C 78 % 1.39 C
1648 19-11-2018 17:15:00 4.9 C 78 % 1.39 C
1649 19-11-2018 17:20:00 4.8 C 78 % 1.3 C
1650 19-11-2018 17:25:00 4.8 C 78 % 1.3 C
Sensor: Nr:Datum:Temp:Feuchte:Taupunkt:
Aussen-T/F 1651 19-11-2018 17:30:00 4.9 C 77 % 1.22 C
1652 19-11-2018 17:35:00 4.9 C 77 % 1.22 C
1653 19-11-2018 17:40:00 4.9 C 77 % 1.22 C
1654 19-11-2018 17:45:00 4.8 C 77 % 1.12 C
1655 19-11-2018 17:50:00 4.8 C 77 % 1.12 C
1656 19-11-2018 17:55:00 4.8 C 77 % 1.12 C
1657 19-11-2018 18:00:00 4.9 C 77 % 1.22 C
1658 19-11-2018 18:05:00 4.9 C 77 % 1.22 C
1659 19-11-2018 18:10:00 4.9 C 77 % 1.22 C
1660 19-11-2018 18:15:00 4.8 C 77 % 1.12 C
1661 19-11-2018 18:20:00 4.8 C 78 % 1.3 C
1662 19-11-2018 18:25:00 4.8 C 78 % 1.3 C
1663 19-11-2018 18:30:00 4.8 C 78 % 1.3 C
1664 19-11-2018 18:35:00 4.8 C 79 % 1.47 C
1665 19-11-2018 18:40:00 4.8 C 80 % 1.65 C
1666 19-11-2018 18:45:00 4.7 C 80 % 1.55 C
1667 19-11-2018 18:50:00 4.7 C 80 % 1.55 C
1668 19-11-2018 18:55:00 4.7 C 80 % 1.55 C
1669 19-11-2018 19:00:00 4.6 C 81 % 1.63 C
1670 19-11-2018 19:05:00 4.6 C 81 % 1.63 C
1671 19-11-2018 19:10:00 4.6 C 80 % 1.46 C
1672 19-11-2018 19:15:00 4.6 C 81 % 1.63 C
1673 19-11-2018 19:20:00 4.5 C 81 % 1.53 C
1674 19-11-2018 19:25:00 4.5 C 81 % 1.53 C
1675 19-11-2018 19:30:00 4.5 C 81 % 1.53 C
Sensor: Nr:Datum:Temp:Feuchte:Taupunkt:
Aussen-T/F 1676 19-11-2018 19:35:00 4.5 C 80 % 1.36 C
1677 19-11-2018 19:40:00 4.5 C 80 % 1.36 C
1678 19-11-2018 19:45:00 4.6 C 80 % 1.46 C
1679 19-11-2018 19:50:00 4.6 C 80 % 1.46 C
1680 19-11-2018 19:55:00 4.6 C 80 % 1.46 C
1681 19-11-2018 20:00:00 4.6 C 80 % 1.46 C
1682 19-11-2018 20:05:00 4.6 C 80 % 1.46 C
1683 19-11-2018 20:10:00 4.6 C 80 % 1.46 C
1684 19-11-2018 20:15:00 4.6 C 80 % 1.46 C
1685 19-11-2018 20:20:00 4.6 C 80 % 1.46 C
1686 19-11-2018 20:25:00 4.6 C 80 % 1.46 C
1687 19-11-2018 20:30:00 4.5 C 80 % 1.36 C
1688 19-11-2018 20:35:00 4.5 C 79 % 1.18 C
1689 19-11-2018 20:40:00 4.6 C 79 % 1.28 C
1690 19-11-2018 20:45:00 4.6 C 78 % 1.1 C
1691 19-11-2018 20:50:00 4.6 C 78 % 1.1 C
1692 19-11-2018 20:55:00 4.7 C 77 % 1.02 C
1693 19-11-2018 21:00:00 4.7 C 78 % 1.2 C
1694 19-11-2018 21:05:00 4.7 C 77 % 1.02 C
1695 19-11-2018 21:10:00 4.7 C 78 % 1.2 C
1696 19-11-2018 21:15:00 4.6 C 77 % 0.92 C
1697 19-11-2018 21:20:00 4.6 C 77 % 0.92 C
1698 19-11-2018 21:25:00 4.6 C 78 % 1.1 C
1699 19-11-2018 21:30:00 4.6 C 78 % 1.1 C
1700 19-11-2018 21:35:00 4.6 C 78 % 1.1 C
Sensor: Nr:Datum:Temp:Feuchte:Taupunkt:
Aussen-T/F 1701 19-11-2018 21:40:00 4.5 C 77 % 0.83 C
1702 19-11-2018 21:45:00 4.6 C 76 % 0.74 C
1703 19-11-2018 21:50:00 4.6 C 76 % 0.74 C
1704 19-11-2018 21:55:00 4.6 C 76 % 0.74 C
1705 19-11-2018 22:00:00 4.6 C 76 % 0.74 C
1706 19-11-2018 22:05:00 4.6 C 77 % 0.92 C
1707 19-11-2018 22:10:00 4.5 C 77 % 0.83 C
1708 19-11-2018 22:15:00 4.5 C 76 % 0.65 C
1709 19-11-2018 22:20:00 4.5 C 77 % 0.83 C
1710 19-11-2018 22:25:00 4.5 C 76 % 0.65 C
1711 19-11-2018 22:30:00 4.4 C 76 % 0.55 C
1712 19-11-2018 22:35:00 4.4 C 75 % 0.37 C
1713 19-11-2018 22:40:00 4.4 C 75 % 0.37 C
1714 19-11-2018 22:45:00 4.4 C 75 % 0.37 C
1715 19-11-2018 22:50:00 4.4 C 76 % 0.55 C
1716 19-11-2018 22:55:00 4.4 C 75 % 0.37 C
1717 19-11-2018 23:00:00 4.4 C 76 % 0.55 C
1718 19-11-2018 23:05:00 4.3 C 75 % 0.27 C
1719 19-11-2018 23:10:00 4.3 C 76 % 0.45 C
1720 19-11-2018 23:15:00 4.3 C 75 % 0.27 C
1721 19-11-2018 23:20:00 4.3 C 76 % 0.45 C
1722 19-11-2018 23:25:00 4.2 C 76 % 0.36 C
1723 19-11-2018 23:30:00 4.2 C 76 % 0.36 C
1724 19-11-2018 23:35:00 4.2 C 76 % 0.36 C
1725 19-11-2018 23:40:00 4.1 C 76 % 0.26 C
Sensor: Nr:Datum:Temp:Feuchte:Taupunkt:
Aussen-T/F 1726 19-11-2018 23:45:00 4.1 C 76 % 0.26 C
1727 19-11-2018 23:50:00 4.1 C 76 % 0.26 C
1728 19-11-2018 23:55:00 4 C 77 % 0.34 C
1729 20-11-2018 00:00:00 4 C 76 % 0.16 C
1730 20-11-2018 00:05:00 4 C 77 % 0.34 C
1731 20-11-2018 00:10:00 3.9 C 77 % 0.25 C
1732 20-11-2018 00:15:00 3.9 C 77 % 0.25 C
1733 20-11-2018 00:20:00 3.9 C 77 % 0.25 C
1734 20-11-2018 00:25:00 3.8 C 77 % 0.15 C
1735 20-11-2018 00:30:00 3.8 C 77 % 0.15 C
1736 20-11-2018 00:35:00 3.8 C 77 % 0.15 C
1737 20-11-2018 00:40:00 3.8 C 77 % 0.15 C
1738 20-11-2018 00:45:00 3.7 C 77 % 0.05 C
1739 20-11-2018 00:50:00 3.7 C 77 % 0.05 C
1740 20-11-2018 00:55:00 3.7 C 77 % 0.05 C
1741 20-11-2018 01:00:00 3.6 C 77 % -0.05 C
1742 20-11-2018 01:05:00 3.6 C 77 % -0.05 C
1743 20-11-2018 01:10:00 3.6 C 77 % -0.05 C
1744 20-11-2018 01:15:00 3.6 C 77 % -0.05 C
1745 20-11-2018 01:20:00 3.6 C 77 % -0.05 C
1746 20-11-2018 01:25:00 3.5 C 77 % -0.14 C
1747 20-11-2018 01:30:00 3.5 C 77 % -0.14 C
1748 20-11-2018 01:35:00 3.4 C 77 % -0.24 C
1749 20-11-2018 01:40:00 3.4 C 77 % -0.24 C
1750 20-11-2018 01:45:00 3.4 C 77 % -0.24 C
Sensor: Nr:Datum:Temp:Feuchte:Taupunkt:
Aussen-T/F 1751 20-11-2018 01:50:00 3.4 C 77 % -0.24 C
1752 20-11-2018 01:55:00 3.4 C 77 % -0.24 C
1753 20-11-2018 02:00:00 3.4 C 77 % -0.24 C
1754 20-11-2018 02:05:00 3.3 C 78 % -0.16 C
1755 20-11-2018 02:10:00 3.3 C 77 % -0.34 C
1756 20-11-2018 02:15:00 3.3 C 77 % -0.34 C
1757 20-11-2018 02:20:00 3.3 C 77 % -0.34 C
1758 20-11-2018 02:25:00 3.3 C 77 % -0.34 C
1759 20-11-2018 02:30:00 3.3 C 77 % -0.34 C
1760 20-11-2018 02:35:00 3.3 C 77 % -0.34 C
1761 20-11-2018 02:40:00 3.3 C 77 % -0.34 C
1762 20-11-2018 02:45:00 3.3 C 77 % -0.34 C
1763 20-11-2018 02:50:00 3.2 C 77 % -0.43 C
1764 20-11-2018 02:55:00 3.2 C 77 % -0.43 C
1765 20-11-2018 03:00:00 3.2 C 77 % -0.43 C
1766 20-11-2018 03:05:00 3.2 C 77 % -0.43 C
1767 20-11-2018 03:10:00 3.2 C 77 % -0.43 C
1768 20-11-2018 03:15:00 3.2 C 77 % -0.43 C
1769 20-11-2018 03:20:00 3.2 C 77 % -0.43 C
1770 20-11-2018 03:25:00 3.1 C 77 % -0.53 C
1771 20-11-2018 03:30:00 3.1 C 77 % -0.53 C
1772 20-11-2018 03:35:00 3.1 C 77 % -0.53 C
1773 20-11-2018 03:40:00 3.1 C 78 % -0.35 C
1774 20-11-2018 03:45:00 3.1 C 78 % -0.35 C
1775 20-11-2018 03:50:00 3 C 78 % -0.45 C
Sensor: Nr:Datum:Temp:Feuchte:Taupunkt:
Aussen-T/F 1776 20-11-2018 03:55:00 3 C 78 % -0.45 C
1777 20-11-2018 04:00:00 3 C 78 % -0.45 C
1778 20-11-2018 04:05:00 2.9 C 78 % -0.55 C
1779 20-11-2018 04:10:00 2.9 C 78 % -0.55 C
1780 20-11-2018 04:15:00 2.9 C 78 % -0.55 C
1781 20-11-2018 04:20:00 2.9 C 78 % -0.55 C
1782 20-11-2018 04:25:00 2.9 C 78 % -0.55 C
1783 20-11-2018 04:30:00 2.9 C 78 % -0.55 C
1784 20-11-2018 04:35:00 2.9 C 78 % -0.55 C
1785 20-11-2018 04:40:00 2.9 C 78 % -0.55 C
1786 20-11-2018 04:45:00 2.8 C 79 % -0.47 C
1787 20-11-2018 04:50:00 2.8 C 78 % -0.65 C
1788 20-11-2018 04:55:00 2.8 C 78 % -0.65 C
1789 20-11-2018 05:00:00 2.8 C 78 % -0.65 C
1790 20-11-2018 05:05:00 2.8 C 78 % -0.65 C
1791 20-11-2018 05:10:00 2.8 C 78 % -0.65 C
1792 20-11-2018 05:15:00 2.8 C 78 % -0.65 C
1793 20-11-2018 05:20:00 2.8 C 79 % -0.47 C
1794 20-11-2018 05:25:00 2.8 C 79 % -0.47 C
1795 20-11-2018 05:30:00 2.8 C 78 % -0.65 C
1796 20-11-2018 05:35:00 2.8 C 78 % -0.65 C
1797 20-11-2018 05:40:00 2.8 C 78 % -0.65 C
1798 20-11-2018 05:45:00 2.8 C 78 % -0.65 C
1799 20-11-2018 05:50:00 2.8 C 78 % -0.65 C
1800 20-11-2018 05:55:00 2.8 C 78 % -0.65 C
Sensor: Nr:Datum:Temp:Feuchte:Taupunkt:
Aussen-T/F 1801 20-11-2018 06:00:00 2.8 C 78 % -0.65 C
1802 20-11-2018 06:05:00 2.8 C 78 % -0.65 C
1803 20-11-2018 06:10:00 2.8 C 78 % -0.65 C
1804 20-11-2018 06:15:00 2.8 C 78 % -0.65 C
1805 20-11-2018 06:20:00 2.8 C 78 % -0.65 C
1806 20-11-2018 06:25:00 2.8 C 78 % -0.65 C
1807 20-11-2018 06:30:00 2.8 C 78 % -0.65 C
1808 20-11-2018 06:35:00 2.8 C 78 % -0.65 C
1809 20-11-2018 06:40:00 2.8 C 78 % -0.65 C
1810 20-11-2018 06:45:00 2.8 C 78 % -0.65 C
1811 20-11-2018 06:50:00 2.8 C 78 % -0.65 C
1812 20-11-2018 06:55:00 2.8 C 78 % -0.65 C
1813 20-11-2018 07:00:00 2.8 C 77 % -0.82 C
1814 20-11-2018 07:05:00 2.8 C 77 % -0.82 C
1815 20-11-2018 07:10:00 2.9 C 78 % -0.55 C
1816 20-11-2018 07:15:00 2.9 C 78 % -0.55 C
1817 20-11-2018 07:20:00 2.9 C 78 % -0.55 C
1818 20-11-2018 07:25:00 2.9 C 78 % -0.55 C
1819 20-11-2018 07:30:00 2.9 C 78 % -0.55 C
1820 20-11-2018 07:35:00 2.9 C 78 % -0.55 C
1821 20-11-2018 07:40:00 2.9 C 78 % -0.55 C
1822 20-11-2018 07:45:00 2.9 C 78 % -0.55 C
1823 20-11-2018 07:50:00 2.9 C 78 % -0.55 C
1824 20-11-2018 07:55:00 2.9 C 78 % -0.55 C
1825 20-11-2018 08:00:00 2.9 C 78 % -0.55 C
Sensor: Nr:Datum:Temp:Feuchte:Taupunkt:
Aussen-T/F 1826 20-11-2018 08:05:00 2.9 C 78 % -0.55 C
1827 20-11-2018 08:10:00 2.9 C 78 % -0.55 C
1828 20-11-2018 08:15:00 2.9 C 78 % -0.55 C
1829 20-11-2018 08:20:00 3 C 78 % -0.45 C
1830 20-11-2018 08:25:00 3 C 78 % -0.45 C
1831 20-11-2018 08:30:00 3.1 C 78 % -0.35 C
1832 20-11-2018 08:35:00 3.1 C 78 % -0.35 C
1833 20-11-2018 08:40:00 3.1 C 78 % -0.35 C
1834 20-11-2018 08:45:00 3.2 C 77 % -0.43 C
1835 20-11-2018 08:50:00 3.2 C 78 % -0.26 C
1836 20-11-2018 08:55:00 3.2 C 78 % -0.26 C
1837 20-11-2018 09:00:00 3.2 C 78 % -0.26 C
1838 20-11-2018 09:05:00 3.3 C 78 % -0.16 C
1839 20-11-2018 09:10:00 3.3 C 77 % -0.34 C
1840 20-11-2018 09:15:00 3.3 C 78 % -0.16 C
1841 20-11-2018 09:20:00 3.3 C 77 % -0.34 C
1842 20-11-2018 09:25:00 3.3 C 78 % -0.16 C
1843 20-11-2018 09:30:00 3.4 C 77 % -0.24 C
1844 20-11-2018 09:35:00 3.4 C 78 % -0.06 C
1845 20-11-2018 09:40:00 3.4 C 77 % -0.24 C
1846 20-11-2018 09:45:00 3.4 C 77 % -0.24 C
1847 20-11-2018 09:50:00 3.5 C 77 % -0.14 C
1848 20-11-2018 09:55:00 3.6 C 77 % -0.05 C
1849 20-11-2018 10:00:00 3.6 C 77 % -0.05 C
1850 20-11-2018 10:05:00 3.6 C 77 % -0.05 C
Sensor: Nr:Datum:Temp:Feuchte:Taupunkt:
Aussen-T/F 1851 20-11-2018 10:10:00 3.7 C 77 % 0.05 C
1852 20-11-2018 10:15:00 3.7 C 77 % 0.05 C
1853 20-11-2018 10:20:00 3.7 C 77 % 0.05 C
1854 20-11-2018 10:25:00 3.8 C 77 % 0.15 C
1855 20-11-2018 10:30:00 3.8 C 76 % -0.03 C
1856 20-11-2018 10:35:00 3.8 C 77 % 0.15 C
1857 20-11-2018 10:40:00 3.8 C 76 % -0.03 C
1858 20-11-2018 10:45:00 3.9 C 76 % 0.07 C
1859 20-11-2018 10:50:00 3.9 C 76 % 0.07 C
1860 20-11-2018 10:55:00 3.9 C 76 % 0.07 C
1861 20-11-2018 11:00:00 4 C 76 % 0.16 C
1862 20-11-2018 11:05:00 4.1 C 76 % 0.26 C
1863 20-11-2018 11:10:00 4.1 C 76 % 0.26 C
1864 20-11-2018 11:15:00 4.2 C 76 % 0.36 C
1865 20-11-2018 11:20:00 4.2 C 76 % 0.36 C
1866 20-11-2018 11:25:00 4.3 C 76 % 0.45 C
1867 20-11-2018 11:30:00 4.3 C 76 % 0.45 C
1868 20-11-2018 11:35:00 4.4 C 75 % 0.37 C
1869 20-11-2018 11:40:00 4.4 C 75 % 0.37 C
1870 20-11-2018 11:45:00 4.4 C 74 % 0.18 C
1871 20-11-2018 11:50:00 4.5 C 76 % 0.65 C
1872 20-11-2018 11:55:00 4.6 C 75 % 0.56 C
1873 20-11-2018 12:00:00 4.6 C 75 % 0.56 C
1874 20-11-2018 12:05:00 4.6 C 75 % 0.56 C
1875 20-11-2018 12:10:00 4.6 C 75 % 0.56 C
Sensor: Nr:Datum:Temp:Feuchte:Taupunkt:
Aussen-T/F 1876 20-11-2018 12:15:00 4.6 C 75 % 0.56 C
1877 20-11-2018 12:20:00 4.6 C 74 % 0.38 C
1878 20-11-2018 12:25:00 4.6 C 74 % 0.38 C
1879 20-11-2018 12:30:00 4.6 C 74 % 0.38 C
1880 20-11-2018 12:35:00 4.6 C 75 % 0.56 C
1881 20-11-2018 12:40:00 4.6 C 75 % 0.56 C
1882 20-11-2018 12:45:00 4.6 C 75 % 0.56 C
1883 20-11-2018 12:50:00 4.7 C 75 % 0.66 C
1884 20-11-2018 12:55:00 4.6 C 75 % 0.56 C
1885 20-11-2018 13:00:00 4.7 C 75 % 0.66 C
1886 20-11-2018 13:05:00 4.7 C 75 % 0.66 C
1887 20-11-2018 13:10:00 4.7 C 75 % 0.66 C
1888 20-11-2018 13:15:00 4.8 C 75 % 0.75 C
1889 20-11-2018 13:20:00 4.8 C 75 % 0.75 C
1890 20-11-2018 13:25:00 4.8 C 75 % 0.75 C
1891 20-11-2018 13:30:00 4.8 C 75 % 0.75 C
1892 20-11-2018 13:35:00 4.8 C 76 % 0.94 C
1893 20-11-2018 13:40:00 4.9 C 75 % 0.85 C
1894 20-11-2018 13:45:00 4.8 C 75 % 0.75 C
1895 20-11-2018 13:50:00 4.8 C 75 % 0.75 C
1896 20-11-2018 13:55:00 4.8 C 76 % 0.94 C
1897 20-11-2018 14:00:00 4.8 C 76 % 0.94 C
1898 20-11-2018 14:05:00 4.8 C 75 % 0.75 C
1899 20-11-2018 14:10:00 4.8 C 76 % 0.94 C
1900 20-11-2018 14:15:00 4.8 C 76 % 0.94 C
Sensor: Nr:Datum:Temp:Feuchte:Taupunkt:
Aussen-T/F 1901 20-11-2018 14:20:00 4.8 C 76 % 0.94 C
1902 20-11-2018 14:25:00 4.8 C 76 % 0.94 C
1903 20-11-2018 14:30:00 4.9 C 76 % 1.03 C
1904 20-11-2018 14:35:00 4.9 C 76 % 1.03 C
1905 20-11-2018 14:40:00 4.9 C 76 % 1.03 C
1906 20-11-2018 14:45:00 4.8 C 76 % 0.94 C
1907 20-11-2018 14:50:00 4.8 C 76 % 0.94 C
1908 20-11-2018 14:55:00 4.8 C 77 % 1.12 C
1909 20-11-2018 15:00:00 4.8 C 77 % 1.12 C
1910 20-11-2018 15:05:00 4.7 C 77 % 1.02 C
1911 20-11-2018 15:10:00 4.7 C 77 % 1.02 C
1912 20-11-2018 15:15:00 4.7 C 77 % 1.02 C
1913 20-11-2018 15:20:00 4.7 C 77 % 1.02 C
1914 20-11-2018 15:25:00 4.7 C 77 % 1.02 C
1915 20-11-2018 15:30:00 4.7 C 78 % 1.2 C
1916 20-11-2018 15:35:00 4.7 C 77 % 1.02 C
1917 20-11-2018 15:40:00 4.6 C 78 % 1.1 C
1918 20-11-2018 15:45:00 4.6 C 78 % 1.1 C
1919 20-11-2018 15:50:00 4.6 C 78 % 1.1 C
1920 20-11-2018 15:55:00 4.6 C 78 % 1.1 C
1921 20-11-2018 16:00:00 4.6 C 79 % 1.28 C
1922 20-11-2018 16:05:00 4.6 C 79 % 1.28 C
1923 20-11-2018 16:10:00 4.5 C 79 % 1.18 C
1924 20-11-2018 16:15:00 4.5 C 79 % 1.18 C
1925 20-11-2018 16:20:00 4.4 C 79 % 1.09 C
Sensor: Nr:Datum:Temp:Feuchte:Taupunkt:
Aussen-T/F 1926 20-11-2018 16:25:00 4.4 C 79 % 1.09 C
1927 20-11-2018 16:30:00 4.4 C 80 % 1.26 C
1928 20-11-2018 16:35:00 4.4 C 80 % 1.26 C
1929 20-11-2018 16:40:00 4.3 C 80 % 1.16 C
1930 20-11-2018 16:45:00 4.3 C 81 % 1.34 C
1931 20-11-2018 16:50:00 4.3 C 81 % 1.34 C
1932 20-11-2018 16:55:00 4.3 C 81 % 1.34 C
1933 20-11-2018 17:00:00 4.2 C 82 % 1.41 C
1934 20-11-2018 17:05:00 4.2 C 82 % 1.41 C
1935 20-11-2018 17:10:00 4.2 C 82 % 1.41 C
1936 20-11-2018 17:15:00 4.1 C 83 % 1.48 C
1937 20-11-2018 17:20:00 4.1 C 83 % 1.48 C
1938 20-11-2018 17:25:00 4.1 C 83 % 1.48 C
1939 20-11-2018 17:30:00 4.1 C 83 % 1.48 C
1940 20-11-2018 17:35:00 4.1 C 84 % 1.65 C
1941 20-11-2018 17:40:00 4.1 C 84 % 1.65 C
1942 20-11-2018 17:45:00 4.1 C 84 % 1.65 C
1943 20-11-2018 17:50:00 4 C 84 % 1.55 C
1944 20-11-2018 17:55:00 4 C 84 % 1.55 C
1945 20-11-2018 18:00:00 3.9 C 84 % 1.45 C
1946 20-11-2018 18:05:00 3.9 C 85 % 1.61 C
1947 20-11-2018 18:10:00 3.9 C 85 % 1.61 C
1948 20-11-2018 18:15:00 3.8 C 85 % 1.52 C
1949 20-11-2018 18:20:00 3.8 C 85 % 1.52 C
1950 20-11-2018 18:25:00 3.7 C 85 % 1.42 C
Sensor: Nr:Datum:Temp:Feuchte:Taupunkt:
Aussen-T/F 1951 20-11-2018 18:30:00 3.5 C 85 % 1.22 C
1952 20-11-2018 18:35:00 3.3 C 86 % 1.19 C
1953 20-11-2018 18:40:00 3.3 C 86 % 1.19 C
1954 20-11-2018 18:45:00 3.2 C 86 % 1.09 C
1955 20-11-2018 18:50:00 3 C 86 % 0.89 C
1956 20-11-2018 18:55:00 2.8 C 86 % 0.7 C
1957 20-11-2018 19:00:00 2.7 C 87 % 0.76 C
1958 20-11-2018 19:05:00 2.6 C 87 % 0.66 C
1959 20-11-2018 19:10:00 2.4 C 88 % 0.62 C
1960 20-11-2018 19:15:00 2.4 C 89 % 0.78 C
1961 20-11-2018 19:20:00 2.5 C 89 % 0.88 C
1962 20-11-2018 19:25:00 2.6 C 89 % 0.97 C
1963 20-11-2018 19:30:00 2.7 C 89 % 1.07 C
1964 20-11-2018 19:35:00 2.7 C 89 % 1.07 C
1965 20-11-2018 19:40:00 2.7 C 90 % 1.23 C
1966 20-11-2018 19:45:00 2.8 C 90 % 1.33 C
1967 20-11-2018 19:50:00 2.7 C 89 % 1.07 C
1968 20-11-2018 19:55:00 2.8 C 89 % 1.17 C
1969 20-11-2018 20:00:00 2.7 C 89 % 1.07 C
1970 20-11-2018 20:05:00 2.7 C 89 % 1.07 C
1971 20-11-2018 20:10:00 2.8 C 90 % 1.33 C
1972 20-11-2018 20:15:00 2.9 C 89 % 1.27 C
1973 20-11-2018 20:20:00 3.1 C 89 % 1.47 C
1974 20-11-2018 20:25:00 3.1 C 89 % 1.47 C
1975 20-11-2018 20:30:00 3.2 C 89 % 1.57 C
Sensor: Nr:Datum:Temp:Feuchte:Taupunkt:
Aussen-T/F 1976 20-11-2018 20:35:00 3.2 C 89 % 1.57 C
1977 20-11-2018 20:40:00 3.2 C 89 % 1.57 C
1978 20-11-2018 20:45:00 3.2 C 88 % 1.41 C
1979 20-11-2018 20:50:00 3.1 C 88 % 1.31 C
1980 20-11-2018 20:55:00 3.1 C 88 % 1.31 C
1981 20-11-2018 21:00:00 3.1 C 89 % 1.47 C
1982 20-11-2018 21:05:00 3 C 89 % 1.37 C
1983 20-11-2018 21:10:00 3 C 89 % 1.37 C
1984 20-11-2018 21:15:00 2.9 C 89 % 1.27 C
1985 20-11-2018 21:20:00 3 C 89 % 1.37 C
1986 20-11-2018 21:25:00 3 C 89 % 1.37 C
1987 20-11-2018 21:30:00 3.1 C 90 % 1.62 C
1988 20-11-2018 21:35:00 3.1 C 89 % 1.47 C
1989 20-11-2018 21:40:00 3.2 C 89 % 1.57 C
1990 20-11-2018 21:45:00 3.2 C 89 % 1.57 C
1991 20-11-2018 21:50:00 3.2 C 89 % 1.57 C
1992 20-11-2018 21:55:00 3.3 C 88 % 1.51 C
1993 20-11-2018 22:00:00 3.3 C 88 % 1.51 C
1994 20-11-2018 22:05:00 3.3 C 88 % 1.51 C
1995 20-11-2018 22:10:00 3.3 C 88 % 1.51 C
1996 20-11-2018 22:15:00 3.2 C 88 % 1.41 C
1997 20-11-2018 22:20:00 3.2 C 88 % 1.41 C
1998 20-11-2018 22:25:00 3.1 C 88 % 1.31 C
1999 20-11-2018 22:30:00 2.9 C 88 % 1.11 C
2000 20-11-2018 22:35:00 2.8 C 88 % 1.02 C
Sensor: Nr:Datum:Temp:Feuchte:Taupunkt:
Aussen-T/F 2001 20-11-2018 22:40:00 2.7 C 88 % 0.92 C
2002 20-11-2018 22:45:00 2.6 C 89 % 0.97 C
2003 20-11-2018 22:50:00 2.5 C 89 % 0.88 C
2004 20-11-2018 22:55:00 2.4 C 89 % 0.78 C
2005 20-11-2018 23:00:00 2.4 C 90 % 0.93 C
2006 20-11-2018 23:05:00 2.3 C 90 % 0.83 C
2007 20-11-2018 23:10:00 2.3 C 90 % 0.83 C
2008 20-11-2018 23:15:00 2.3 C 90 % 0.83 C
2009 20-11-2018 23:20:00 2.2 C 90 % 0.73 C
2010 20-11-2018 23:25:00 2 C 89 % 0.38 C
2011 20-11-2018 23:30:00 1.9 C 90 % 0.44 C
2012 20-11-2018 23:35:00 1.8 C 90 % 0.34 C
2013 20-11-2018 23:40:00 1.8 C 91 % 0.49 C
2014 20-11-2018 23:45:00 1.8 C 91 % 0.49 C
2015 20-11-2018 23:50:00 1.8 C 91 % 0.49 C
2016 20-11-2018 23:55:00 1.8 C 91 % 0.49 C
2017 21-11-2018 00:00:00 1.7 C 91 % 0.39 C
2018 21-11-2018 00:05:00 1.6 C 91 % 0.29 C
2019 21-11-2018 00:10:00 1.6 C 91 % 0.29 C
2020 21-11-2018 00:15:00 1.4 C 91 % 0.1 C
2021 21-11-2018 00:20:00 1.3 C 91 % 0 C
2022 21-11-2018 00:25:00 1.2 C 91 % -0.1 C
2023 21-11-2018 00:30:00 1.2 C 92 % 0.05 C
2024 21-11-2018 00:35:00 1.2 C 92 % 0.05 C
2025 21-11-2018 00:40:00 1.2 C 92 % 0.05 C
Sensor: Nr:Datum:Temp:Feuchte:Taupunkt:
Aussen-T/F 2026 21-11-2018 00:45:00 1.3 C 92 % 0.15 C
2027 21-11-2018 00:50:00 1.3 C 92 % 0.15 C
2028 21-11-2018 00:55:00 1.4 C 93 % 0.4 C
2029 21-11-2018 01:00:00 1.4 C 93 % 0.4 C
2030 21-11-2018 01:05:00 1.5 C 93 % 0.49 C
2031 21-11-2018 01:10:00 1.6 C 93 % 0.59 C
2032 21-11-2018 01:15:00 1.6 C 93 % 0.59 C
2033 21-11-2018 01:20:00 1.7 C 93 % 0.69 C
2034 21-11-2018 01:25:00 1.7 C 93 % 0.69 C
2035 21-11-2018 01:30:00 1.8 C 93 % 0.79 C
2036 21-11-2018 01:35:00 1.9 C 93 % 0.89 C
2037 21-11-2018 01:40:00 2.1 C 93 % 1.09 C
2038 21-11-2018 01:45:00 2.2 C 93 % 1.19 C
2039 21-11-2018 01:50:00 2.3 C 93 % 1.29 C
2040 21-11-2018 01:55:00 2.4 C 93 % 1.39 C
2041 21-11-2018 02:00:00 2.4 C 93 % 1.39 C
2042 21-11-2018 02:05:00 2.5 C 93 % 1.49 C
2043 21-11-2018 02:10:00 2.4 C 92 % 1.24 C
2044 21-11-2018 02:15:00 2.4 C 92 % 1.24 C
2045 21-11-2018 02:20:00 2.4 C 92 % 1.24 C
2046 21-11-2018 02:25:00 2.4 C 92 % 1.24 C
2047 21-11-2018 02:30:00 2.4 C 92 % 1.24 C
2048 21-11-2018 02:35:00 2.4 C 92 % 1.24 C
2049 21-11-2018 02:40:00 2.4 C 92 % 1.24 C
2050 21-11-2018 02:45:00 2.5 C 92 % 1.34 C
Sensor: Nr:Datum:Temp:Feuchte:Taupunkt:
Aussen-T/F 2051 21-11-2018 02:50:00 2.5 C 92 % 1.34 C
2052 21-11-2018 02:55:00 2.4 C 92 % 1.24 C
2053 21-11-2018 03:00:00 2.4 C 92 % 1.24 C
2054 21-11-2018 03:05:00 2.3 C 92 % 1.14 C
2055 21-11-2018 03:10:00 2.2 C 91 % 0.89 C
2056 21-11-2018 03:15:00 2.2 C 91 % 0.89 C
2057 21-11-2018 03:20:00 2.1 C 91 % 0.79 C
2058 21-11-2018 03:25:00 2 C 91 % 0.69 C
2059 21-11-2018 03:30:00 1.8 C 91 % 0.49 C
2060 21-11-2018 03:35:00 1.7 C 91 % 0.39 C
2061 21-11-2018 03:40:00 1.6 C 91 % 0.29 C
2062 21-11-2018 03:45:00 1.4 C 91 % 0.1 C
2063 21-11-2018 03:50:00 1.4 C 92 % 0.25 C
2064 21-11-2018 03:55:00 1.4 C 92 % 0.25 C
2065 21-11-2018 04:00:00 1.6 C 92 % 0.44 C
2066 21-11-2018 04:05:00 1.6 C 93 % 0.59 C
2067 21-11-2018 04:10:00 1.7 C 93 % 0.69 C
2068 21-11-2018 04:15:00 1.8 C 93 % 0.79 C
2069 21-11-2018 04:20:00 1.8 C 93 % 0.79 C
2070 21-11-2018 04:25:00 1.8 C 93 % 0.79 C
2071 21-11-2018 04:30:00 1.8 C 93 % 0.79 C
2072 21-11-2018 04:35:00 1.8 C 92 % 0.64 C
2073 21-11-2018 04:40:00 1.6 C 92 % 0.44 C
2074 21-11-2018 04:45:00 1.4 C 92 % 0.25 C
2075 21-11-2018 04:50:00 1.3 C 92 % 0.15 C
Sensor: Nr:Datum:Temp:Feuchte:Taupunkt:
Aussen-T/F 2076 21-11-2018 04:55:00 1.2 C 92 % 0.05 C
2077 21-11-2018 05:00:00 1.2 C 92 % 0.05 C
2078 21-11-2018 05:05:00 1.1 C 92 % -0.05 C
2079 21-11-2018 05:10:00 1 C 92 % -0.15 C
2080 21-11-2018 05:15:00 0.9 C 92 % -0.25 C
2081 21-11-2018 05:20:00 0.9 C 93 % -0.1 C
2082 21-11-2018 05:25:00 0.9 C 93 % -0.1 C
2083 21-11-2018 05:30:00 0.8 C 93 % -0.2 C
2084 21-11-2018 05:35:00 0.8 C 93 % -0.2 C
2085 21-11-2018 05:40:00 0.8 C 93 % -0.2 C
2086 21-11-2018 05:45:00 0.8 C 93 % -0.2 C
2087 21-11-2018 05:50:00 0.7 C 93 % -0.3 C
2088 21-11-2018 05:55:00 0.6 C 93 % -0.4 C
2089 21-11-2018 06:00:00 0.6 C 93 % -0.4 C
2090 21-11-2018 06:05:00 0.5 C 93 % -0.5 C
2091 21-11-2018 06:10:00 0.4 C 93 % -0.6 C
2092 21-11-2018 06:15:00 0.4 C 93 % -0.6 C
2093 21-11-2018 06:20:00 0.4 C 93 % -0.6 C
2094 21-11-2018 06:25:00 0.4 C 93 % -0.6 C
2095 21-11-2018 06:30:00 0.3 C 93 % -0.7 C
2096 21-11-2018 06:35:00 0.2 C 93 % -0.79 C
2097 21-11-2018 06:40:00 0.1 C 93 % -0.89 C
2098 21-11-2018 06:45:00 0.1 C 93 % -0.89 C
2099 21-11-2018 06:50:00 0.1 C 94 % -0.75 C
2100 21-11-2018 06:55:00 0.1 C 94 % -0.75 C
Sensor: Nr:Datum:Temp:Feuchte:Taupunkt:
Aussen-T/F 2101 21-11-2018 07:00:00 0.1 C 94 % -0.75 C
2102 21-11-2018 07:05:00 0.2 C 94 % -0.65 C
2103 21-11-2018 07:10:00 0.2 C 94 % -0.65 C
2104 21-11-2018 07:15:00 0.3 C 94 % -0.55 C
2105 21-11-2018 07:20:00 0.3 C 94 % -0.55 C
2106 21-11-2018 07:25:00 0.3 C 94 % -0.55 C
2107 21-11-2018 07:30:00 0.3 C 94 % -0.55 C
2108 21-11-2018 07:35:00 0.3 C 94 % -0.55 C
2109 21-11-2018 07:40:00 0.3 C 94 % -0.55 C
2110 21-11-2018 07:45:00 0.3 C 94 % -0.55 C
2111 21-11-2018 07:50:00 0.3 C 94 % -0.55 C
2112 21-11-2018 07:55:00 0.3 C 94 % -0.55 C
2113 21-11-2018 08:00:00 0.3 C 94 % -0.55 C
2114 21-11-2018 08:05:00 0.2 C 94 % -0.65 C
2115 21-11-2018 08:10:00 0.2 C 94 % -0.65 C
2116 21-11-2018 08:15:00 0.2 C 94 % -0.65 C
2117 21-11-2018 08:20:00 0.1 C 94 % -0.75 C
2118 21-11-2018 08:25:00 0.1 C 94 % -0.75 C
2119 21-11-2018 08:30:00 0.1 C 94 % -0.75 C
2120 21-11-2018 08:35:00 0.2 C 94 % -0.65 C
2121 21-11-2018 08:40:00 0.3 C 95 % -0.4 C
2122 21-11-2018 08:45:00 0.5 C 95 % -0.21 C
2123 21-11-2018 08:50:00 0.6 C 95 % -0.11 C
2124 21-11-2018 08:55:00 0.7 C 95 % -0.01 C
2125 21-11-2018 09:00:00 0.9 C 95 % 0.19 C
Sensor: Nr:Datum:Temp:Feuchte:Taupunkt:
Aussen-T/F 2126 21-11-2018 09:05:00 1.1 C 95 % 0.39 C
2127 21-11-2018 09:10:00 1.3 C 95 % 0.59 C
2128 21-11-2018 09:15:00 1.4 C 95 % 0.69 C
2129 21-11-2018 09:20:00 1.5 C 95 % 0.79 C
2130 21-11-2018 09:25:00 1.6 C 95 % 0.89 C
2131 21-11-2018 09:30:00 1.7 C 95 % 0.99 C
2132 21-11-2018 09:35:00 1.7 C 94 % 0.84 C
2133 21-11-2018 09:40:00 1.8 C 94 % 0.94 C
2134 21-11-2018 09:45:00 1.8 C 94 % 0.94 C
2135 21-11-2018 09:50:00 2 C 94 % 1.14 C
2136 21-11-2018 09:55:00 2.2 C 94 % 1.34 C
2137 21-11-2018 10:00:00 2.3 C 93 % 1.29 C
2138 21-11-2018 10:05:00 2.4 C 92 % 1.24 C
2139 21-11-2018 10:10:00 2.6 C 91 % 1.28 C
2140 21-11-2018 10:15:00 2.7 C 91 % 1.38 C
2141 21-11-2018 10:20:00 2.7 C 90 % 1.23 C
2142 21-11-2018 10:25:00 2.7 C 90 % 1.23 C
2143 21-11-2018 10:30:00 2.8 C 89 % 1.17 C
2144 21-11-2018 10:35:00 2.8 C 89 % 1.17 C
2145 21-11-2018 10:40:00 2.9 C 88 % 1.11 C
2146 21-11-2018 10:45:00 3 C 89 % 1.37 C
2147 21-11-2018 10:50:00 3.1 C 88 % 1.31 C
2148 21-11-2018 10:55:00 3.1 C 88 % 1.31 C
2149 21-11-2018 11:00:00 3.2 C 87 % 1.25 C
2150 21-11-2018 11:05:00 3.3 C 87 % 1.35 C
Sensor: Nr:Datum:Temp:Feuchte:Taupunkt:
Aussen-T/F 2151 21-11-2018 11:10:00 3.3 C 87 % 1.35 C
2152 21-11-2018 11:15:00 3.3 C 87 % 1.35 C
2153 21-11-2018 11:20:00 3.4 C 86 % 1.29 C
2154 21-11-2018 11:25:00 3.4 C 86 % 1.29 C
2155 21-11-2018 11:30:00 3.4 C 86 % 1.29 C
2156 21-11-2018 11:35:00 3.4 C 86 % 1.29 C
2157 21-11-2018 11:40:00 3.5 C 86 % 1.38 C
2158 21-11-2018 11:45:00 3.6 C 86 % 1.48 C
2159 21-11-2018 11:50:00 3.7 C 86 % 1.58 C
2160 21-11-2018 11:55:00 3.7 C 85 % 1.42 C
2161 21-11-2018 12:00:00 3.8 C 85 % 1.52 C
2162 21-11-2018 12:05:00 3.8 C 85 % 1.52 C
2163 21-11-2018 12:10:00 3.8 C 84 % 1.35 C
2164 21-11-2018 12:15:00 3.8 C 84 % 1.35 C
2165 21-11-2018 12:20:00 3.8 C 84 % 1.35 C
2166 21-11-2018 12:25:00 3.8 C 84 % 1.35 C
2167 21-11-2018 12:30:00 3.8 C 84 % 1.35 C
2168 21-11-2018 12:35:00 3.8 C 84 % 1.35 C
2169 21-11-2018 12:40:00 3.8 C 84 % 1.35 C
2170 21-11-2018 12:45:00 3.9 C 84 % 1.45 C
2171 21-11-2018 12:50:00 3.9 C 84 % 1.45 C
2172 21-11-2018 12:55:00 3.9 C 83 % 1.28 C
2173 21-11-2018 13:00:00 3.9 C 84 % 1.45 C
2174 21-11-2018 13:05:00 3.9 C 84 % 1.45 C
2175 21-11-2018 13:10:00 3.9 C 83 % 1.28 C
Sensor: Nr:Datum:Temp:Feuchte:Taupunkt:
Aussen-T/F 2176 21-11-2018 13:15:00 3.9 C 84 % 1.45 C
2177 21-11-2018 13:20:00 4 C 84 % 1.55 C
2178 21-11-2018 13:25:00 4.1 C 83 % 1.48 C
2179 21-11-2018 13:30:00 4.1 C 83 % 1.48 C
2180 21-11-2018 13:35:00 4.1 C 83 % 1.48 C
2181 21-11-2018 13:40:00 4.1 C 83 % 1.48 C
2182 21-11-2018 13:45:00 4.1 C 83 % 1.48 C
2183 21-11-2018 13:50:00 4.1 C 83 % 1.48 C
2184 21-11-2018 13:55:00 4.1 C 83 % 1.48 C
2185 21-11-2018 14:00:00 4.1 C 82 % 1.31 C
2186 21-11-2018 14:05:00 4.1 C 82 % 1.31 C
2187 21-11-2018 14:10:00 4.1 C 82 % 1.31 C
2188 21-11-2018 14:15:00 4.1 C 83 % 1.48 C
2189 21-11-2018 14:20:00 4.1 C 83 % 1.48 C
2190 21-11-2018 14:25:00 4.1 C 82 % 1.31 C
2191 21-11-2018 14:30:00 4.1 C 82 % 1.31 C
2192 21-11-2018 14:35:00 4.1 C 82 % 1.31 C
2193 21-11-2018 14:40:00 4.1 C 83 % 1.48 C
2194 21-11-2018 14:45:00 4.1 C 83 % 1.48 C
2195 21-11-2018 14:50:00 4.1 C 83 % 1.48 C
2196 21-11-2018 14:55:00 4.1 C 83 % 1.48 C
2197 21-11-2018 15:00:00 4 C 83 % 1.38 C
2198 21-11-2018 15:05:00 4 C 83 % 1.38 C
2199 21-11-2018 15:10:00 3.9 C 83 % 1.28 C
2200 21-11-2018 15:15:00 3.9 C 83 % 1.28 C
Sensor: Nr:Datum:Temp:Feuchte:Taupunkt:
Aussen-T/F 2201 21-11-2018 15:20:00 3.9 C 83 % 1.28 C
2202 21-11-2018 15:25:00 3.9 C 83 % 1.28 C
2203 21-11-2018 15:30:00 3.9 C 83 % 1.28 C
2204 21-11-2018 15:35:00 3.8 C 83 % 1.19 C
2205 21-11-2018 15:40:00 3.8 C 83 % 1.19 C
2206 21-11-2018 15:45:00 3.8 C 83 % 1.19 C
2207 21-11-2018 15:50:00 3.8 C 83 % 1.19 C
2208 21-11-2018 15:55:00 3.7 C 83 % 1.09 C
2209 21-11-2018 16:00:00 3.7 C 83 % 1.09 C
2210 21-11-2018 16:05:00 3.7 C 83 % 1.09 C
2211 21-11-2018 16:10:00 3.7 C 84 % 1.25 C
2212 21-11-2018 16:15:00 3.7 C 84 % 1.25 C
2213 21-11-2018 16:20:00 3.7 C 84 % 1.25 C
2214 21-11-2018 16:25:00 3.7 C 83 % 1.09 C
2215 21-11-2018 16:30:00 3.6 C 84 % 1.16 C
2216 21-11-2018 16:35:00 3.6 C 84 % 1.16 C
2217 21-11-2018 16:40:00 3.5 C 83 % 0.89 C
2218 21-11-2018 16:45:00 3.4 C 84 % 0.96 C
2219 21-11-2018 16:50:00 3.4 C 84 % 0.96 C
2220 21-11-2018 16:55:00 3.4 C 84 % 0.96 C
2221 21-11-2018 17:00:00 3.3 C 84 % 0.86 C
2222 21-11-2018 17:05:00 3.3 C 84 % 0.86 C
2223 21-11-2018 17:10:00 3.3 C 85 % 1.03 C
2224 21-11-2018 17:15:00 3.3 C 84 % 0.86 C
2225 21-11-2018 17:20:00 3.3 C 85 % 1.03 C
Sensor: Nr:Datum:Temp:Feuchte:Taupunkt:
Aussen-T/F 2226 21-11-2018 17:25:00 3.3 C 85 % 1.03 C
2227 21-11-2018 17:30:00 3.3 C 85 % 1.03 C
2228 21-11-2018 17:35:00 3.3 C 85 % 1.03 C
2229 21-11-2018 17:40:00 3.3 C 85 % 1.03 C
2230 21-11-2018 17:45:00 3.3 C 85 % 1.03 C
2231 21-11-2018 17:50:00 3.3 C 85 % 1.03 C
2232 21-11-2018 17:55:00 3.3 C 85 % 1.03 C
2233 21-11-2018 18:00:00 3.3 C 86 % 1.19 C
2234 21-11-2018 18:05:00 3.3 C 86 % 1.19 C
2235 21-11-2018 18:10:00 3.3 C 86 % 1.19 C
2236 21-11-2018 18:15:00 3.3 C 86 % 1.19 C
2237 21-11-2018 18:20:00 3.3 C 86 % 1.19 C
2238 21-11-2018 18:25:00 3.3 C 86 % 1.19 C
2239 21-11-2018 18:30:00 3.3 C 86 % 1.19 C
2240 21-11-2018 18:35:00 3.3 C 85 % 1.03 C
2241 21-11-2018 18:40:00 3.3 C 85 % 1.03 C
2242 21-11-2018 18:45:00 3.3 C 85 % 1.03 C
2243 21-11-2018 18:50:00 3.3 C 85 % 1.03 C
2244 21-11-2018 18:55:00 3.3 C 85 % 1.03 C
2245 21-11-2018 19:00:00 3.3 C 85 % 1.03 C
2246 21-11-2018 19:05:00 3.3 C 86 % 1.19 C
2247 21-11-2018 19:10:00 3.3 C 85 % 1.03 C
2248 21-11-2018 19:15:00 3.3 C 85 % 1.03 C
2249 21-11-2018 19:20:00 3.2 C 85 % 0.93 C
2250 21-11-2018 19:25:00 3.3 C 85 % 1.03 C
Sensor: Nr:Datum:Temp:Feuchte:Taupunkt:
Aussen-T/F 2251 21-11-2018 19:30:00 3.3 C 85 % 1.03 C
2252 21-11-2018 19:35:00 3.2 C 85 % 0.93 C
2253 21-11-2018 19:40:00 3.2 C 85 % 0.93 C
2254 21-11-2018 19:45:00 3.2 C 85 % 0.93 C
2255 21-11-2018 19:50:00 3.2 C 86 % 1.09 C
2256 21-11-2018 19:55:00 3.2 C 86 % 1.09 C
2257 21-11-2018 20:00:00 3.2 C 86 % 1.09 C
2258 21-11-2018 20:05:00 3.2 C 86 % 1.09 C
2259 21-11-2018 20:10:00 3.2 C 86 % 1.09 C
2260 21-11-2018 20:15:00 3.2 C 86 % 1.09 C
2261 21-11-2018 20:20:00 3.2 C 86 % 1.09 C
2262 21-11-2018 20:25:00 3.1 C 87 % 1.15 C
2263 21-11-2018 20:30:00 3.1 C 87 % 1.15 C
2264 21-11-2018 20:35:00 3.1 C 87 % 1.15 C
2265 21-11-2018 20:40:00 3.1 C 87 % 1.15 C
2266 21-11-2018 20:45:00 3.1 C 87 % 1.15 C
2267 21-11-2018 20:50:00 3.1 C 87 % 1.15 C
2268 21-11-2018 20:55:00 3.1 C 87 % 1.15 C
2269 21-11-2018 21:00:00 3.1 C 87 % 1.15 C
2270 21-11-2018 21:05:00 3.1 C 87 % 1.15 C
2271 21-11-2018 21:10:00 3.1 C 87 % 1.15 C
2272 21-11-2018 21:15:00 3.1 C 87 % 1.15 C
2273 21-11-2018 21:20:00 3.1 C 88 % 1.31 C
2274 21-11-2018 21:25:00 3.1 C 88 % 1.31 C
2275 21-11-2018 21:30:00 3.1 C 88 % 1.31 C
Sensor: Nr:Datum:Temp:Feuchte:Taupunkt:
Aussen-T/F 2276 21-11-2018 21:35:00 3 C 88 % 1.21 C
2277 21-11-2018 21:40:00 3 C 88 % 1.21 C
2278 21-11-2018 21:45:00 3 C 88 % 1.21 C
2279 21-11-2018 21:50:00 3 C 88 % 1.21 C
2280 21-11-2018 21:55:00 3 C 88 % 1.21 C
2281 21-11-2018 22:00:00 3 C 88 % 1.21 C
2282 21-11-2018 22:05:00 3 C 88 % 1.21 C
2283 21-11-2018 22:10:00 3 C 88 % 1.21 C
2284 21-11-2018 22:15:00 2.9 C 88 % 1.11 C
2285 21-11-2018 22:20:00 2.9 C 88 % 1.11 C
2286 21-11-2018 22:25:00 2.9 C 88 % 1.11 C
2287 21-11-2018 22:30:00 3 C 88 % 1.21 C
2288 21-11-2018 22:35:00 3 C 88 % 1.21 C
2289 21-11-2018 22:40:00 3 C 88 % 1.21 C
2290 21-11-2018 22:45:00 3 C 88 % 1.21 C
2291 21-11-2018 22:50:00 3 C 88 % 1.21 C
2292 21-11-2018 22:55:00 3 C 88 % 1.21 C
2293 21-11-2018 23:00:00 3 C 88 % 1.21 C
2294 21-11-2018 23:05:00 3 C 89 % 1.37 C
2295 21-11-2018 23:10:00 3 C 89 % 1.37 C
2296 21-11-2018 23:15:00 3 C 89 % 1.37 C
2297 21-11-2018 23:20:00 3 C 89 % 1.37 C
2298 21-11-2018 23:25:00 3 C 89 % 1.37 C
2299 21-11-2018 23:30:00 3 C 89 % 1.37 C
2300 21-11-2018 23:35:00 3 C 89 % 1.37 C
Sensor: Nr:Datum:Temp:Feuchte:Taupunkt:
Aussen-T/F 2301 21-11-2018 23:40:00 3 C 89 % 1.37 C
2302 21-11-2018 23:45:00 3 C 89 % 1.37 C
2303 21-11-2018 23:50:00 3 C 89 % 1.37 C
2304 21-11-2018 23:55:00 3 C 89 % 1.37 C
2305 22-11-2018 00:00:00 3 C 89 % 1.37 C
2306 22-11-2018 00:05:00 3 C 89 % 1.37 C
2307 22-11-2018 00:10:00 3 C 89 % 1.37 C
2308 22-11-2018 00:15:00 3.1 C 89 % 1.47 C
2309 22-11-2018 00:20:00 3 C 89 % 1.37 C
2310 22-11-2018 00:25:00 3 C 89 % 1.37 C
2311 22-11-2018 00:30:00 3.1 C 89 % 1.47 C
2312 22-11-2018 00:35:00 3.1 C 89 % 1.47 C
2313 22-11-2018 00:40:00 3.1 C 89 % 1.47 C
2314 22-11-2018 00:45:00 3.1 C 89 % 1.47 C
2315 22-11-2018 00:50:00 3.1 C 89 % 1.47 C
2316 22-11-2018 00:55:00 3.1 C 89 % 1.47 C
2317 22-11-2018 01:00:00 3.1 C 89 % 1.47 C
2318 22-11-2018 01:05:00 3.1 C 89 % 1.47 C
2319 22-11-2018 01:10:00 3.1 C 89 % 1.47 C
2320 22-11-2018 01:15:00 3.1 C 89 % 1.47 C
2321 22-11-2018 01:20:00 3.1 C 89 % 1.47 C
2322 22-11-2018 01:25:00 3.1 C 89 % 1.47 C
2323 22-11-2018 01:30:00 3.1 C 89 % 1.47 C
2324 22-11-2018 01:35:00 3.1 C 89 % 1.47 C
2325 22-11-2018 01:40:00 3.1 C 89 % 1.47 C
Sensor: Nr:Datum:Temp:Feuchte:Taupunkt:
Aussen-T/F 2326 22-11-2018 01:45:00 3.1 C 89 % 1.47 C
2327 22-11-2018 01:50:00 3.1 C 89 % 1.47 C
2328 22-11-2018 01:55:00 3.1 C 89 % 1.47 C
2329 22-11-2018 02:00:00 3.1 C 89 % 1.47 C
2330 22-11-2018 02:05:00 3.1 C 89 % 1.47 C
2331 22-11-2018 02:10:00 3.1 C 89 % 1.47 C
2332 22-11-2018 02:15:00 3.1 C 89 % 1.47 C
2333 22-11-2018 02:20:00 3.1 C 89 % 1.47 C
2334 22-11-2018 02:25:00 3.1 C 89 % 1.47 C
2335 22-11-2018 02:30:00 3.1 C 90 % 1.62 C
2336 22-11-2018 02:35:00 3.1 C 89 % 1.47 C
2337 22-11-2018 02:40:00 3.1 C 90 % 1.62 C
2338 22-11-2018 02:45:00 3.1 C 90 % 1.62 C
2339 22-11-2018 02:50:00 3.1 C 90 % 1.62 C
2340 22-11-2018 02:55:00 3.1 C 90 % 1.62 C
2341 22-11-2018 03:00:00 3.1 C 90 % 1.62 C
2342 22-11-2018 03:05:00 3.1 C 90 % 1.62 C
2343 22-11-2018 03:10:00 3.1 C 90 % 1.62 C
2344 22-11-2018 03:15:00 3.1 C 90 % 1.62 C
2345 22-11-2018 03:20:00 3.1 C 90 % 1.62 C
2346 22-11-2018 03:25:00 3.1 C 90 % 1.62 C
2347 22-11-2018 03:30:00 3.1 C 90 % 1.62 C
2348 22-11-2018 03:35:00 3.1 C 90 % 1.62 C
2349 22-11-2018 03:40:00 3.1 C 90 % 1.62 C
2350 22-11-2018 03:45:00 3.1 C 90 % 1.62 C
Sensor: Nr:Datum:Temp:Feuchte:Taupunkt:
Aussen-T/F 2351 22-11-2018 03:50:00 3.1 C 90 % 1.62 C
2352 22-11-2018 03:55:00 3.1 C 90 % 1.62 C
2353 22-11-2018 04:00:00 3.1 C 90 % 1.62 C
2354 22-11-2018 04:05:00 3.1 C 90 % 1.62 C
2355 22-11-2018 04:10:00 3.1 C 90 % 1.62 C
2356 22-11-2018 04:15:00 3.1 C 90 % 1.62 C
2357 22-11-2018 04:20:00 3.1 C 90 % 1.62 C
2358 22-11-2018 04:25:00 3.1 C 90 % 1.62 C
2359 22-11-2018 04:30:00 3.1 C 90 % 1.62 C
2360 22-11-2018 04:35:00 3 C 90 % 1.52 C
2361 22-11-2018 04:40:00 3 C 90 % 1.52 C
2362 22-11-2018 04:45:00 3 C 90 % 1.52 C
2363 22-11-2018 04:50:00 2.9 C 90 % 1.43 C
2364 22-11-2018 04:55:00 2.9 C 90 % 1.43 C
2365 22-11-2018 05:00:00 2.9 C 90 % 1.43 C
2366 22-11-2018 05:05:00 2.9 C 90 % 1.43 C
2367 22-11-2018 05:10:00 2.9 C 90 % 1.43 C
2368 22-11-2018 05:15:00 2.9 C 90 % 1.43 C
2369 22-11-2018 05:20:00 2.9 C 90 % 1.43 C
2370 22-11-2018 05:25:00 2.9 C 90 % 1.43 C
2371 22-11-2018 05:30:00 2.9 C 90 % 1.43 C
2372 22-11-2018 05:35:00 2.9 C 90 % 1.43 C
2373 22-11-2018 05:40:00 2.9 C 90 % 1.43 C
2374 22-11-2018 05:45:00 2.9 C 90 % 1.43 C
2375 22-11-2018 05:50:00 2.9 C 90 % 1.43 C
Sensor: Nr:Datum:Temp:Feuchte:Taupunkt:
Aussen-T/F 2376 22-11-2018 05:55:00 2.9 C 90 % 1.43 C
2377 22-11-2018 06:00:00 2.9 C 90 % 1.43 C
2378 22-11-2018 06:05:00 2.9 C 90 % 1.43 C
2379 22-11-2018 06:10:00 2.9 C 90 % 1.43 C
2380 22-11-2018 06:15:00 2.8 C 90 % 1.33 C
2381 22-11-2018 06:20:00 2.8 C 90 % 1.33 C
2382 22-11-2018 06:25:00 2.8 C 90 % 1.33 C
2383 22-11-2018 06:30:00 2.8 C 90 % 1.33 C
2384 22-11-2018 06:35:00 2.8 C 90 % 1.33 C
2385 22-11-2018 06:40:00 2.7 C 90 % 1.23 C
2386 22-11-2018 06:45:00 2.7 C 90 % 1.23 C
2387 22-11-2018 06:50:00 2.7 C 90 % 1.23 C
2388 22-11-2018 06:55:00 2.6 C 91 % 1.28 C
2389 22-11-2018 07:00:00 2.6 C 91 % 1.28 C
2390 22-11-2018 07:05:00 2.6 C 91 % 1.28 C
2391 22-11-2018 07:10:00 2.6 C 91 % 1.28 C
2392 22-11-2018 07:15:00 2.6 C 91 % 1.28 C
2393 22-11-2018 07:20:00 2.5 C 91 % 1.18 C
2394 22-11-2018 07:25:00 2.5 C 91 % 1.18 C
2395 22-11-2018 07:30:00 2.5 C 91 % 1.18 C
2396 22-11-2018 07:35:00 2.5 C 91 % 1.18 C
2397 22-11-2018 07:40:00 2.5 C 91 % 1.18 C
2398 22-11-2018 07:45:00 2.5 C 91 % 1.18 C
2399 22-11-2018 07:50:00 2.5 C 91 % 1.18 C
2400 22-11-2018 07:55:00 2.5 C 92 % 1.34 C
Sensor: Nr:Datum:Temp:Feuchte:Taupunkt:
Aussen-T/F 2401 22-11-2018 08:00:00 2.5 C 92 % 1.34 C
2402 22-11-2018 08:05:00 2.6 C 92 % 1.43 C
2403 22-11-2018 08:10:00 2.6 C 92 % 1.43 C
2404 22-11-2018 08:15:00 2.6 C 92 % 1.43 C
2405 22-11-2018 08:20:00 2.7 C 92 % 1.53 C
2406 22-11-2018 08:25:00 2.7 C 92 % 1.53 C
2407 22-11-2018 08:30:00 2.7 C 92 % 1.53 C
2408 22-11-2018 08:35:00 2.7 C 92 % 1.53 C
2409 22-11-2018 08:40:00 2.8 C 92 % 1.63 C
2410 22-11-2018 08:45:00 2.8 C 92 % 1.63 C
2411 22-11-2018 08:50:00 2.9 C 92 % 1.73 C
2412 22-11-2018 08:55:00 3 C 92 % 1.83 C
2413 22-11-2018 09:00:00 3.1 C 92 % 1.93 C
2414 22-11-2018 09:05:00 3.1 C 92 % 1.93 C
2415 22-11-2018 09:10:00 3.2 C 92 % 2.03 C
2416 22-11-2018 09:15:00 3.3 C 92 % 2.13 C
2417 22-11-2018 09:20:00 3.3 C 91 % 1.98 C
2418 22-11-2018 09:25:00 3.4 C 91 % 2.07 C
2419 22-11-2018 09:30:00 3.4 C 91 % 2.07 C
2420 22-11-2018 09:35:00 3.6 C 91 % 2.27 C
2421 22-11-2018 09:40:00 3.7 C 91 % 2.37 C
2422 22-11-2018 09:45:00 3.7 C 90 % 2.22 C
2423 22-11-2018 09:50:00 3.8 C 90 % 2.31 C
2424 22-11-2018 09:55:00 3.9 C 89 % 2.26 C
2425 22-11-2018 10:00:00 4 C 88 % 2.2 C
Sensor: Nr:Datum:Temp:Feuchte:Taupunkt:
Aussen-T/F 2426 22-11-2018 10:05:00 4.2 C 87 % 2.23 C
2427 22-11-2018 10:10:00 4.2 C 86 % 2.07 C
2428 22-11-2018 10:15:00 4.3 C 85 % 2.01 C
2429 22-11-2018 10:20:00 4.3 C 85 % 2.01 C
2430 22-11-2018 10:25:00 4.4 C 85 % 2.11 C
2431 22-11-2018 10:30:00 4.4 C 84 % 1.94 C
2432 22-11-2018 10:35:00 4.4 C 84 % 1.94 C
2433 22-11-2018 10:40:00 4.5 C 83 % 1.87 C
2434 22-11-2018 10:45:00 4.6 C 83 % 1.97 C
2435 22-11-2018 10:50:00 4.7 C 83 % 2.07 C
2436 22-11-2018 10:55:00 4.8 C 82 % 1.99 C
2437 22-11-2018 11:00:00 4.9 C 82 % 2.09 C
2438 22-11-2018 11:05:00 5 C 82 % 2.19 C
2439 22-11-2018 11:10:00 5.1 C 81 % 2.12 C
2440 22-11-2018 11:15:00 5.2 C 81 % 2.21 C
2441 22-11-2018 11:20:00 5.3 C 80 % 2.14 C
2442 22-11-2018 11:25:00 5.3 C 80 % 2.14 C
2443 22-11-2018 11:30:00 5.3 C 80 % 2.14 C
2444 22-11-2018 11:35:00 5.3 C 79 % 1.96 C
2445 22-11-2018 11:40:00 5.3 C 80 % 2.14 C
2446 22-11-2018 11:45:00 5.3 C 79 % 1.96 C
2447 22-11-2018 11:50:00 5.3 C 80 % 2.14 C
2448 22-11-2018 11:55:00 5.4 C 79 % 2.06 C
2449 22-11-2018 12:00:00 5.4 C 80 % 2.23 C
2450 22-11-2018 12:05:00 5.4 C 79 % 2.06 C
Sensor: Nr:Datum:Temp:Feuchte:Taupunkt:
Aussen-T/F 2451 22-11-2018 12:10:00 5.5 C 79 % 2.16 C
2452 22-11-2018 12:15:00 5.5 C 79 % 2.16 C
2453 22-11-2018 12:20:00 5.4 C 79 % 2.06 C
2454 22-11-2018 12:25:00 5.4 C 79 % 2.06 C
2455 22-11-2018 12:30:00 5.4 C 79 % 2.06 C
2456 22-11-2018 12:35:00 5.5 C 79 % 2.16 C
2457 22-11-2018 12:40:00 5.6 C 79 % 2.25 C
2458 22-11-2018 12:45:00 5.6 C 79 % 2.25 C
2459 22-11-2018 12:50:00 5.7 C 79 % 2.35 C
2460 22-11-2018 12:55:00 5.7 C 78 % 2.17 C
2461 22-11-2018 13:00:00 5.8 C 78 % 2.27 C
2462 22-11-2018 13:05:00 5.8 C 78 % 2.27 C
2463 22-11-2018 13:10:00 5.8 C 78 % 2.27 C
2464 22-11-2018 13:15:00 5.8 C 77 % 2.09 C
2465 22-11-2018 13:20:00 5.8 C 78 % 2.27 C
2466 22-11-2018 13:25:00 5.8 C 78 % 2.27 C
2467 22-11-2018 13:30:00 5.8 C 78 % 2.27 C
2468 22-11-2018 13:35:00 5.8 C 78 % 2.27 C
2469 22-11-2018 13:40:00 5.8 C 78 % 2.27 C
2470 22-11-2018 13:45:00 5.8 C 79 % 2.45 C
2471 22-11-2018 13:50:00 5.9 C 78 % 2.37 C
2472 22-11-2018 13:55:00 5.9 C 78 % 2.37 C
2473 22-11-2018 14:00:00 5.8 C 78 % 2.27 C
2474 22-11-2018 14:05:00 5.7 C 78 % 2.17 C
2475 22-11-2018 14:10:00 5.6 C 79 % 2.25 C
Sensor: Nr:Datum:Temp:Feuchte:Taupunkt:
Aussen-T/F 2476 22-11-2018 14:15:00 5.4 C 79 % 2.06 C
2477 22-11-2018 14:20:00 5.4 C 79 % 2.06 C
2478 22-11-2018 14:25:00 5.3 C 80 % 2.14 C
2479 22-11-2018 14:30:00 5.3 C 79 % 1.96 C
2480 22-11-2018 14:35:00 5.3 C 80 % 2.14 C
2481 22-11-2018 14:40:00 5.3 C 80 % 2.14 C
2482 22-11-2018 14:45:00 5.3 C 80 % 2.14 C
2483 22-11-2018 14:50:00 5.2 C 80 % 2.04 C
2484 22-11-2018 14:55:00 5.2 C 81 % 2.21 C
2485 22-11-2018 15:00:00 5.1 C 81 % 2.12 C
2486 22-11-2018 15:05:00 4.9 C 81 % 1.92 C
2487 22-11-2018 15:10:00 4.8 C 82 % 1.99 C
2488 22-11-2018 15:15:00 4.8 C 82 % 1.99 C
2489 22-11-2018 15:20:00 4.7 C 82 % 1.9 C
2490 22-11-2018 15:25:00 4.7 C 83 % 2.07 C
2491 22-11-2018 15:30:00 4.6 C 83 % 1.97 C
2492 22-11-2018 15:35:00 4.6 C 83 % 1.97 C
2493 22-11-2018 15:40:00 4.4 C 83 % 1.77 C
2494 22-11-2018 15:45:00 4.3 C 83 % 1.67 C
2495 22-11-2018 15:50:00 4.2 C 83 % 1.58 C
2496 22-11-2018 15:55:00 4.1 C 84 % 1.65 C
2497 22-11-2018 16:00:00 3.9 C 84 % 1.45 C
2498 22-11-2018 16:05:00 3.8 C 84 % 1.35 C
2499 22-11-2018 16:10:00 3.7 C 85 % 1.42 C
2500 22-11-2018 16:15:00 3.5 C 86 % 1.38 C
Sensor: Nr:Datum:Temp:Feuchte:Taupunkt:
Aussen-T/F 2501 22-11-2018 16:20:00 3.4 C 86 % 1.29 C
2502 22-11-2018 16:25:00 3.2 C 86 % 1.09 C
2503 22-11-2018 16:30:00 3.1 C 86 % 0.99 C
2504 22-11-2018 16:35:00 2.9 C 87 % 0.96 C
2505 22-11-2018 16:40:00 2.8 C 87 % 0.86 C
2506 22-11-2018 16:45:00 2.7 C 87 % 0.76 C
2507 22-11-2018 16:50:00 2.6 C 88 % 0.82 C
2508 22-11-2018 16:55:00 2.5 C 88 % 0.72 C
2509 22-11-2018 17:00:00 2.4 C 88 % 0.62 C
2510 22-11-2018 17:05:00 2.3 C 88 % 0.52 C
2511 22-11-2018 17:10:00 2.2 C 89 % 0.58 C
2512 22-11-2018 17:15:00 2.2 C 89 % 0.58 C
2513 22-11-2018 17:20:00 2.1 C 89 % 0.48 C
2514 22-11-2018 17:25:00 2.1 C 90 % 0.64 C
2515 22-11-2018 17:30:00 2.1 C 90 % 0.64 C
2516 22-11-2018 17:35:00 2.2 C 90 % 0.73 C
2517 22-11-2018 17:40:00 2.2 C 91 % 0.89 C
2518 22-11-2018 17:45:00 2.3 C 91 % 0.99 C
2519 22-11-2018 17:50:00 2.3 C 91 % 0.99 C
2520 22-11-2018 17:55:00 2.3 C 91 % 0.99 C
2521 22-11-2018 18:00:00 2.4 C 91 % 1.08 C
2522 22-11-2018 18:05:00 2.5 C 91 % 1.18 C
2523 22-11-2018 18:10:00 2.6 C 91 % 1.28 C
2524 22-11-2018 18:15:00 2.6 C 91 % 1.28 C
2525 22-11-2018 18:20:00 2.6 C 91 % 1.28 C
Sensor: Nr:Datum:Temp:Feuchte:Taupunkt:
Aussen-T/F 2526 22-11-2018 18:25:00 2.6 C 91 % 1.28 C
2527 22-11-2018 18:30:00 2.6 C 91 % 1.28 C
2528 22-11-2018 18:35:00 2.6 C 91 % 1.28 C
2529 22-11-2018 18:40:00 2.6 C 90 % 1.13 C
2530 22-11-2018 18:45:00 2.4 C 90 % 0.93 C
2531 22-11-2018 18:50:00 2.3 C 90 % 0.83 C
2532 22-11-2018 18:55:00 2.2 C 89 % 0.58 C
2533 22-11-2018 19:00:00 2 C 89 % 0.38 C
2534 22-11-2018 19:05:00 1.9 C 89 % 0.28 C
2535 22-11-2018 19:10:00 1.8 C 90 % 0.34 C
2536 22-11-2018 19:15:00 1.7 C 90 % 0.24 C
2537 22-11-2018 19:20:00 1.6 C 90 % 0.14 C
2538 22-11-2018 19:25:00 1.5 C 90 % 0.04 C
2539 22-11-2018 19:30:00 1.4 C 91 % 0.1 C
2540 22-11-2018 19:35:00 1.4 C 91 % 0.1 C
2541 22-11-2018 19:40:00 1.4 C 91 % 0.1 C
2542 22-11-2018 19:45:00 1.3 C 91 % 0 C
2543 22-11-2018 19:50:00 1.3 C 91 % 0 C
2544 22-11-2018 19:55:00 1.3 C 92 % 0.15 C
2545 22-11-2018 20:00:00 1.2 C 91 % -0.1 C
2546 22-11-2018 20:05:00 1.2 C 92 % 0.05 C
2547 22-11-2018 20:10:00 1.2 C 92 % 0.05 C
2548 22-11-2018 20:15:00 1.1 C 92 % -0.05 C
2549 22-11-2018 20:20:00 1.1 C 92 % -0.05 C
2550 22-11-2018 20:25:00 1 C 92 % -0.15 C
Sensor: Nr:Datum:Temp:Feuchte:Taupunkt:
Aussen-T/F 2551 22-11-2018 20:30:00 0.9 C 92 % -0.25 C
2552 22-11-2018 20:35:00 0.9 C 92 % -0.25 C
2553 22-11-2018 20:40:00 0.8 C 92 % -0.35 C
2554 22-11-2018 20:45:00 0.8 C 92 % -0.35 C
2555 22-11-2018 20:50:00 0.8 C 92 % -0.35 C
2556 22-11-2018 20:55:00 0.7 C 92 % -0.45 C
2557 22-11-2018 21:00:00 0.6 C 92 % -0.55 C
2558 22-11-2018 21:05:00 0.5 C 92 % -0.65 C
2559 22-11-2018 21:10:00 0.4 C 92 % -0.74 C
2560 22-11-2018 21:15:00 0.3 C 92 % -0.84 C
2561 22-11-2018 21:20:00 0.3 C 93 % -0.7 C
2562 22-11-2018 21:25:00 0.2 C 92 % -0.94 C
2563 22-11-2018 21:30:00 0.2 C 93 % -0.79 C
2564 22-11-2018 21:35:00 0.1 C 93 % -0.89 C
2565 22-11-2018 21:40:00 0 C 93 % -0.99 C
2566 22-11-2018 21:45:00 -0.1 C 93 % -1.09 C
2567 22-11-2018 21:50:00 -0.1 C 93 % -1.09 C
2568 22-11-2018 21:55:00 -0.2 C 93 % -1.19 C
2569 22-11-2018 22:00:00 -0.3 C 93 % -1.29 C
2570 22-11-2018 22:05:00 -0.3 C 93 % -1.29 C
2571 22-11-2018 22:10:00 -0.3 C 93 % -1.29 C
2572 22-11-2018 22:15:00 -0.4 C 93 % -1.39 C
2573 22-11-2018 22:20:00 -0.4 C 93 % -1.39 C
2574 22-11-2018 22:25:00 -0.4 C 93 % -1.39 C
2575 22-11-2018 22:30:00 -0.4 C 94 % -1.25 C
Sensor: Nr:Datum:Temp:Feuchte:Taupunkt:
Aussen-T/F 2576 22-11-2018 22:35:00 -0.4 C 94 % -1.25 C
2577 22-11-2018 22:40:00 -0.4 C 94 % -1.25 C
2578 22-11-2018 22:45:00 -0.5 C 94 % -1.34 C
2579 22-11-2018 22:50:00 -0.6 C 94 % -1.44 C
2580 22-11-2018 22:55:00 -0.6 C 94 % -1.44 C
2581 22-11-2018 23:00:00 -0.7 C 94 % -1.54 C
2582 22-11-2018 23:05:00 -0.8 C 93 % -1.79 C
2583 22-11-2018 23:10:00 -0.9 C 94 % -1.74 C
2584 22-11-2018 23:15:00 -0.9 C 94 % -1.74 C
2585 22-11-2018 23:20:00 -1 C 94 % -1.84 C
2586 22-11-2018 23:25:00 -1.1 C 94 % -1.94 C
2587 22-11-2018 23:30:00 -1 C 94 % -1.84 C
2588 22-11-2018 23:35:00 -1 C 94 % -1.84 C
2589 22-11-2018 23:40:00 -1.1 C 94 % -1.94 C
2590 22-11-2018 23:45:00 -1.1 C 94 % -1.94 C
2591 22-11-2018 23:50:00 -1.1 C 94 % -1.94 C
2592 22-11-2018 23:55:00 -1.1 C 94 % -1.94 C
2593 23-11-2018 00:00:00 -1.1 C 94 % -1.94 C
2594 23-11-2018 00:05:00 -1.2 C 94 % -2.04 C
2595 23-11-2018 00:10:00 -1.2 C 94 % -2.04 C
2596 23-11-2018 00:15:00 -1.2 C 94 % -2.04 C
2597 23-11-2018 00:20:00 -1.2 C 94 % -2.04 C
2598 23-11-2018 00:25:00 -1.3 C 94 % -2.14 C
2599 23-11-2018 00:30:00 -1.3 C 94 % -2.14 C
2600 23-11-2018 00:35:00 -1.4 C 94 % -2.24 C
Sensor: Nr:Datum:Temp:Feuchte:Taupunkt:
Aussen-T/F 2601 23-11-2018 00:40:00 -1.4 C 94 % -2.24 C
2602 23-11-2018 00:45:00 -1.4 C 95 % -2.1 C
2603 23-11-2018 00:50:00 -1.4 C 95 % -2.1 C
2604 23-11-2018 00:55:00 -1.4 C 94 % -2.24 C
2605 23-11-2018 01:00:00 -1.5 C 94 % -2.34 C
2606 23-11-2018 01:05:00 -1.5 C 94 % -2.34 C
2607 23-11-2018 01:10:00 -1.6 C 95 % -2.29 C
2608 23-11-2018 01:15:00 -1.6 C 95 % -2.29 C
2609 23-11-2018 01:20:00 -1.7 C 95 % -2.39 C
2610 23-11-2018 01:25:00 -1.7 C 94 % -2.54 C
2611 23-11-2018 01:30:00 -1.7 C 94 % -2.54 C
2612 23-11-2018 01:35:00 -1.8 C 94 % -2.64 C
2613 23-11-2018 01:40:00 -1.8 C 94 % -2.64 C
2614 23-11-2018 01:45:00 -1.8 C 94 % -2.64 C
2615 23-11-2018 01:50:00 -1.8 C 95 % -2.49 C
2616 23-11-2018 01:55:00 -1.8 C 95 % -2.49 C
2617 23-11-2018 02:00:00 -1.7 C 95 % -2.39 C
2618 23-11-2018 02:05:00 -1.7 C 95 % -2.39 C
2619 23-11-2018 02:10:00 -1.7 C 95 % -2.39 C
2620 23-11-2018 02:15:00 -1.8 C 95 % -2.49 C
2621 23-11-2018 02:20:00 -1.8 C 95 % -2.49 C
2622 23-11-2018 02:25:00 -1.9 C 95 % -2.59 C
2623 23-11-2018 02:30:00 -1.9 C 95 % -2.59 C
2624 23-11-2018 02:35:00 -1.8 C 95 % -2.49 C
2625 23-11-2018 02:40:00 -1.8 C 95 % -2.49 C
Sensor: Nr:Datum:Temp:Feuchte:Taupunkt:
Aussen-T/F 2626 23-11-2018 02:45:00 -1.9 C 95 % -2.59 C
2627 23-11-2018 02:50:00 -2 C 95 % -2.69 C
2628 23-11-2018 02:55:00 -2.1 C 95 % -2.79 C
2629 23-11-2018 03:00:00 -2.1 C 95 % -2.79 C
2630 23-11-2018 03:05:00 -2.1 C 95 % -2.79 C
2631 23-11-2018 03:10:00 -2.1 C 95 % -2.79 C
2632 23-11-2018 03:15:00 -2.2 C 95 % -2.89 C
2633 23-11-2018 03:20:00 -2.2 C 95 % -2.89 C
2634 23-11-2018 03:25:00 -2.2 C 95 % -2.89 C
2635 23-11-2018 03:30:00 -2.2 C 95 % -2.89 C
2636 23-11-2018 03:35:00 -2.1 C 95 % -2.79 C
2637 23-11-2018 03:40:00 -1.9 C 95 % -2.59 C
2638 23-11-2018 03:45:00 -1.9 C 95 % -2.59 C
2639 23-11-2018 03:50:00 -2 C 95 % -2.69 C
2640 23-11-2018 03:55:00 -2.1 C 95 % -2.79 C
2641 23-11-2018 04:00:00 -1.9 C 95 % -2.59 C
2642 23-11-2018 04:05:00 -1.9 C 95 % -2.59 C
2643 23-11-2018 04:10:00 -1.9 C 95 % -2.59 C
2644 23-11-2018 04:15:00 -1.9 C 95 % -2.59 C
2645 23-11-2018 04:20:00 -2 C 95 % -2.69 C
2646 23-11-2018 04:25:00 -2.1 C 95 % -2.79 C
2647 23-11-2018 04:30:00 -2.1 C 95 % -2.79 C
2648 23-11-2018 04:35:00 -2.2 C 95 % -2.89 C
2649 23-11-2018 04:40:00 -2.3 C 95 % -2.99 C
2650 23-11-2018 04:45:00 -2.3 C 95 % -2.99 C
Sensor: Nr:Datum:Temp:Feuchte:Taupunkt:
Aussen-T/F 2651 23-11-2018 04:50:00 -2.3 C 95 % -2.99 C
2652 23-11-2018 04:55:00 -2.4 C 95 % -3.09 C
2653 23-11-2018 05:00:00 -2.4 C 95 % -3.09 C
2654 23-11-2018 05:05:00 -2.4 C 95 % -3.09 C
2655 23-11-2018 05:10:00 -2.3 C 95 % -2.99 C
2656 23-11-2018 05:15:00 -2.2 C 95 % -2.89 C
2657 23-11-2018 05:20:00 -2.2 C 95 % -2.89 C
2658 23-11-2018 05:25:00 -2.1 C 95 % -2.79 C
2659 23-11-2018 05:30:00 -2.2 C 95 % -2.89 C
2660 23-11-2018 05:35:00 -2.3 C 95 % -2.99 C
2661 23-11-2018 05:40:00 -2.3 C 95 % -2.99 C
2662 23-11-2018 05:45:00 -2.4 C 95 % -3.09 C
2663 23-11-2018 05:50:00 -2.6 C 95 % -3.29 C
2664 23-11-2018 05:55:00 -2.6 C 95 % -3.29 C
2665 23-11-2018 06:00:00 -2.5 C 95 % -3.19 C
2666 23-11-2018 06:05:00 -2.4 C 95 % -3.09 C
2667 23-11-2018 06:10:00 -2.3 C 95 % -2.99 C
2668 23-11-2018 06:15:00 -2.2 C 96 % -2.75 C
2669 23-11-2018 06:20:00 -2.1 C 96 % -2.65 C
2670 23-11-2018 06:25:00 -2 C 96 % -2.55 C
2671 23-11-2018 06:30:00 -2 C 95 % -2.69 C
2672 23-11-2018 06:35:00 -2 C 95 % -2.69 C
2673 23-11-2018 06:40:00 -2.1 C 95 % -2.79 C
2674 23-11-2018 06:45:00 -2.1 C 95 % -2.79 C
2675 23-11-2018 06:50:00 -2.2 C 95 % -2.89 C
Sensor: Nr:Datum:Temp:Feuchte:Taupunkt:
Aussen-T/F 2676 23-11-2018 06:55:00 -2.2 C 95 % -2.89 C
2677 23-11-2018 07:00:00 -2.2 C 95 % -2.89 C
2678 23-11-2018 07:05:00 -2.1 C 95 % -2.79 C
2679 23-11-2018 07:10:00 -2.1 C 95 % -2.79 C
2680 23-11-2018 07:15:00 -2 C 96 % -2.55 C
2681 23-11-2018 07:20:00 -2 C 96 % -2.55 C
2682 23-11-2018 07:25:00 -2 C 95 % -2.69 C
2683 23-11-2018 07:30:00 -2.1 C 95 % -2.79 C
2684 23-11-2018 07:35:00 -2.2 C 95 % -2.89 C
2685 23-11-2018 07:40:00 -2.3 C 95 % -2.99 C
2686 23-11-2018 07:45:00 -2.4 C 95 % -3.09 C
2687 23-11-2018 07:50:00 -2.5 C 95 % -3.19 C
2688 23-11-2018 07:55:00 -2.6 C 95 % -3.29 C
2689 23-11-2018 08:00:00 -2.7 C 95 % -3.39 C
2690 23-11-2018 08:05:00 -2.8 C 95 % -3.49 C
2691 23-11-2018 08:10:00 -2.8 C 95 % -3.49 C
2692 23-11-2018 08:15:00 -2.7 C 95 % -3.39 C
2693 23-11-2018 08:20:00 -2.8 C 95 % -3.49 C
2694 23-11-2018 08:25:00 -2.8 C 95 % -3.49 C
2695 23-11-2018 08:30:00 -2.8 C 95 % -3.49 C
2696 23-11-2018 08:35:00 -2.9 C 95 % -3.59 C
2697 23-11-2018 08:40:00 -2.9 C 95 % -3.59 C
2698 23-11-2018 08:45:00 -2.9 C 95 % -3.59 C
2699 23-11-2018 08:50:00 -2.8 C 95 % -3.49 C
2700 23-11-2018 08:55:00 -2.7 C 95 % -3.39 C
Sensor: Nr:Datum:Temp:Feuchte:Taupunkt:
Aussen-T/F 2701 23-11-2018 09:00:00 -2.6 C 95 % -3.29 C
2702 23-11-2018 09:05:00 -2.5 C 96 % -3.05 C
2703 23-11-2018 09:10:00 -2.5 C 96 % -3.05 C
2704 23-11-2018 09:15:00 -2.4 C 96 % -2.95 C
2705 23-11-2018 09:20:00 -2.3 C 96 % -2.85 C
2706 23-11-2018 09:25:00 -2.3 C 96 % -2.85 C
2707 23-11-2018 09:30:00 -2.2 C 96 % -2.75 C
2708 23-11-2018 09:35:00 -2.2 C 96 % -2.75 C
2709 23-11-2018 09:40:00 -2.2 C 96 % -2.75 C
2710 23-11-2018 09:45:00 -2.2 C 96 % -2.75 C
2711 23-11-2018 09:50:00 -2.2 C 96 % -2.75 C
2712 23-11-2018 09:55:00 -2.2 C 96 % -2.75 C
2713 23-11-2018 10:00:00 -2.2 C 96 % -2.75 C
2714 23-11-2018 10:05:00 -2.2 C 96 % -2.75 C
2715 23-11-2018 10:10:00 -2.2 C 96 % -2.75 C
2716 23-11-2018 10:15:00 -2.2 C 96 % -2.75 C
2717 23-11-2018 10:20:00 -2.1 C 96 % -2.65 C
2718 23-11-2018 10:25:00 -2.1 C 96 % -2.65 C
2719 23-11-2018 10:30:00 -2 C 96 % -2.55 C
2720 23-11-2018 10:35:00 -1.9 C 96 % -2.45 C
2721 23-11-2018 10:40:00 -1.8 C 96 % -2.35 C
2722 23-11-2018 10:45:00 -1.8 C 96 % -2.35 C
2723 23-11-2018 10:50:00 -1.7 C 96 % -2.25 C
2724 23-11-2018 10:55:00 -1.6 C 96 % -2.15 C
2725 23-11-2018 11:00:00 -1.6 C 96 % -2.15 C
Sensor: Nr:Datum:Temp:Feuchte:Taupunkt:
Aussen-T/F 2726 23-11-2018 11:05:00 -1.4 C 96 % -1.95 C
2727 23-11-2018 11:10:00 -1.4 C 96 % -1.95 C
2728 23-11-2018 11:15:00 -1.3 C 96 % -1.85 C
2729 23-11-2018 11:20:00 -1.2 C 96 % -1.75 C
2730 23-11-2018 11:25:00 -1.1 C 96 % -1.66 C
2731 23-11-2018 11:30:00 -1 C 96 % -1.56 C
2732 23-11-2018 11:35:00 -0.9 C 96 % -1.46 C
2733 23-11-2018 11:40:00 -0.8 C 96 % -1.36 C
2734 23-11-2018 11:45:00 -0.7 C 96 % -1.26 C
2735 23-11-2018 11:50:00 -0.6 C 96 % -1.16 C
2736 23-11-2018 11:55:00 -0.5 C 96 % -1.06 C
2737 23-11-2018 12:00:00 -0.3 C 96 % -0.86 C
2738 23-11-2018 12:05:00 -0.2 C 96 % -0.76 C
2739 23-11-2018 12:10:00 -0.1 C 97 % -0.52 C
2740 23-11-2018 12:15:00 0.1 C 97 % -0.32 C
2741 23-11-2018 12:20:00 0.2 C 96 % -0.36 C
2742 23-11-2018 12:25:00 0.4 C 97 % -0.02 C
2743 23-11-2018 12:30:00 0.6 C 97 % 0.18 C
2744 23-11-2018 12:35:00 0.8 C 97 % 0.38 C
2745 23-11-2018 12:40:00 1.1 C 97 % 0.68 C
2746 23-11-2018 12:45:00 1.3 C 97 % 0.88 C
2747 23-11-2018 12:50:00 1.4 C 97 % 0.98 C
2748 23-11-2018 12:55:00 1.6 C 97 % 1.18 C
2749 23-11-2018 13:00:00 1.7 C 97 % 1.28 C
2750 23-11-2018 13:05:00 1.8 C 97 % 1.38 C
Sensor: Nr:Datum:Temp:Feuchte:Taupunkt:
Aussen-T/F 2751 23-11-2018 13:10:00 1.9 C 97 % 1.48 C
2752 23-11-2018 13:15:00 2 C 97 % 1.58 C
2753 23-11-2018 13:20:00 2.1 C 97 % 1.67 C
2754 23-11-2018 13:25:00 2.1 C 97 % 1.67 C
2755 23-11-2018 13:30:00 2.3 C 97 % 1.87 C
2756 23-11-2018 13:35:00 2.3 C 97 % 1.87 C
2757 23-11-2018 13:40:00 2.4 C 97 % 1.97 C
2758 23-11-2018 13:45:00 2.6 C 97 % 2.17 C
2759 23-11-2018 13:50:00 2.6 C 97 % 2.17 C
2760 23-11-2018 13:55:00 2.7 C 97 % 2.27 C
2761 23-11-2018 14:00:00 2.8 C 97 % 2.37 C
2762 23-11-2018 14:05:00 2.8 C 97 % 2.37 C
2763 23-11-2018 14:10:00 2.9 C 97 % 2.47 C
2764 23-11-2018 14:15:00 2.9 C 96 % 2.33 C
2765 23-11-2018 14:20:00 3 C 96 % 2.43 C
2766 23-11-2018 14:25:00 3.1 C 97 % 2.67 C
2767 23-11-2018 14:30:00 3.2 C 96 % 2.63 C
2768 23-11-2018 14:35:00 3.2 C 96 % 2.63 C
2769 23-11-2018 14:40:00 3.3 C 96 % 2.72 C
2770 23-11-2018 14:45:00 3.4 C 96 % 2.82 C
2771 23-11-2018 14:50:00 3.4 C 96 % 2.82 C
2772 23-11-2018 14:55:00 3.5 C 96 % 2.92 C
2773 23-11-2018 15:00:00 3.5 C 96 % 2.92 C
2774 23-11-2018 15:05:00 3.4 C 96 % 2.82 C
2775 23-11-2018 15:10:00 3.4 C 96 % 2.82 C
Sensor: Nr:Datum:Temp:Feuchte:Taupunkt:
Aussen-T/F 2776 23-11-2018 15:15:00 3.4 C 96 % 2.82 C
2777 23-11-2018 15:20:00 3.4 C 95 % 2.68 C
2778 23-11-2018 15:25:00 3.4 C 96 % 2.82 C
2779 23-11-2018 15:30:00 3.4 C 96 % 2.82 C
2780 23-11-2018 15:35:00 3.4 C 96 % 2.82 C
2781 23-11-2018 15:40:00 3.4 C 96 % 2.82 C
2782 23-11-2018 15:45:00 3.4 C 95 % 2.68 C
2783 23-11-2018 15:50:00 3.4 C 95 % 2.68 C
2784 23-11-2018 15:55:00 3.4 C 95 % 2.68 C
2785 23-11-2018 16:00:00 3.4 C 95 % 2.68 C
2786 23-11-2018 16:05:00 3.3 C 95 % 2.58 C
2787 23-11-2018 16:10:00 3.3 C 95 % 2.58 C
2788 23-11-2018 16:15:00 3.2 C 95 % 2.48 C
2789 23-11-2018 16:20:00 3.2 C 95 % 2.48 C
2790 23-11-2018 16:25:00 3.1 C 95 % 2.38 C
2791 23-11-2018 16:30:00 3.1 C 95 % 2.38 C
2792 23-11-2018 16:35:00 3 C 95 % 2.28 C
2793 23-11-2018 16:40:00 2.9 C 95 % 2.18 C
2794 23-11-2018 16:45:00 2.9 C 95 % 2.18 C
2795 23-11-2018 16:50:00 2.9 C 95 % 2.18 C
2796 23-11-2018 16:55:00 2.8 C 95 % 2.08 C
2797 23-11-2018 17:00:00 2.8 C 95 % 2.08 C
2798 23-11-2018 17:05:00 2.8 C 95 % 2.08 C
2799 23-11-2018 17:10:00 2.8 C 95 % 2.08 C
2800 23-11-2018 17:15:00 2.8 C 95 % 2.08 C
Sensor: Nr:Datum:Temp:Feuchte:Taupunkt:
Aussen-T/F 2801 23-11-2018 17:20:00 2.8 C 95 % 2.08 C
2802 23-11-2018 17:25:00 2.8 C 95 % 2.08 C
2803 23-11-2018 17:30:00 2.8 C 95 % 2.08 C
2804 23-11-2018 17:35:00 2.8 C 95 % 2.08 C
2805 23-11-2018 17:40:00 2.7 C 95 % 1.98 C
2806 23-11-2018 17:45:00 2.7 C 95 % 1.98 C
2807 23-11-2018 17:50:00 2.6 C 95 % 1.88 C
2808 23-11-2018 17:55:00 2.6 C 95 % 1.88 C
2809 23-11-2018 18:00:00 2.6 C 95 % 1.88 C
2810 23-11-2018 18:05:00 2.5 C 95 % 1.78 C
2811 23-11-2018 18:10:00 2.6 C 95 % 1.88 C
2812 23-11-2018 18:15:00 2.5 C 95 % 1.78 C
2813 23-11-2018 18:20:00 2.4 C 95 % 1.68 C
2814 23-11-2018 18:25:00 2.4 C 95 % 1.68 C
2815 23-11-2018 18:30:00 2.4 C 95 % 1.68 C
2816 23-11-2018 18:35:00 2.4 C 95 % 1.68 C
2817 23-11-2018 18:40:00 2.4 C 95 % 1.68 C
2818 23-11-2018 18:45:00 2.4 C 95 % 1.68 C
2819 23-11-2018 18:50:00 2.4 C 95 % 1.68 C
2820 23-11-2018 18:55:00 2.4 C 95 % 1.68 C
2821 23-11-2018 19:00:00 2.4 C 95 % 1.68 C
2822 23-11-2018 19:05:00 2.3 C 95 % 1.58 C
2823 23-11-2018 19:10:00 2.3 C 95 % 1.58 C
2824 23-11-2018 19:15:00 2.3 C 95 % 1.58 C
2825 23-11-2018 19:20:00 2.3 C 95 % 1.58 C
Sensor: Nr:Datum:Temp:Feuchte:Taupunkt:
Aussen-T/F 2826 23-11-2018 19:25:00 2.3 C 95 % 1.58 C
2827 23-11-2018 19:30:00 2.3 C 95 % 1.58 C
2828 23-11-2018 19:35:00 2.3 C 95 % 1.58 C
2829 23-11-2018 19:40:00 2.2 C 95 % 1.48 C
2830 23-11-2018 19:45:00 2.2 C 95 % 1.48 C
2831 23-11-2018 19:50:00 2.1 C 95 % 1.38 C
2832 23-11-2018 19:55:00 2.1 C 95 % 1.38 C
2833 23-11-2018 20:00:00 2 C 95 % 1.29 C
2834 23-11-2018 20:05:00 1.9 C 95 % 1.19 C
2835 23-11-2018 20:10:00 1.9 C 95 % 1.19 C
2836 23-11-2018 20:15:00 1.9 C 95 % 1.19 C
2837 23-11-2018 20:20:00 1.8 C 95 % 1.09 C
2838 23-11-2018 20:25:00 1.8 C 95 % 1.09 C
2839 23-11-2018 20:30:00 1.8 C 95 % 1.09 C
2840 23-11-2018 20:35:00 1.8 C 95 % 1.09 C
2841 23-11-2018 20:40:00 1.8 C 95 % 1.09 C
2842 23-11-2018 20:45:00 1.8 C 95 % 1.09 C
2843 23-11-2018 20:50:00 1.7 C 95 % 0.99 C
2844 23-11-2018 20:55:00 1.7 C 95 % 0.99 C
2845 23-11-2018 21:00:00 1.7 C 95 % 0.99 C
2846 23-11-2018 21:05:00 1.6 C 95 % 0.89 C
2847 23-11-2018 21:10:00 1.6 C 95 % 0.89 C
2848 23-11-2018 21:15:00 1.6 C 95 % 0.89 C
2849 23-11-2018 21:20:00 1.6 C 95 % 0.89 C
2850 23-11-2018 21:25:00 1.5 C 95 % 0.79 C
Sensor: Nr:Datum:Temp:Feuchte:Taupunkt:
Aussen-T/F 2851 23-11-2018 21:30:00 1.5 C 95 % 0.79 C
2852 23-11-2018 21:35:00 1.4 C 95 % 0.69 C
2853 23-11-2018 21:40:00 1.4 C 95 % 0.69 C
2854 23-11-2018 21:45:00 1.4 C 95 % 0.69 C
2855 23-11-2018 21:50:00 1.3 C 95 % 0.59 C
2856 23-11-2018 21:55:00 1.3 C 95 % 0.59 C
2857 23-11-2018 22:00:00 1.3 C 95 % 0.59 C
2858 23-11-2018 22:05:00 1.3 C 95 % 0.59 C
2859 23-11-2018 22:10:00 1.3 C 95 % 0.59 C
2860 23-11-2018 22:15:00 1.2 C 95 % 0.49 C
2861 23-11-2018 22:20:00 1.2 C 95 % 0.49 C
2862 23-11-2018 22:25:00 1.3 C 95 % 0.59 C
2863 23-11-2018 22:30:00 1.3 C 95 % 0.59 C
2864 23-11-2018 22:35:00 1.4 C 96 % 0.83 C
2865 23-11-2018 22:40:00 1.4 C 96 % 0.83 C
2866 23-11-2018 22:45:00 1.5 C 96 % 0.93 C
2867 23-11-2018 22:50:00 1.6 C 96 % 1.03 C
2868 23-11-2018 22:55:00 1.6 C 96 % 1.03 C
2869 23-11-2018 23:00:00 1.6 C 96 % 1.03 C
2870 23-11-2018 23:05:00 1.7 C 96 % 1.13 C
2871 23-11-2018 23:10:00 1.7 C 96 % 1.13 C
2872 23-11-2018 23:15:00 1.8 C 96 % 1.23 C
2873 23-11-2018 23:20:00 1.8 C 96 % 1.23 C
2874 23-11-2018 23:25:00 1.9 C 96 % 1.33 C
2875 23-11-2018 23:30:00 2 C 96 % 1.43 C
Sensor: Nr:Datum:Temp:Feuchte:Taupunkt:
Aussen-T/F 2876 23-11-2018 23:35:00 2.1 C 96 % 1.53 C
2877 23-11-2018 23:40:00 2.1 C 96 % 1.53 C
2878 23-11-2018 23:45:00 2.2 C 96 % 1.63 C
2879 23-11-2018 23:50:00 2.2 C 96 % 1.63 C
2880 23-11-2018 23:55:00 2.2 C 96 % 1.63 C
2881 24-11-2018 00:00:00 2.2 C 96 % 1.63 C
2882 24-11-2018 00:05:00 2.2 C 96 % 1.63 C
2883 24-11-2018 00:10:00 2.2 C 96 % 1.63 C
2884 24-11-2018 00:15:00 2.2 C 96 % 1.63 C
2885 24-11-2018 00:20:00 2.2 C 96 % 1.63 C
2886 24-11-2018 00:25:00 2.2 C 96 % 1.63 C
2887 24-11-2018 00:30:00 2.2 C 96 % 1.63 C
2888 24-11-2018 00:35:00 2.3 C 96 % 1.73 C
2889 24-11-2018 00:40:00 2.3 C 96 % 1.73 C
2890 24-11-2018 00:45:00 2.3 C 96 % 1.73 C
2891 24-11-2018 00:50:00 2.3 C 96 % 1.73 C
2892 24-11-2018 00:55:00 2.3 C 96 % 1.73 C
2893 24-11-2018 01:00:00 2.3 C 96 % 1.73 C
2894 24-11-2018 01:05:00 2.3 C 96 % 1.73 C
2895 24-11-2018 01:10:00 2.3 C 96 % 1.73 C
2896 24-11-2018 01:15:00 2.4 C 96 % 1.83 C
2897 24-11-2018 01:20:00 2.4 C 96 % 1.83 C
2898 24-11-2018 01:25:00 2.4 C 96 % 1.83 C
2899 24-11-2018 01:30:00 2.4 C 96 % 1.83 C
2900 24-11-2018 01:35:00 2.4 C 96 % 1.83 C
Sensor: Nr:Datum:Temp:Feuchte:Taupunkt:
Aussen-T/F 2901 24-11-2018 01:40:00 2.4 C 96 % 1.83 C
2902 24-11-2018 01:45:00 2.4 C 96 % 1.83 C
2903 24-11-2018 01:50:00 2.4 C 96 % 1.83 C
2904 24-11-2018 01:55:00 2.4 C 96 % 1.83 C
2905 24-11-2018 02:00:00 2.4 C 96 % 1.83 C
2906 24-11-2018 02:05:00 2.4 C 96 % 1.83 C
2907 24-11-2018 02:10:00 2.4 C 96 % 1.83 C
2908 24-11-2018 02:15:00 2.5 C 96 % 1.93 C
2909 24-11-2018 02:20:00 2.4 C 96 % 1.83 C
2910 24-11-2018 02:25:00 2.5 C 96 % 1.93 C
2911 24-11-2018 02:30:00 2.5 C 96 % 1.93 C
2912 24-11-2018 02:35:00 2.5 C 96 % 1.93 C
2913 24-11-2018 02:40:00 2.5 C 96 % 1.93 C
2914 24-11-2018 02:45:00 2.5 C 96 % 1.93 C
2915 24-11-2018 02:50:00 2.5 C 96 % 1.93 C
2916 24-11-2018 02:55:00 2.5 C 96 % 1.93 C
2917 24-11-2018 03:00:00 2.5 C 96 % 1.93 C
2918 24-11-2018 03:05:00 2.5 C 96 % 1.93 C
2919 24-11-2018 03:10:00 2.5 C 96 % 1.93 C
2920 24-11-2018 03:15:00 2.5 C 96 % 1.93 C
2921 24-11-2018 03:20:00 2.5 C 96 % 1.93 C
2922 24-11-2018 03:25:00 2.5 C 96 % 1.93 C
2923 24-11-2018 03:30:00 2.5 C 96 % 1.93 C
2924 24-11-2018 03:35:00 2.6 C 96 % 2.03 C
2925 24-11-2018 03:40:00 2.6 C 96 % 2.03 C
Sensor: Nr:Datum:Temp:Feuchte:Taupunkt:
Aussen-T/F 2926 24-11-2018 03:45:00 2.6 C 96 % 2.03 C
2927 24-11-2018 03:50:00 2.6 C 96 % 2.03 C
2928 24-11-2018 03:55:00 2.6 C 96 % 2.03 C
2929 24-11-2018 04:00:00 2.6 C 96 % 2.03 C
2930 24-11-2018 04:05:00 2.6 C 96 % 2.03 C
2931 24-11-2018 04:10:00 2.6 C 96 % 2.03 C
2932 24-11-2018 04:15:00 2.6 C 96 % 2.03 C
2933 24-11-2018 04:20:00 2.6 C 96 % 2.03 C
2934 24-11-2018 04:25:00 2.7 C 96 % 2.13 C
2935 24-11-2018 04:30:00 2.7 C 96 % 2.13 C
2936 24-11-2018 04:35:00 2.7 C 96 % 2.13 C
2937 24-11-2018 04:40:00 2.7 C 96 % 2.13 C
2938 24-11-2018 04:45:00 2.7 C 96 % 2.13 C
2939 24-11-2018 04:50:00 2.7 C 96 % 2.13 C
2940 24-11-2018 04:55:00 2.7 C 96 % 2.13 C
2941 24-11-2018 05:00:00 2.7 C 96 % 2.13 C
2942 24-11-2018 05:05:00 2.7 C 96 % 2.13 C
2943 24-11-2018 05:10:00 2.7 C 96 % 2.13 C
2944 24-11-2018 05:15:00 2.7 C 96 % 2.13 C
2945 24-11-2018 05:20:00 2.7 C 96 % 2.13 C
2946 24-11-2018 05:25:00 2.7 C 96 % 2.13 C
2947 24-11-2018 05:30:00 2.8 C 96 % 2.23 C
2948 24-11-2018 05:35:00 2.8 C 96 % 2.23 C
2949 24-11-2018 05:40:00 2.8 C 96 % 2.23 C
2950 24-11-2018 05:45:00 2.8 C 96 % 2.23 C
Sensor: Nr:Datum:Temp:Feuchte:Taupunkt:
Aussen-T/F 2951 24-11-2018 05:50:00 2.8 C 96 % 2.23 C
2952 24-11-2018 05:55:00 2.9 C 96 % 2.33 C
2953 24-11-2018 06:00:00 2.9 C 96 % 2.33 C
2954 24-11-2018 06:05:00 2.9 C 96 % 2.33 C
2955 24-11-2018 06:10:00 2.9 C 96 % 2.33 C
2956 24-11-2018 06:15:00 2.9 C 96 % 2.33 C
2957 24-11-2018 06:20:00 2.9 C 96 % 2.33 C
2958 24-11-2018 06:25:00 3 C 96 % 2.43 C
2959 24-11-2018 06:30:00 3 C 96 % 2.43 C
2960 24-11-2018 06:35:00 3 C 96 % 2.43 C
2961 24-11-2018 06:40:00 3.1 C 96 % 2.53 C
2962 24-11-2018 06:45:00 3.1 C 96 % 2.53 C
2963 24-11-2018 06:50:00 3.1 C 96 % 2.53 C
2964 24-11-2018 06:55:00 3.1 C 96 % 2.53 C
2965 24-11-2018 07:00:00 3.1 C 96 % 2.53 C
2966 24-11-2018 07:05:00 3.1 C 96 % 2.53 C
2967 24-11-2018 07:10:00 3.1 C 96 % 2.53 C
2968 24-11-2018 07:15:00 3.1 C 96 % 2.53 C
2969 24-11-2018 07:20:00 3.1 C 96 % 2.53 C
2970 24-11-2018 07:25:00 3.1 C 96 % 2.53 C
2971 24-11-2018 07:30:00 3.1 C 96 % 2.53 C
2972 24-11-2018 07:35:00 3.1 C 96 % 2.53 C
2973 24-11-2018 07:40:00 3.1 C 96 % 2.53 C
2974 24-11-2018 07:45:00 3.1 C 96 % 2.53 C
2975 24-11-2018 07:50:00 3.1 C 96 % 2.53 C
Sensor: Nr:Datum:Temp:Feuchte:Taupunkt:
Aussen-T/F 2976 24-11-2018 07:55:00 3.1 C 96 % 2.53 C
2977 24-11-2018 08:00:00 3.1 C 96 % 2.53 C
2978 24-11-2018 08:05:00 3.1 C 96 % 2.53 C
2979 24-11-2018 08:10:00 3.1 C 96 % 2.53 C
2980 24-11-2018 08:15:00 3.1 C 96 % 2.53 C
2981 24-11-2018 08:20:00 3.1 C 96 % 2.53 C
2982 24-11-2018 08:25:00 3.1 C 96 % 2.53 C
2983 24-11-2018 08:30:00 3.1 C 96 % 2.53 C
2984 24-11-2018 08:35:00 3.1 C 96 % 2.53 C
2985 24-11-2018 08:40:00 3.1 C 96 % 2.53 C
2986 24-11-2018 08:45:00 3.2 C 96 % 2.63 C
2987 24-11-2018 08:50:00 3.2 C 96 % 2.63 C
2988 24-11-2018 08:55:00 3.2 C 96 % 2.63 C
2989 24-11-2018 09:00:00 3.3 C 96 % 2.72 C
2990 24-11-2018 09:05:00 3.3 C 96 % 2.72 C
2991 24-11-2018 09:10:00 3.4 C 96 % 2.82 C
2992 24-11-2018 09:15:00 3.4 C 96 % 2.82 C
2993 24-11-2018 09:20:00 3.4 C 96 % 2.82 C
2994 24-11-2018 09:25:00 3.5 C 96 % 2.92 C
2995 24-11-2018 09:30:00 3.6 C 96 % 3.02 C
2996 24-11-2018 09:35:00 3.6 C 96 % 3.02 C
2997 24-11-2018 09:40:00 3.6 C 96 % 3.02 C
2998 24-11-2018 09:45:00 3.7 C 96 % 3.12 C
2999 24-11-2018 09:50:00 3.7 C 96 % 3.12 C
3000 24-11-2018 09:55:00 3.7 C 96 % 3.12 C
Sensor: Nr:Datum:Temp:Feuchte:Taupunkt:
Aussen-T/F 3001 24-11-2018 10:00:00 3.8 C 96 % 3.22 C
3002 24-11-2018 10:05:00 3.8 C 97 % 3.37 C
3003 24-11-2018 10:10:00 4 C 96 % 3.42 C
3004 24-11-2018 10:15:00 4.1 C 97 % 3.67 C
3005 24-11-2018 10:20:00 4.1 C 97 % 3.67 C
3006 24-11-2018 10:25:00 4.2 C 97 % 3.77 C
3007 24-11-2018 10:30:00 4.3 C 97 % 3.87 C
3008 24-11-2018 10:35:00 4.3 C 97 % 3.87 C
3009 24-11-2018 10:40:00 4.4 C 97 % 3.97 C
3010 24-11-2018 10:45:00 4.4 C 97 % 3.97 C
3011 24-11-2018 10:50:00 4.5 C 97 % 4.07 C
3012 24-11-2018 10:55:00 4.6 C 97 % 4.17 C
3013 24-11-2018 11:00:00 4.7 C 97 % 4.27 C
3014 24-11-2018 11:05:00 4.7 C 97 % 4.27 C
3015 24-11-2018 11:10:00 4.7 C 97 % 4.27 C
3016 24-11-2018 11:15:00 4.8 C 97 % 4.37 C
3017 24-11-2018 11:20:00 4.9 C 97 % 4.46 C
3018 24-11-2018 11:25:00 5 C 97 % 4.56 C
3019 24-11-2018 11:30:00 5.1 C 97 % 4.66 C
3020 24-11-2018 11:35:00 5.1 C 97 % 4.66 C
3021 24-11-2018 11:40:00 5.2 C 97 % 4.76 C
3022 24-11-2018 11:45:00 5.3 C 97 % 4.86 C
3023 24-11-2018 11:50:00 5.3 C 97 % 4.86 C
3024 24-11-2018 11:55:00 5.3 C 97 % 4.86 C
3025 24-11-2018 12:00:00 5.4 C 97 % 4.96 C
Sensor: Nr:Datum:Temp:Feuchte:Taupunkt:
Aussen-T/F 3026 24-11-2018 12:05:00 5.4 C 97 % 4.96 C
3027 24-11-2018 12:10:00 5.6 C 97 % 5.16 C
3028 24-11-2018 12:15:00 5.7 C 97 % 5.26 C
3029 24-11-2018 12:20:00 5.7 C 97 % 5.26 C
3030 24-11-2018 12:25:00 5.8 C 97 % 5.36 C
3031 24-11-2018 12:30:00 5.9 C 97 % 5.46 C
3032 24-11-2018 12:35:00 5.9 C 97 % 5.46 C
3033 24-11-2018 12:40:00 6 C 97 % 5.56 C
3034 24-11-2018 12:45:00 6 C 97 % 5.56 C
3035 24-11-2018 12:50:00 6 C 97 % 5.56 C
3036 24-11-2018 12:55:00 6 C 97 % 5.56 C
3037 24-11-2018 13:00:00 6 C 97 % 5.56 C
3038 24-11-2018 13:05:00 6.1 C 97 % 5.66 C
3039 24-11-2018 13:10:00 6.1 C 97 % 5.66 C
3040 24-11-2018 13:15:00 6.1 C 97 % 5.66 C
3041 24-11-2018 13:20:00 6.2 C 97 % 5.76 C
3042 24-11-2018 13:25:00 6.3 C 97 % 5.86 C
3043 24-11-2018 13:30:00 6.4 C 97 % 5.96 C
3044 24-11-2018 13:35:00 6.6 C 97 % 6.16 C
3045 24-11-2018 13:40:00 6.6 C 97 % 6.16 C
3046 24-11-2018 13:45:00 6.7 C 97 % 6.26 C
3047 24-11-2018 13:50:00 6.7 C 97 % 6.26 C
3048 24-11-2018 13:55:00 6.8 C 97 % 6.36 C
3049 24-11-2018 14:00:00 6.8 C 96 % 6.21 C
3050 24-11-2018 14:05:00 6.8 C 96 % 6.21 C
Sensor: Nr:Datum:Temp:Feuchte:Taupunkt:
Aussen-T/F 3051 24-11-2018 14:10:00 6.9 C 96 % 6.31 C
3052 24-11-2018 14:15:00 6.9 C 97 % 6.46 C
3053 24-11-2018 14:20:00 7 C 97 % 6.56 C
3054 24-11-2018 14:25:00 7.1 C 97 % 6.66 C
3055 24-11-2018 14:30:00 7.1 C 97 % 6.66 C
3056 24-11-2018 14:35:00 7.1 C 97 % 6.66 C
3057 24-11-2018 14:40:00 7.2 C 96 % 6.61 C
3058 24-11-2018 14:45:00 7.2 C 96 % 6.61 C
3059 24-11-2018 14:50:00 7.2 C 96 % 6.61 C
3060 24-11-2018 14:55:00 7.3 C 96 % 6.71 C
3061 24-11-2018 15:00:00 7.3 C 96 % 6.71 C
3062 24-11-2018 15:05:00 7.3 C 97 % 6.86 C
3063 24-11-2018 15:10:00 7.3 C 97 % 6.86 C
3064 24-11-2018 15:15:00 7.4 C 97 % 6.96 C
3065 24-11-2018 15:20:00 7.4 C 97 % 6.96 C
3066 24-11-2018 15:25:00 7.4 C 97 % 6.96 C
3067 24-11-2018 15:30:00 7.4 C 97 % 6.96 C
3068 24-11-2018 15:35:00 7.4 C 97 % 6.96 C
3069 24-11-2018 15:40:00 7.5 C 97 % 7.06 C
3070 24-11-2018 15:45:00 7.4 C 97 % 6.96 C
3071 24-11-2018 15:50:00 7.4 C 96 % 6.8 C
3072 24-11-2018 15:55:00 7.4 C 96 % 6.8 C
3073 24-11-2018 16:00:00 7.4 C 96 % 6.8 C
3074 24-11-2018 16:05:00 7.4 C 96 % 6.8 C
3075 24-11-2018 16:10:00 7.3 C 96 % 6.71 C
Sensor: Nr:Datum:Temp:Feuchte:Taupunkt:
Aussen-T/F 3076 24-11-2018 16:15:00 7.3 C 96 % 6.71 C
3077 24-11-2018 16:20:00 7.3 C 96 % 6.71 C
3078 24-11-2018 16:25:00 7.2 C 96 % 6.61 C
3079 24-11-2018 16:30:00 7.2 C 96 % 6.61 C
3080 24-11-2018 16:35:00 7.2 C 96 % 6.61 C
3081 24-11-2018 16:40:00 7.2 C 96 % 6.61 C
3082 24-11-2018 16:45:00 7.3 C 96 % 6.71 C
3083 24-11-2018 16:50:00 7.2 C 96 % 6.61 C
3084 24-11-2018 16:55:00 7.2 C 96 % 6.61 C
3085 24-11-2018 17:00:00 7.2 C 96 % 6.61 C
3086 24-11-2018 17:05:00 7.2 C 96 % 6.61 C
3087 24-11-2018 17:10:00 7.2 C 96 % 6.61 C
3088 24-11-2018 17:15:00 7.2 C 96 % 6.61 C
3089 24-11-2018 17:20:00 7.2 C 96 % 6.61 C
3090 24-11-2018 17:25:00 7.2 C 96 % 6.61 C
3091 24-11-2018 17:30:00 7.2 C 96 % 6.61 C
3092 24-11-2018 17:35:00 7.2 C 96 % 6.61 C
3093 24-11-2018 17:40:00 7.2 C 96 % 6.61 C
3094 24-11-2018 17:45:00 7.2 C 96 % 6.61 C
3095 24-11-2018 17:50:00 7.2 C 96 % 6.61 C
3096 24-11-2018 17:55:00 7.2 C 96 % 6.61 C
3097 24-11-2018 18:00:00 7.2 C 96 % 6.61 C
3098 24-11-2018 18:05:00 7.2 C 96 % 6.61 C
3099 24-11-2018 18:10:00 7.1 C 96 % 6.51 C
3100 24-11-2018 18:15:00 7.2 C 96 % 6.61 C
Sensor: Nr:Datum:Temp:Feuchte:Taupunkt:
Aussen-T/F 3101 24-11-2018 18:20:00 7.2 C 96 % 6.61 C
3102 24-11-2018 18:25:00 7.1 C 96 % 6.51 C
3103 24-11-2018 18:30:00 7.1 C 96 % 6.51 C
3104 24-11-2018 18:35:00 6.9 C 96 % 6.31 C
3105 24-11-2018 18:40:00 6.8 C 96 % 6.21 C
3106 24-11-2018 18:45:00 6.7 C 96 % 6.11 C
3107 24-11-2018 18:50:00 6.5 C 96 % 5.91 C
3108 24-11-2018 18:55:00 6.4 C 95 % 5.66 C
3109 24-11-2018 19:00:00 6.2 C 96 % 5.61 C
3110 24-11-2018 19:05:00 6.1 C 95 % 5.36 C
3111 24-11-2018 19:10:00 5.9 C 95 % 5.16 C
3112 24-11-2018 19:15:00 5.8 C 96 % 5.21 C
3113 24-11-2018 19:20:00 5.8 C 96 % 5.21 C
3114 24-11-2018 19:25:00 5.9 C 96 % 5.31 C
3115 24-11-2018 19:30:00 5.9 C 96 % 5.31 C
3116 24-11-2018 19:35:00 5.9 C 96 % 5.31 C
3117 24-11-2018 19:40:00 5.8 C 96 % 5.21 C
3118 24-11-2018 19:45:00 5.8 C 96 % 5.21 C
3119 24-11-2018 19:50:00 5.9 C 96 % 5.31 C
3120 24-11-2018 19:55:00 5.9 C 96 % 5.31 C
3121 24-11-2018 20:00:00 6 C 96 % 5.41 C
3122 24-11-2018 20:05:00 6.1 C 97 % 5.66 C
3123 24-11-2018 20:10:00 6.1 C 97 % 5.66 C
3124 24-11-2018 20:15:00 6.1 C 97 % 5.66 C
3125 24-11-2018 20:20:00 6.2 C 96 % 5.61 C
Sensor: Nr:Datum:Temp:Feuchte:Taupunkt:
Aussen-T/F 3126 24-11-2018 20:25:00 6.2 C 96 % 5.61 C
3127 24-11-2018 20:30:00 6.2 C 97 % 5.76 C
3128 24-11-2018 20:35:00 6.1 C 96 % 5.51 C
3129 24-11-2018 20:40:00 6.1 C 96 % 5.51 C
3130 24-11-2018 20:45:00 6.1 C 96 % 5.51 C
3131 24-11-2018 20:50:00 6.1 C 96 % 5.51 C
3132 24-11-2018 20:55:00 6 C 96 % 5.41 C
3133 24-11-2018 21:00:00 6.1 C 97 % 5.66 C
3134 24-11-2018 21:05:00 6.1 C 97 % 5.66 C
3135 24-11-2018 21:10:00 6.1 C 97 % 5.66 C
3136 24-11-2018 21:15:00 6.1 C 97 % 5.66 C
3137 24-11-2018 21:20:00 6.1 C 97 % 5.66 C
3138 24-11-2018 21:25:00 6.1 C 97 % 5.66 C
3139 24-11-2018 21:30:00 6.2 C 97 % 5.76 C
3140 24-11-2018 21:35:00 6.2 C 97 % 5.76 C
3141 24-11-2018 21:40:00 6.1 C 97 % 5.66 C
3142 24-11-2018 21:45:00 6 C 96 % 5.41 C
3143 24-11-2018 21:50:00 5.8 C 96 % 5.21 C
3144 24-11-2018 21:55:00 5.7 C 96 % 5.11 C
3145 24-11-2018 22:00:00 5.7 C 96 % 5.11 C
3146 24-11-2018 22:05:00 5.6 C 96 % 5.01 C
3147 24-11-2018 22:10:00 5.5 C 96 % 4.91 C
3148 24-11-2018 22:15:00 5.5 C 96 % 4.91 C
3149 24-11-2018 22:20:00 5.5 C 96 % 4.91 C
3150 24-11-2018 22:25:00 5.6 C 96 % 5.01 C
Sensor: Nr:Datum:Temp:Feuchte:Taupunkt:
Aussen-T/F 3151 24-11-2018 22:30:00 5.6 C 96 % 5.01 C
3152 24-11-2018 22:35:00 5.4 C 96 % 4.81 C
3153 24-11-2018 22:40:00 5.3 C 96 % 4.72 C
3154 24-11-2018 22:45:00 5.2 C 96 % 4.62 C
3155 24-11-2018 22:50:00 5.2 C 96 % 4.62 C
3156 24-11-2018 22:55:00 5.3 C 96 % 4.72 C
3157 24-11-2018 23:00:00 5.3 C 96 % 4.72 C
3158 24-11-2018 23:05:00 5.2 C 96 % 4.62 C
3159 24-11-2018 23:10:00 5.2 C 96 % 4.62 C
3160 24-11-2018 23:15:00 5.2 C 96 % 4.62 C
3161 24-11-2018 23:20:00 5.2 C 96 % 4.62 C
3162 24-11-2018 23:25:00 5.3 C 97 % 4.86 C
3163 24-11-2018 23:30:00 5.4 C 97 % 4.96 C
3164 24-11-2018 23:35:00 5.6 C 97 % 5.16 C
3165 24-11-2018 23:40:00 5.6 C 97 % 5.16 C
3166 24-11-2018 23:45:00 5.7 C 97 % 5.26 C
3167 24-11-2018 23:50:00 5.7 C 97 % 5.26 C
3168 24-11-2018 23:55:00 5.7 C 97 % 5.26 C
3169 25-11-2018 00:00:00 5.8 C 97 % 5.36 C
3170 25-11-2018 00:05:00 5.8 C 97 % 5.36 C
3171 25-11-2018 00:10:00 5.8 C 97 % 5.36 C
3172 25-11-2018 00:15:00 5.8 C 97 % 5.36 C
3173 25-11-2018 00:20:00 5.8 C 97 % 5.36 C
3174 25-11-2018 00:25:00 5.8 C 97 % 5.36 C
3175 25-11-2018 00:30:00 5.8 C 97 % 5.36 C
Sensor: Nr:Datum:Temp:Feuchte:Taupunkt:
Aussen-T/F 3176 25-11-2018 00:35:00 5.8 C 97 % 5.36 C
3177 25-11-2018 00:40:00 5.8 C 97 % 5.36 C
3178 25-11-2018 00:45:00 5.8 C 97 % 5.36 C
3179 25-11-2018 00:50:00 5.9 C 97 % 5.46 C
3180 25-11-2018 00:55:00 5.9 C 97 % 5.46 C
3181 25-11-2018 01:00:00 5.8 C 97 % 5.36 C
3182 25-11-2018 01:05:00 5.8 C 97 % 5.36 C
3183 25-11-2018 01:10:00 5.8 C 97 % 5.36 C
3184 25-11-2018 01:15:00 5.7 C 97 % 5.26 C
3185 25-11-2018 01:20:00 5.7 C 97 % 5.26 C
3186 25-11-2018 01:25:00 5.7 C 97 % 5.26 C
3187 25-11-2018 01:30:00 5.7 C 97 % 5.26 C
3188 25-11-2018 01:35:00 5.7 C 97 % 5.26 C
3189 25-11-2018 01:40:00 5.7 C 97 % 5.26 C
3190 25-11-2018 01:45:00 5.8 C 97 % 5.36 C
3191 25-11-2018 01:50:00 5.8 C 97 % 5.36 C
3192 25-11-2018 01:55:00 5.9 C 97 % 5.46 C
3193 25-11-2018 02:00:00 6 C 97 % 5.56 C
3194 25-11-2018 02:05:00 6 C 97 % 5.56 C
3195 25-11-2018 02:10:00 6 C 97 % 5.56 C
3196 25-11-2018 02:15:00 5.9 C 97 % 5.46 C
3197 25-11-2018 02:20:00 5.9 C 97 % 5.46 C
3198 25-11-2018 02:25:00 5.8 C 97 % 5.36 C
3199 25-11-2018 02:30:00 5.8 C 97 % 5.36 C
3200 25-11-2018 02:35:00 5.7 C 97 % 5.26 C
Sensor: Nr:Datum:Temp:Feuchte:Taupunkt:
Aussen-T/F 3201 25-11-2018 02:40:00 5.7 C 97 % 5.26 C
3202 25-11-2018 02:45:00 5.6 C 97 % 5.16 C
3203 25-11-2018 02:50:00 5.6 C 97 % 5.16 C
3204 25-11-2018 02:55:00 5.6 C 97 % 5.16 C
3205 25-11-2018 03:00:00 5.6 C 97 % 5.16 C
3206 25-11-2018 03:05:00 5.7 C 97 % 5.26 C
3207 25-11-2018 03:10:00 5.7 C 97 % 5.26 C
3208 25-11-2018 03:15:00 5.7 C 97 % 5.26 C
3209 25-11-2018 03:20:00 5.8 C 97 % 5.36 C
3210 25-11-2018 03:25:00 5.8 C 97 % 5.36 C
3211 25-11-2018 03:30:00 5.8 C 97 % 5.36 C
3212 25-11-2018 03:35:00 5.8 C 97 % 5.36 C
3213 25-11-2018 03:40:00 5.8 C 97 % 5.36 C
3214 25-11-2018 03:45:00 5.8 C 97 % 5.36 C
3215 25-11-2018 03:50:00 5.8 C 97 % 5.36 C
3216 25-11-2018 03:55:00 5.8 C 97 % 5.36 C
3217 25-11-2018 04:00:00 5.8 C 97 % 5.36 C
3218 25-11-2018 04:05:00 5.8 C 97 % 5.36 C
3219 25-11-2018 04:10:00 5.6 C 97 % 5.16 C
3220 25-11-2018 04:15:00 5.5 C 97 % 5.06 C
3221 25-11-2018 04:20:00 5.3 C 97 % 4.86 C
3222 25-11-2018 04:25:00 5.2 C 96 % 4.62 C
3223 25-11-2018 04:30:00 5.1 C 97 % 4.66 C
3224 25-11-2018 04:35:00 5.1 C 97 % 4.66 C
3225 25-11-2018 04:40:00 5.1 C 97 % 4.66 C
Sensor: Nr:Datum:Temp:Feuchte:Taupunkt:
Aussen-T/F 3226 25-11-2018 04:45:00 5 C 97 % 4.56 C
3227 25-11-2018 04:50:00 4.9 C 97 % 4.46 C
3228 25-11-2018 04:55:00 4.8 C 97 % 4.37 C
3229 25-11-2018 05:00:00 4.7 C 97 % 4.27 C
3230 25-11-2018 05:05:00 4.6 C 96 % 4.02 C
3231 25-11-2018 05:10:00 4.5 C 97 % 4.07 C
3232 25-11-2018 05:15:00 4.6 C 97 % 4.17 C
3233 25-11-2018 05:20:00 4.7 C 97 % 4.27 C
3234 25-11-2018 05:25:00 4.6 C 97 % 4.17 C
3235 25-11-2018 05:30:00 4.5 C 97 % 4.07 C
3236 25-11-2018 05:35:00 4.4 C 97 % 3.97 C
3237 25-11-2018 05:40:00 4.3 C 96 % 3.72 C
3238 25-11-2018 05:45:00 4.2 C 97 % 3.77 C
3239 25-11-2018 05:50:00 4.3 C 97 % 3.87 C
3240 25-11-2018 05:55:00 4.4 C 97 % 3.97 C
3241 25-11-2018 06:00:00 4.6 C 97 % 4.17 C
3242 25-11-2018 06:05:00 4.6 C 97 % 4.17 C
3243 25-11-2018 06:10:00 4.7 C 97 % 4.27 C
3244 25-11-2018 06:15:00 4.7 C 97 % 4.27 C
3245 25-11-2018 06:20:00 4.7 C 97 % 4.27 C
3246 25-11-2018 06:25:00 4.7 C 97 % 4.27 C
3247 25-11-2018 06:30:00 4.7 C 97 % 4.27 C
3248 25-11-2018 06:35:00 4.7 C 97 % 4.27 C
3249 25-11-2018 06:40:00 4.7 C 97 % 4.27 C
3250 25-11-2018 06:45:00 4.7 C 97 % 4.27 C
Sensor: Nr:Datum:Temp:Feuchte:Taupunkt:
Aussen-T/F 3251 25-11-2018 06:50:00 4.5 C 97 % 4.07 C
3252 25-11-2018 06:55:00 4.3 C 97 % 3.87 C
3253 25-11-2018 07:00:00 4.2 C 97 % 3.77 C
3254 25-11-2018 07:05:00 3.9 C 96 % 3.32 C
3255 25-11-2018 07:10:00 3.8 C 96 % 3.22 C
3256 25-11-2018 07:15:00 3.7 C 96 % 3.12 C
3257 25-11-2018 07:20:00 3.4 C 96 % 2.82 C
3258 25-11-2018 07:25:00 3.3 C 96 % 2.72 C
3259 25-11-2018 07:30:00 3.3 C 96 % 2.72 C
3260 25-11-2018 07:35:00 3.3 C 96 % 2.72 C
3261 25-11-2018 07:40:00 3.3 C 97 % 2.87 C
3262 25-11-2018 07:45:00 3.2 C 97 % 2.77 C
3263 25-11-2018 07:50:00 3.2 C 97 % 2.77 C
3264 25-11-2018 07:55:00 3.2 C 97 % 2.77 C
3265 25-11-2018 08:00:00 3.2 C 97 % 2.77 C
3266 25-11-2018 08:05:00 3.3 C 97 % 2.87 C
3267 25-11-2018 08:10:00 3.3 C 97 % 2.87 C
3268 25-11-2018 08:15:00 3.4 C 97 % 2.97 C
3269 25-11-2018 08:20:00 3.4 C 97 % 2.97 C
3270 25-11-2018 08:25:00 3.4 C 97 % 2.97 C
3271 25-11-2018 08:30:00 3.6 C 97 % 3.17 C
3272 25-11-2018 08:35:00 3.7 C 97 % 3.27 C
3273 25-11-2018 08:40:00 3.9 C 97 % 3.47 C
3274 25-11-2018 08:45:00 4 C 97 % 3.57 C
3275 25-11-2018 08:50:00 4 C 97 % 3.57 C
Sensor: Nr:Datum:Temp:Feuchte:Taupunkt:
Aussen-T/F 3276 25-11-2018 08:55:00 4.1 C 97 % 3.67 C
3277 25-11-2018 09:00:00 4.1 C 97 % 3.67 C
3278 25-11-2018 09:05:00 4.1 C 97 % 3.67 C
3279 25-11-2018 09:10:00 4.2 C 97 % 3.77 C
3280 25-11-2018 09:15:00 4.3 C 97 % 3.87 C
3281 25-11-2018 09:20:00 4.3 C 97 % 3.87 C
3282 25-11-2018 09:25:00 4.4 C 97 % 3.97 C
3283 25-11-2018 09:30:00 4.5 C 97 % 4.07 C
3284 25-11-2018 09:35:00 4.6 C 97 % 4.17 C
3285 25-11-2018 09:40:00 4.7 C 97 % 4.27 C
3286 25-11-2018 09:45:00 4.8 C 97 % 4.37 C
3287 25-11-2018 09:50:00 4.8 C 97 % 4.37 C
3288 25-11-2018 09:55:00 4.9 C 97 % 4.46 C
3289 25-11-2018 10:00:00 4.9 C 98 % 4.61 C
3290 25-11-2018 10:05:00 4.9 C 97 % 4.46 C
3291 25-11-2018 10:10:00 4.9 C 97 % 4.46 C
3292 25-11-2018 10:15:00 4.9 C 97 % 4.46 C
3293 25-11-2018 10:20:00 5 C 97 % 4.56 C
3294 25-11-2018 10:25:00 5.1 C 97 % 4.66 C
3295 25-11-2018 10:30:00 5.2 C 97 % 4.76 C
3296 25-11-2018 10:35:00 5.3 C 98 % 5.01 C
3297 25-11-2018 10:40:00 5.4 C 97 % 4.96 C
3298 25-11-2018 10:45:00 5.5 C 97 % 5.06 C
3299 25-11-2018 10:50:00 5.6 C 97 % 5.16 C
3300 25-11-2018 10:55:00 5.7 C 98 % 5.41 C
Sensor: Nr:Datum:Temp:Feuchte:Taupunkt:
Aussen-T/F 3301 25-11-2018 11:00:00 5.8 C 98 % 5.51 C
3302 25-11-2018 11:05:00 5.9 C 97 % 5.46 C
3303 25-11-2018 11:10:00 6 C 98 % 5.71 C
3304 25-11-2018 11:15:00 6.1 C 98 % 5.81 C
3305 25-11-2018 11:20:00 6.2 C 97 % 5.76 C
3306 25-11-2018 11:25:00 6.3 C 98 % 6.01 C
3307 25-11-2018 11:30:00 6.3 C 98 % 6.01 C
3308 25-11-2018 11:35:00 6.3 C 98 % 6.01 C
3309 25-11-2018 11:40:00 6.4 C 97 % 5.96 C
3310 25-11-2018 11:45:00 6.4 C 97 % 5.96 C
3311 25-11-2018 11:50:00 6.4 C 97 % 5.96 C
3312 25-11-2018 11:55:00 6.4 C 97 % 5.96 C
3313 25-11-2018 12:00:00 6.4 C 97 % 5.96 C
3314 25-11-2018 12:05:00 6.4 C 97 % 5.96 C
3315 25-11-2018 12:10:00 6.4 C 97 % 5.96 C
3316 25-11-2018 12:15:00 6.4 C 97 % 5.96 C
3317 25-11-2018 12:20:00 6.4 C 97 % 5.96 C
3318 25-11-2018 12:25:00 6.5 C 97 % 6.06 C
3319 25-11-2018 12:30:00 6.5 C 97 % 6.06 C
3320 25-11-2018 12:35:00 6.5 C 97 % 6.06 C
3321 25-11-2018 12:40:00 6.5 C 97 % 6.06 C
3322 25-11-2018 12:45:00 6.6 C 97 % 6.16 C
3323 25-11-2018 12:50:00 6.6 C 97 % 6.16 C
3324 25-11-2018 12:55:00 6.7 C 97 % 6.26 C
3325 25-11-2018 13:00:00 6.8 C 97 % 6.36 C
Sensor: Nr:Datum:Temp:Feuchte:Taupunkt:
Aussen-T/F 3326 25-11-2018 13:05:00 6.8 C 97 % 6.36 C
3327 25-11-2018 13:10:00 6.9 C 97 % 6.46 C
3328 25-11-2018 13:15:00 7 C 96 % 6.41 C
3329 25-11-2018 13:20:00 7.1 C 97 % 6.66 C
3330 25-11-2018 13:25:00 7.1 C 97 % 6.66 C
3331 25-11-2018 13:30:00 7.2 C 96 % 6.61 C
3332 25-11-2018 13:35:00 7.3 C 96 % 6.71 C
3333 25-11-2018 13:40:00 7.3 C 96 % 6.71 C
3334 25-11-2018 13:45:00 7.4 C 96 % 6.8 C
3335 25-11-2018 13:50:00 7.4 C 96 % 6.8 C
3336 25-11-2018 13:55:00 7.4 C 95 % 6.65 C
3337 25-11-2018 14:00:00 7.5 C 95 % 6.75 C
3338 25-11-2018 14:05:00 7.6 C 95 % 6.85 C
3339 25-11-2018 14:10:00 7.6 C 94 % 6.7 C
3340 25-11-2018 14:15:00 7.6 C 94 % 6.7 C
3341 25-11-2018 14:20:00 7.7 C 94 % 6.8 C
3342 25-11-2018 14:25:00 7.7 C 94 % 6.8 C
3343 25-11-2018 14:30:00 7.7 C 93 % 6.64 C
3344 25-11-2018 14:35:00 7.8 C 93 % 6.74 C
3345 25-11-2018 14:40:00 7.8 C 93 % 6.74 C
3346 25-11-2018 14:45:00 7.8 C 92 % 6.58 C
3347 25-11-2018 14:50:00 7.8 C 92 % 6.58 C
3348 25-11-2018 14:55:00 7.9 C 92 % 6.68 C
3349 25-11-2018 15:00:00 7.9 C 92 % 6.68 C
3350 25-11-2018 15:05:00 7.9 C 92 % 6.68 C
Sensor: Nr:Datum:Temp:Feuchte:Taupunkt:
Aussen-T/F 3351 25-11-2018 15:10:00 7.9 C 92 % 6.68 C
3352 25-11-2018 15:15:00 7.9 C 92 % 6.68 C
3353 25-11-2018 15:20:00 7.9 C 92 % 6.68 C
3354 25-11-2018 15:25:00 7.9 C 92 % 6.68 C
3355 25-11-2018 15:30:00 7.9 C 92 % 6.68 C
3356 25-11-2018 15:35:00 7.9 C 92 % 6.68 C
3357 25-11-2018 15:40:00 7.9 C 93 % 6.84 C
3358 25-11-2018 15:45:00 7.8 C 93 % 6.74 C
3359 25-11-2018 15:50:00 7.8 C 93 % 6.74 C
3360 25-11-2018 15:55:00 7.8 C 93 % 6.74 C
3361 25-11-2018 16:00:00 7.8 C 93 % 6.74 C
3362 25-11-2018 16:05:00 7.8 C 93 % 6.74 C
3363 25-11-2018 16:10:00 7.8 C 93 % 6.74 C
3364 25-11-2018 16:15:00 7.7 C 93 % 6.64 C
3365 25-11-2018 16:20:00 7.7 C 93 % 6.64 C
3366 25-11-2018 16:25:00 7.7 C 93 % 6.64 C
3367 25-11-2018 16:30:00 7.6 C 93 % 6.54 C
3368 25-11-2018 16:35:00 7.6 C 93 % 6.54 C
3369 25-11-2018 16:40:00 7.6 C 93 % 6.54 C
3370 25-11-2018 16:45:00 7.5 C 93 % 6.44 C
3371 25-11-2018 16:50:00 7.4 C 94 % 6.5 C
3372 25-11-2018 16:55:00 7.4 C 94 % 6.5 C
3373 25-11-2018 17:00:00 7.4 C 94 % 6.5 C
3374 25-11-2018 17:05:00 7.4 C 94 % 6.5 C
3375 25-11-2018 17:10:00 7.4 C 94 % 6.5 C
Sensor: Nr:Datum:Temp:Feuchte:Taupunkt:
Aussen-T/F 3376 25-11-2018 17:15:00 7.3 C 94 % 6.4 C
3377 25-11-2018 17:20:00 7.3 C 94 % 6.4 C
3378 25-11-2018 17:25:00 7.3 C 94 % 6.4 C
3379 25-11-2018 17:30:00 7.3 C 94 % 6.4 C
3380 25-11-2018 17:35:00 7.2 C 94 % 6.3 C
3381 25-11-2018 17:40:00 7.2 C 94 % 6.3 C
3382 25-11-2018 17:45:00 7.2 C 94 % 6.3 C
3383 25-11-2018 17:50:00 7.2 C 94 % 6.3 C
3384 25-11-2018 17:55:00 7.2 C 94 % 6.3 C
3385 25-11-2018 18:00:00 7.2 C 94 % 6.3 C
3386 25-11-2018 18:05:00 7.1 C 94 % 6.2 C
3387 25-11-2018 18:10:00 7 C 94 % 6.1 C
3388 25-11-2018 18:15:00 6.9 C 94 % 6 C
3389 25-11-2018 18:20:00 6.8 C 94 % 5.9 C
3390 25-11-2018 18:25:00 6.8 C 94 % 5.9 C
3391 25-11-2018 18:30:00 6.8 C 94 % 5.9 C
3392 25-11-2018 18:35:00 6.8 C 94 % 5.9 C
3393 25-11-2018 18:40:00 6.8 C 94 % 5.9 C
3394 25-11-2018 18:45:00 6.8 C 94 % 5.9 C
3395 25-11-2018 18:50:00 6.7 C 94 % 5.8 C
3396 25-11-2018 18:55:00 6.7 C 94 % 5.8 C
3397 25-11-2018 19:00:00 6.7 C 94 % 5.8 C
3398 25-11-2018 19:05:00 6.7 C 95 % 5.96 C
3399 25-11-2018 19:10:00 6.7 C 95 % 5.96 C
3400 25-11-2018 19:15:00 6.7 C 95 % 5.96 C
Sensor: Nr:Datum:Temp:Feuchte:Taupunkt:
Aussen-T/F 3401 25-11-2018 19:20:00 6.7 C 95 % 5.96 C
3402 25-11-2018 19:25:00 6.7 C 95 % 5.96 C
3403 25-11-2018 19:30:00 6.7 C 95 % 5.96 C
3404 25-11-2018 19:35:00 6.7 C 95 % 5.96 C
3405 25-11-2018 19:40:00 6.7 C 95 % 5.96 C
3406 25-11-2018 19:45:00 6.7 C 95 % 5.96 C
3407 25-11-2018 19:50:00 6.7 C 95 % 5.96 C
3408 25-11-2018 19:55:00 6.7 C 95 % 5.96 C
3409 25-11-2018 20:00:00 6.6 C 95 % 5.86 C
3410 25-11-2018 20:05:00 6.6 C 95 % 5.86 C
3411 25-11-2018 20:10:00 6.6 C 95 % 5.86 C
3412 25-11-2018 20:15:00 6.6 C 95 % 5.86 C
3413 25-11-2018 20:20:00 6.5 C 95 % 5.76 C
3414 25-11-2018 20:25:00 6.5 C 95 % 5.76 C
3415 25-11-2018 20:30:00 6.5 C 95 % 5.76 C
3416 25-11-2018 20:35:00 6.5 C 95 % 5.76 C
3417 25-11-2018 20:40:00 6.5 C 95 % 5.76 C
3418 25-11-2018 20:45:00 6.5 C 95 % 5.76 C
3419 25-11-2018 20:50:00 6.5 C 95 % 5.76 C
3420 25-11-2018 20:55:00 6.5 C 95 % 5.76 C
3421 25-11-2018 21:00:00 6.4 C 95 % 5.66 C
3422 25-11-2018 21:05:00 6.4 C 95 % 5.66 C
3423 25-11-2018 21:10:00 6.4 C 95 % 5.66 C
3424 25-11-2018 21:15:00 6.4 C 95 % 5.66 C
3425 25-11-2018 21:20:00 6.4 C 95 % 5.66 C
Sensor: Nr:Datum:Temp:Feuchte:Taupunkt:
Aussen-T/F 3426 25-11-2018 21:25:00 6.4 C 95 % 5.66 C
3427 25-11-2018 21:30:00 6.4 C 95 % 5.66 C
3428 25-11-2018 21:35:00 6.4 C 95 % 5.66 C
3429 25-11-2018 21:40:00 6.4 C 95 % 5.66 C
3430 25-11-2018 21:45:00 6.4 C 96 % 5.81 C
3431 25-11-2018 21:50:00 6.5 C 96 % 5.91 C
3432 25-11-2018 21:55:00 6.4 C 96 % 5.81 C
3433 25-11-2018 22:00:00 6.4 C 96 % 5.81 C
3434 25-11-2018 22:05:00 6.4 C 96 % 5.81 C
3435 25-11-2018 22:10:00 6.4 C 96 % 5.81 C
3436 25-11-2018 22:15:00 6.3 C 96 % 5.71 C
3437 25-11-2018 22:20:00 6.3 C 95 % 5.56 C
3438 25-11-2018 22:25:00 6.3 C 95 % 5.56 C
3439 25-11-2018 22:30:00 6.3 C 95 % 5.56 C
3440 25-11-2018 22:35:00 6.2 C 96 % 5.61 C
3441 25-11-2018 22:40:00 6.2 C 96 % 5.61 C
3442 25-11-2018 22:45:00 6.2 C 96 % 5.61 C
3443 25-11-2018 22:50:00 6.2 C 96 % 5.61 C
3444 25-11-2018 22:55:00 6.2 C 96 % 5.61 C
3445 25-11-2018 23:00:00 6.2 C 96 % 5.61 C
3446 25-11-2018 23:05:00 6.2 C 96 % 5.61 C
3447 25-11-2018 23:10:00 6.2 C 96 % 5.61 C
3448 25-11-2018 23:15:00 6.2 C 96 % 5.61 C
3449 25-11-2018 23:20:00 6.2 C 96 % 5.61 C
3450 25-11-2018 23:25:00 6.3 C 96 % 5.71 C
Sensor: Nr:Datum:Temp:Feuchte:Taupunkt:
Aussen-T/F 3451 25-11-2018 23:30:00 6.3 C 96 % 5.71 C
3452 25-11-2018 23:35:00 6.3 C 96 % 5.71 C
3453 25-11-2018 23:40:00 6.4 C 96 % 5.81 C
3454 25-11-2018 23:45:00 6.4 C 96 % 5.81 C
3455 25-11-2018 23:50:00 6.4 C 96 % 5.81 C
3456 25-11-2018 23:55:00 6.4 C 96 % 5.81 C
3457 26-11-2018 00:00:00 6.4 C 96 % 5.81 C
3458 26-11-2018 00:05:00 6.4 C 96 % 5.81 C
3459 26-11-2018 00:10:00 6.4 C 96 % 5.81 C
3460 26-11-2018 00:15:00 6.3 C 96 % 5.71 C
3461 26-11-2018 00:20:00 6.3 C 96 % 5.71 C
3462 26-11-2018 00:25:00 6.3 C 96 % 5.71 C
3463 26-11-2018 00:30:00 6.3 C 96 % 5.71 C
3464 26-11-2018 00:35:00 6.3 C 96 % 5.71 C
3465 26-11-2018 00:40:00 6.3 C 96 % 5.71 C
3466 26-11-2018 00:45:00 6.4 C 96 % 5.81 C
3467 26-11-2018 00:50:00 6.4 C 96 % 5.81 C
3468 26-11-2018 00:55:00 6.4 C 96 % 5.81 C
3469 26-11-2018 01:00:00 6.4 C 96 % 5.81 C
3470 26-11-2018 01:05:00 6.4 C 96 % 5.81 C
3471 26-11-2018 01:10:00 6.4 C 96 % 5.81 C
3472 26-11-2018 01:15:00 6.4 C 96 % 5.81 C
3473 26-11-2018 01:20:00 6.5 C 96 % 5.91 C
3474 26-11-2018 01:25:00 6.5 C 96 % 5.91 C
3475 26-11-2018 01:30:00 6.5 C 96 % 5.91 C
Sensor: Nr:Datum:Temp:Feuchte:Taupunkt:
Aussen-T/F 3476 26-11-2018 01:35:00 6.4 C 96 % 5.81 C
3477 26-11-2018 01:40:00 6.4 C 96 % 5.81 C
3478 26-11-2018 01:45:00 6.4 C 96 % 5.81 C
3479 26-11-2018 01:50:00 6.4 C 96 % 5.81 C
3480 26-11-2018 01:55:00 6.4 C 96 % 5.81 C
3481 26-11-2018 02:00:00 6.4 C 96 % 5.81 C
3482 26-11-2018 02:05:00 6.4 C 96 % 5.81 C
3483 26-11-2018 02:10:00 6.4 C 96 % 5.81 C
3484 26-11-2018 02:15:00 6.4 C 96 % 5.81 C
3485 26-11-2018 02:20:00 6.4 C 96 % 5.81 C
3486 26-11-2018 02:25:00 6.4 C 96 % 5.81 C
3487 26-11-2018 02:30:00 6.4 C 96 % 5.81 C
3488 26-11-2018 02:35:00 6.4 C 96 % 5.81 C
3489 26-11-2018 02:40:00 6.4 C 96 % 5.81 C
3490 26-11-2018 02:45:00 6.4 C 95 % 5.66 C
3491 26-11-2018 02:50:00 6.4 C 95 % 5.66 C
3492 26-11-2018 02:55:00 6.4 C 95 % 5.66 C
3493 26-11-2018 03:00:00 6.4 C 96 % 5.81 C
3494 26-11-2018 03:05:00 6.4 C 95 % 5.66 C
3495 26-11-2018 03:10:00 6.4 C 95 % 5.66 C
3496 26-11-2018 03:15:00 6.4 C 95 % 5.66 C
3497 26-11-2018 03:20:00 6.4 C 95 % 5.66 C
3498 26-11-2018 03:25:00 6.4 C 95 % 5.66 C
3499 26-11-2018 03:30:00 6.4 C 95 % 5.66 C
3500 26-11-2018 03:35:00 6.4 C 95 % 5.66 C
Sensor: Nr:Datum:Temp:Feuchte:Taupunkt:
Aussen-T/F 3501 26-11-2018 03:40:00 6.4 C 94 % 5.51 C
3502 26-11-2018 03:45:00 6.4 C 94 % 5.51 C
3503 26-11-2018 03:50:00 6.4 C 94 % 5.51 C
3504 26-11-2018 03:55:00 6.4 C 94 % 5.51 C
3505 26-11-2018 04:00:00 6.4 C 94 % 5.51 C
3506 26-11-2018 04:05:00 6.4 C 94 % 5.51 C
3507 26-11-2018 04:10:00 6.4 C 94 % 5.51 C
3508 26-11-2018 04:15:00 6.4 C 94 % 5.51 C
3509 26-11-2018 04:20:00 6.4 C 94 % 5.51 C
3510 26-11-2018 04:25:00 6.4 C 94 % 5.51 C
3511 26-11-2018 04:30:00 6.4 C 93 % 5.35 C
3512 26-11-2018 04:35:00 6.4 C 93 % 5.35 C
3513 26-11-2018 04:40:00 6.4 C 93 % 5.35 C
3514 26-11-2018 04:45:00 6.5 C 93 % 5.45 C
3515 26-11-2018 04:50:00 6.4 C 93 % 5.35 C
3516 26-11-2018 04:55:00 6.4 C 93 % 5.35 C
3517 26-11-2018 05:00:00 6.5 C 93 % 5.45 C
3518 26-11-2018 05:05:00 6.4 C 93 % 5.35 C
3519 26-11-2018 05:10:00 6.4 C 93 % 5.35 C
3520 26-11-2018 05:15:00 6.4 C 93 % 5.35 C
3521 26-11-2018 05:20:00 6.4 C 93 % 5.35 C
3522 26-11-2018 05:25:00 6.4 C 93 % 5.35 C
3523 26-11-2018 05:30:00 6.4 C 93 % 5.35 C
3524 26-11-2018 05:35:00 6.4 C 93 % 5.35 C
3525 26-11-2018 05:40:00 6.4 C 93 % 5.35 C
Sensor: Nr:Datum:Temp:Feuchte:Taupunkt:
Aussen-T/F 3526 26-11-2018 05:45:00 6.3 C 92 % 5.1 C
3527 26-11-2018 05:50:00 6.3 C 93 % 5.25 C
3528 26-11-2018 05:55:00 6.3 C 93 % 5.25 C
3529 26-11-2018 06:00:00 6.3 C 93 % 5.25 C
3530 26-11-2018 06:05:00 6.3 C 92 % 5.1 C
3531 26-11-2018 06:10:00 6.3 C 92 % 5.1 C
3532 26-11-2018 06:15:00 6.3 C 92 % 5.1 C
3533 26-11-2018 06:20:00 6.3 C 92 % 5.1 C
3534 26-11-2018 06:25:00 6.3 C 92 % 5.1 C
3535 26-11-2018 06:30:00 6.3 C 92 % 5.1 C
3536 26-11-2018 06:35:00 6.2 C 92 % 5 C
3537 26-11-2018 06:40:00 6.2 C 92 % 5 C
3538 26-11-2018 06:45:00 6.2 C 92 % 5 C
3539 26-11-2018 06:50:00 6.1 C 92 % 4.9 C
3540 26-11-2018 06:55:00 6.1 C 92 % 4.9 C
3541 26-11-2018 07:00:00 6.1 C 92 % 4.9 C
3542 26-11-2018 07:05:00 6 C 92 % 4.8 C
3543 26-11-2018 07:10:00 6 C 92 % 4.8 C
3544 26-11-2018 07:15:00 6 C 92 % 4.8 C
3545 26-11-2018 07:20:00 5.9 C 92 % 4.7 C
3546 26-11-2018 07:25:00 5.9 C 92 % 4.7 C
3547 26-11-2018 07:30:00 5.9 C 92 % 4.7 C
3548 26-11-2018 07:35:00 5.9 C 93 % 4.86 C
3549 26-11-2018 07:40:00 5.8 C 92 % 4.6 C
3550 26-11-2018 07:45:00 5.8 C 93 % 4.76 C
Sensor: Nr:Datum:Temp:Feuchte:Taupunkt:
Aussen-T/F 3551 26-11-2018 07:50:00 5.8 C 93 % 4.76 C
3552 26-11-2018 07:55:00 5.8 C 93 % 4.76 C
3553 26-11-2018 08:00:00 5.8 C 93 % 4.76 C
3554 26-11-2018 08:05:00 5.8 C 93 % 4.76 C
3555 26-11-2018 08:10:00 5.9 C 93 % 4.86 C
3556 26-11-2018 08:15:00 5.9 C 93 % 4.86 C
3557 26-11-2018 08:20:00 5.9 C 93 % 4.86 C
3558 26-11-2018 08:25:00 5.9 C 93 % 4.86 C
3559 26-11-2018 08:30:00 5.9 C 93 % 4.86 C
3560 26-11-2018 08:35:00 5.8 C 93 % 4.76 C
3561 26-11-2018 08:40:00 5.8 C 93 % 4.76 C
3562 26-11-2018 08:45:00 5.9 C 93 % 4.86 C
3563 26-11-2018 08:50:00 5.9 C 94 % 5.01 C
3564 26-11-2018 08:55:00 5.9 C 94 % 5.01 C
3565 26-11-2018 09:00:00 5.9 C 94 % 5.01 C
3566 26-11-2018 09:05:00 6 C 94 % 5.11 C
3567 26-11-2018 09:10:00 6.1 C 93 % 5.06 C
3568 26-11-2018 09:15:00 6.1 C 93 % 5.06 C
3569 26-11-2018 09:20:00 6.2 C 93 % 5.15 C
3570 26-11-2018 09:25:00 6.2 C 93 % 5.15 C
3571 26-11-2018 09:30:00 6.3 C 92 % 5.1 C
3572 26-11-2018 09:35:00 6.4 C 92 % 5.2 C
3573 26-11-2018 09:40:00 6.4 C 92 % 5.2 C
3574 26-11-2018 09:45:00 6.5 C 92 % 5.3 C
3575 26-11-2018 09:50:00 6.6 C 92 % 5.4 C
Sensor: Nr:Datum:Temp:Feuchte:Taupunkt:
Aussen-T/F 3576 26-11-2018 09:55:00 6.6 C 92 % 5.4 C
3577 26-11-2018 10:00:00 6.7 C 92 % 5.49 C
3578 26-11-2018 10:05:00 6.7 C 91 % 5.34 C
3579 26-11-2018 10:10:00 6.7 C 91 % 5.34 C
3580 26-11-2018 10:15:00 6.7 C 91 % 5.34 C
3581 26-11-2018 10:20:00 6.7 C 91 % 5.34 C
3582 26-11-2018 10:25:00 6.8 C 91 % 5.44 C
3583 26-11-2018 10:30:00 6.8 C 90 % 5.28 C
3584 26-11-2018 10:35:00 6.9 C 89 % 5.22 C
3585 26-11-2018 10:40:00 7 C 89 % 5.31 C
3586 26-11-2018 10:45:00 7.1 C 89 % 5.41 C
3587 26-11-2018 10:50:00 7.2 C 88 % 5.35 C
3588 26-11-2018 10:55:00 7.3 C 88 % 5.45 C
3589 26-11-2018 11:00:00 7.3 C 87 % 5.28 C
3590 26-11-2018 11:05:00 7.4 C 86 % 5.22 C
3591 26-11-2018 11:10:00 7.4 C 86 % 5.22 C
3592 26-11-2018 11:15:00 7.5 C 85 % 5.15 C
3593 26-11-2018 11:20:00 7.6 C 85 % 5.24 C
3594 26-11-2018 11:25:00 7.6 C 85 % 5.24 C
3595 26-11-2018 11:30:00 7.6 C 84 % 5.07 C
3596 26-11-2018 11:35:00 7.6 C 85 % 5.24 C
3597 26-11-2018 11:40:00 7.7 C 84 % 5.17 C
3598 26-11-2018 11:45:00 7.7 C 84 % 5.17 C
3599 26-11-2018 11:50:00 7.7 C 83 % 5 C
3600 26-11-2018 11:55:00 7.7 C 83 % 5 C
Sensor: Nr:Datum:Temp:Feuchte:Taupunkt:
Aussen-T/F 3601 26-11-2018 12:00:00 7.8 C 82 % 4.92 C
3602 26-11-2018 12:05:00 7.8 C 83 % 5.1 C
3603 26-11-2018 12:10:00 7.9 C 82 % 5.02 C
3604 26-11-2018 12:15:00 7.9 C 82 % 5.02 C
3605 26-11-2018 12:20:00 7.9 C 81 % 4.85 C
3606 26-11-2018 12:25:00 7.9 C 81 % 4.85 C
3607 26-11-2018 12:30:00 8 C 80 % 4.77 C
3608 26-11-2018 12:35:00 8 C 80 % 4.77 C
3609 26-11-2018 12:40:00 8.1 C 80 % 4.86 C
3610 26-11-2018 12:45:00 8.1 C 80 % 4.86 C
3611 26-11-2018 12:50:00 8.1 C 80 % 4.86 C
3612 26-11-2018 12:55:00 8.1 C 79 % 4.68 C
3613 26-11-2018 13:00:00 8.1 C 79 % 4.68 C
3614 26-11-2018 13:05:00 8.1 C 79 % 4.68 C
3615 26-11-2018 13:10:00 8.1 C 79 % 4.68 C
3616 26-11-2018 13:15:00 8.1 C 79 % 4.68 C
3617 26-11-2018 13:20:00 8.1 C 79 % 4.68 C
3618 26-11-2018 13:25:00 8.1 C 79 % 4.68 C
3619 26-11-2018 13:30:00 8.1 C 79 % 4.68 C
3620 26-11-2018 13:35:00 8 C 79 % 4.59 C
3621 26-11-2018 13:40:00 8 C 79 % 4.59 C
3622 26-11-2018 13:45:00 7.9 C 80 % 4.67 C
3623 26-11-2018 13:50:00 7.9 C 79 % 4.49 C
3624 26-11-2018 13:55:00 7.9 C 80 % 4.67 C
3625 26-11-2018 14:00:00 7.9 C 79 % 4.49 C
Sensor: Nr:Datum:Temp:Feuchte:Taupunkt:
Aussen-T/F 3626 26-11-2018 14:05:00 7.9 C 82 % 5.02 C
3627 26-11-2018 14:10:00 7.9 C 81 % 4.85 C
3628 26-11-2018 14:15:00 7.9 C 81 % 4.85 C
3629 26-11-2018 14:20:00 7.9 C 82 % 5.02 C
3630 26-11-2018 14:25:00 7.9 C 81 % 4.85 C
3631 26-11-2018 14:30:00 7.9 C 82 % 5.02 C
3632 26-11-2018 14:35:00 7.9 C 83 % 5.2 C
3633 26-11-2018 14:40:00 7.8 C 82 % 4.92 C
3634 26-11-2018 14:45:00 7.8 C 81 % 4.75 C
3635 26-11-2018 14:50:00 7.8 C 80 % 4.57 C
3636 26-11-2018 14:55:00 7.8 C 79 % 4.39 C
3637 26-11-2018 15:00:00 7.8 C 79 % 4.39 C
3638 26-11-2018 15:05:00 7.9 C 78 % 4.31 C
3639 26-11-2018 15:10:00 7.9 C 79 % 4.49 C
3640 26-11-2018 15:15:00 7.9 C 79 % 4.49 C
3641 26-11-2018 15:20:00 7.9 C 78 % 4.31 C
3642 26-11-2018 15:25:00 7.9 C 78 % 4.31 C
3643 26-11-2018 15:30:00 7.9 C 78 % 4.31 C
3644 26-11-2018 15:35:00 7.9 C 78 % 4.31 C
3645 26-11-2018 15:40:00 7.9 C 78 % 4.31 C
3646 26-11-2018 15:45:00 7.8 C 78 % 4.21 C
3647 26-11-2018 15:50:00 7.8 C 78 % 4.21 C
3648 26-11-2018 15:55:00 7.8 C 79 % 4.39 C
3649 26-11-2018 16:00:00 7.7 C 79 % 4.3 C
3650 26-11-2018 16:05:00 7.7 C 79 % 4.3 C
Sensor: Nr:Datum:Temp:Feuchte:Taupunkt:
Aussen-T/F 3651 26-11-2018 16:10:00 7.7 C 80 % 4.47 C
3652 26-11-2018 16:15:00 7.6 C 81 % 4.55 C
3653 26-11-2018 16:20:00 7.5 C 80 % 4.28 C
3654 26-11-2018 16:25:00 7.4 C 81 % 4.36 C
3655 26-11-2018 16:30:00 7.3 C 82 % 4.44 C
3656 26-11-2018 16:35:00 7.3 C 82 % 4.44 C
3657 26-11-2018 16:40:00 7.3 C 82 % 4.44 C
3658 26-11-2018 16:45:00 7.2 C 82 % 4.34 C
3659 26-11-2018 16:50:00 7.1 C 81 % 4.07 C
3660 26-11-2018 16:55:00 7.1 C 82 % 4.24 C
3661 26-11-2018 17:00:00 7.1 C 81 % 4.07 C
3662 26-11-2018 17:05:00 7.1 C 81 % 4.07 C
3663 26-11-2018 17:10:00 7.1 C 82 % 4.24 C
3664 26-11-2018 17:15:00 7 C 82 % 4.14 C
3665 26-11-2018 17:20:00 6.9 C 83 % 4.22 C
3666 26-11-2018 17:25:00 6.9 C 82 % 4.05 C
3667 26-11-2018 17:30:00 6.9 C 82 % 4.05 C
3668 26-11-2018 17:35:00 6.8 C 82 % 3.95 C
3669 26-11-2018 17:40:00 6.8 C 83 % 4.12 C
3670 26-11-2018 17:45:00 6.8 C 84 % 4.29 C
3671 26-11-2018 17:50:00 6.7 C 84 % 4.19 C
3672 26-11-2018 17:55:00 6.7 C 85 % 4.36 C
3673 26-11-2018 18:00:00 6.6 C 85 % 4.26 C
3674 26-11-2018 18:05:00 6.5 C 85 % 4.17 C
3675 26-11-2018 18:10:00 6.4 C 86 % 4.23 C
Sensor: Nr:Datum:Temp:Feuchte:Taupunkt:
Aussen-T/F 3676 26-11-2018 18:15:00 6.3 C 86 % 4.14 C
3677 26-11-2018 18:20:00 6.3 C 86 % 4.14 C
3678 26-11-2018 18:25:00 6.3 C 86 % 4.14 C
3679 26-11-2018 18:30:00 6.2 C 86 % 4.04 C
3680 26-11-2018 18:35:00 6.2 C 87 % 4.2 C
3681 26-11-2018 18:40:00 6.2 C 87 % 4.2 C
3682 26-11-2018 18:45:00 6.2 C 88 % 4.36 C
3683 26-11-2018 18:50:00 6.2 C 87 % 4.2 C
3684 26-11-2018 18:55:00 6.2 C 87 % 4.2 C
3685 26-11-2018 19:00:00 6.1 C 87 % 4.1 C
3686 26-11-2018 19:05:00 6.1 C 87 % 4.1 C
3687 26-11-2018 19:10:00 6.2 C 87 % 4.2 C
3688 26-11-2018 19:15:00 6.2 C 87 % 4.2 C
3689 26-11-2018 19:20:00 6.2 C 87 % 4.2 C
3690 26-11-2018 19:25:00 6.2 C 87 % 4.2 C
3691 26-11-2018 19:30:00 6.2 C 86 % 4.04 C
3692 26-11-2018 19:35:00 6.2 C 86 % 4.04 C
3693 26-11-2018 19:40:00 6.3 C 86 % 4.14 C
3694 26-11-2018 19:45:00 6.3 C 86 % 4.14 C
3695 26-11-2018 19:50:00 6.3 C 86 % 4.14 C
3696 26-11-2018 19:55:00 6.3 C 86 % 4.14 C
3697 26-11-2018 20:00:00 6.2 C 86 % 4.04 C
3698 26-11-2018 20:05:00 6.2 C 86 % 4.04 C
3699 26-11-2018 20:10:00 6.2 C 86 % 4.04 C
3700 26-11-2018 20:15:00 6.2 C 86 % 4.04 C
Sensor: Nr:Datum:Temp:Feuchte:Taupunkt:
Aussen-T/F 3701 26-11-2018 20:20:00 6.1 C 86 % 3.94 C
3702 26-11-2018 20:25:00 6.1 C 86 % 3.94 C
3703 26-11-2018 20:30:00 6.1 C 87 % 4.1 C
3704 26-11-2018 20:35:00 6.1 C 87 % 4.1 C
3705 26-11-2018 20:40:00 6.1 C 87 % 4.1 C
3706 26-11-2018 20:45:00 6.1 C 87 % 4.1 C
3707 26-11-2018 20:50:00 6.1 C 87 % 4.1 C
3708 26-11-2018 20:55:00 6.1 C 87 % 4.1 C
3709 26-11-2018 21:00:00 6.1 C 87 % 4.1 C
3710 26-11-2018 21:05:00 6.1 C 87 % 4.1 C
3711 26-11-2018 21:10:00 6.1 C 87 % 4.1 C
3712 26-11-2018 21:15:00 6 C 86 % 3.84 C
3713 26-11-2018 21:20:00 6 C 86 % 3.84 C
3714 26-11-2018 21:25:00 6 C 86 % 3.84 C
3715 26-11-2018 21:30:00 6 C 85 % 3.67 C
3716 26-11-2018 21:35:00 6 C 86 % 3.84 C
3717 26-11-2018 21:40:00 6.1 C 86 % 3.94 C
3718 26-11-2018 21:45:00 6 C 86 % 3.84 C
3719 26-11-2018 21:50:00 6 C 86 % 3.84 C
3720 26-11-2018 21:55:00 6 C 86 % 3.84 C
3721 26-11-2018 22:00:00 5.9 C 85 % 3.58 C
3722 26-11-2018 22:05:00 6 C 85 % 3.67 C
3723 26-11-2018 22:10:00 6 C 84 % 3.51 C
3724 26-11-2018 22:15:00 6.1 C 84 % 3.61 C
3725 26-11-2018 22:20:00 6.1 C 83 % 3.44 C
Sensor: Nr:Datum:Temp:Feuchte:Taupunkt:
Aussen-T/F 3726 26-11-2018 22:25:00 6.2 C 83 % 3.53 C
3727 26-11-2018 22:30:00 6.2 C 83 % 3.53 C
3728 26-11-2018 22:35:00 6.1 C 83 % 3.44 C
3729 26-11-2018 22:40:00 6.2 C 83 % 3.53 C
3730 26-11-2018 22:45:00 6.1 C 83 % 3.44 C
3731 26-11-2018 22:50:00 6.1 C 84 % 3.61 C
3732 26-11-2018 22:55:00 6.1 C 83 % 3.44 C
3733 26-11-2018 23:00:00 6 C 84 % 3.51 C
3734 26-11-2018 23:05:00 6 C 84 % 3.51 C
3735 26-11-2018 23:10:00 5.9 C 84 % 3.41 C
3736 26-11-2018 23:15:00 5.9 C 84 % 3.41 C
3737 26-11-2018 23:20:00 5.8 C 84 % 3.31 C
3738 26-11-2018 23:25:00 5.8 C 84 % 3.31 C
3739 26-11-2018 23:30:00 5.8 C 84 % 3.31 C
3740 26-11-2018 23:35:00 5.8 C 83 % 3.14 C
3741 26-11-2018 23:40:00 5.8 C 83 % 3.14 C
3742 26-11-2018 23:45:00 5.7 C 83 % 3.04 C
3743 26-11-2018 23:50:00 5.7 C 83 % 3.04 C
3744 26-11-2018 23:55:00 5.7 C 83 % 3.04 C
3745 27-11-2018 00:00:00 5.7 C 84 % 3.21 C
3746 27-11-2018 00:05:00 5.6 C 82 % 2.78 C
3747 27-11-2018 00:10:00 5.6 C 83 % 2.95 C
3748 27-11-2018 00:15:00 5.6 C 83 % 2.95 C
3749 27-11-2018 00:20:00 5.6 C 83 % 2.95 C
3750 27-11-2018 00:25:00 5.6 C 82 % 2.78 C
Sensor: Nr:Datum:Temp:Feuchte:Taupunkt:
Aussen-T/F 3751 27-11-2018 00:30:00 5.6 C 82 % 2.78 C
3752 27-11-2018 00:35:00 5.5 C 83 % 2.85 C
3753 27-11-2018 00:40:00 5.5 C 83 % 2.85 C
3754 27-11-2018 00:45:00 5.5 C 84 % 3.02 C
3755 27-11-2018 00:50:00 5.5 C 83 % 2.85 C
3756 27-11-2018 00:55:00 5.4 C 83 % 2.75 C
3757 27-11-2018 01:00:00 5.4 C 84 % 2.92 C
3758 27-11-2018 01:05:00 5.4 C 84 % 2.92 C
3759 27-11-2018 01:10:00 5.4 C 84 % 2.92 C
3760 27-11-2018 01:15:00 5.4 C 84 % 2.92 C
3761 27-11-2018 01:20:00 5.4 C 84 % 2.92 C
3762 27-11-2018 01:25:00 5.3 C 84 % 2.82 C
3763 27-11-2018 01:30:00 5.3 C 84 % 2.82 C
3764 27-11-2018 01:35:00 5.3 C 84 % 2.82 C
3765 27-11-2018 01:40:00 5.3 C 84 % 2.82 C
3766 27-11-2018 01:45:00 5.2 C 84 % 2.72 C
3767 27-11-2018 01:50:00 5.2 C 85 % 2.89 C
3768 27-11-2018 01:55:00 5.2 C 85 % 2.89 C
3769 27-11-2018 02:00:00 5.2 C 85 % 2.89 C
3770 27-11-2018 02:05:00 5.1 C 85 % 2.79 C
3771 27-11-2018 02:10:00 5.1 C 85 % 2.79 C
3772 27-11-2018 02:15:00 5 C 85 % 2.69 C
3773 27-11-2018 02:20:00 4.9 C 85 % 2.6 C
3774 27-11-2018 02:25:00 4.9 C 85 % 2.6 C
3775 27-11-2018 02:30:00 4.9 C 85 % 2.6 C
Sensor: Nr:Datum:Temp:Feuchte:Taupunkt:
Aussen-T/F 3776 27-11-2018 02:35:00 4.8 C 85 % 2.5 C
3777 27-11-2018 02:40:00 4.8 C 85 % 2.5 C
3778 27-11-2018 02:45:00 4.7 C 86 % 2.56 C
3779 27-11-2018 02:50:00 4.7 C 86 % 2.56 C
3780 27-11-2018 02:55:00 4.7 C 86 % 2.56 C
3781 27-11-2018 03:00:00 4.6 C 86 % 2.47 C
3782 27-11-2018 03:05:00 4.6 C 87 % 2.63 C
3783 27-11-2018 03:10:00 4.6 C 87 % 2.63 C
3784 27-11-2018 03:15:00 4.6 C 87 % 2.63 C
3785 27-11-2018 03:20:00 4.5 C 87 % 2.53 C
3786 27-11-2018 03:25:00 4.5 C 87 % 2.53 C
3787 27-11-2018 03:30:00 4.5 C 87 % 2.53 C
3788 27-11-2018 03:35:00 4.4 C 87 % 2.43 C
3789 27-11-2018 03:40:00 4.4 C 87 % 2.43 C
3790 27-11-2018 03:45:00 4.4 C 87 % 2.43 C
3791 27-11-2018 03:50:00 4.4 C 87 % 2.43 C
3792 27-11-2018 03:55:00 4.4 C 87 % 2.43 C
3793 27-11-2018 04:00:00 4.4 C 87 % 2.43 C
3794 27-11-2018 04:05:00 4.4 C 87 % 2.43 C
3795 27-11-2018 04:10:00 4.4 C 87 % 2.43 C
3796 27-11-2018 04:15:00 4.4 C 87 % 2.43 C
3797 27-11-2018 04:20:00 4.4 C 87 % 2.43 C
3798 27-11-2018 04:25:00 4.3 C 87 % 2.33 C
3799 27-11-2018 04:30:00 4.3 C 87 % 2.33 C
3800 27-11-2018 04:35:00 4.3 C 87 % 2.33 C
Sensor: Nr:Datum:Temp:Feuchte:Taupunkt:
Aussen-T/F 3801 27-11-2018 04:40:00 4.3 C 87 % 2.33 C
3802 27-11-2018 04:45:00 4.3 C 87 % 2.33 C
3803 27-11-2018 04:50:00 4.3 C 87 % 2.33 C
3804 27-11-2018 04:55:00 4.3 C 87 % 2.33 C
3805 27-11-2018 05:00:00 4.2 C 87 % 2.23 C
3806 27-11-2018 05:05:00 4.2 C 87 % 2.23 C
3807 27-11-2018 05:10:00 4.2 C 87 % 2.23 C
3808 27-11-2018 05:15:00 4.2 C 87 % 2.23 C
3809 27-11-2018 05:20:00 4.2 C 87 % 2.23 C
3810 27-11-2018 05:25:00 4.1 C 87 % 2.14 C
3811 27-11-2018 05:30:00 4.1 C 87 % 2.14 C
3812 27-11-2018 05:35:00 3.9 C 87 % 1.94 C
3813 27-11-2018 05:40:00 3.8 C 87 % 1.84 C
3814 27-11-2018 05:45:00 3.8 C 87 % 1.84 C
3815 27-11-2018 05:50:00 3.7 C 87 % 1.74 C
3816 27-11-2018 05:55:00 3.6 C 87 % 1.64 C
3817 27-11-2018 06:00:00 3.5 C 87 % 1.55 C
3818 27-11-2018 06:05:00 3.4 C 87 % 1.45 C
3819 27-11-2018 06:10:00 3.4 C 88 % 1.61 C
3820 27-11-2018 06:15:00 3.4 C 88 % 1.61 C
3821 27-11-2018 06:20:00 3.4 C 88 % 1.61 C
3822 27-11-2018 06:25:00 3.3 C 88 % 1.51 C
3823 27-11-2018 06:30:00 3.3 C 88 % 1.51 C
3824 27-11-2018 06:35:00 3.3 C 88 % 1.51 C
3825 27-11-2018 06:40:00 3.3 C 88 % 1.51 C
Sensor: Nr:Datum:Temp:Feuchte:Taupunkt:
Aussen-T/F 3826 27-11-2018 06:45:00 3.3 C 88 % 1.51 C
3827 27-11-2018 06:50:00 3.2 C 88 % 1.41 C
3828 27-11-2018 06:55:00 3.2 C 89 % 1.57 C
3829 27-11-2018 07:00:00 3.2 C 89 % 1.57 C
3830 27-11-2018 07:05:00 3.2 C 89 % 1.57 C
3831 27-11-2018 07:10:00 3.2 C 89 % 1.57 C
3832 27-11-2018 07:15:00 3.2 C 89 % 1.57 C
3833 27-11-2018 07:20:00 3.2 C 89 % 1.57 C
3834 27-11-2018 07:25:00 3.3 C 89 % 1.67 C
3835 27-11-2018 07:30:00 3.3 C 90 % 1.82 C
3836 27-11-2018 07:35:00 3.3 C 90 % 1.82 C
3837 27-11-2018 07:40:00 3.3 C 90 % 1.82 C
3838 27-11-2018 07:45:00 3.3 C 90 % 1.82 C
3839 27-11-2018 07:50:00 3.3 C 90 % 1.82 C
3840 27-11-2018 07:55:00 3.4 C 90 % 1.92 C
3841 27-11-2018 08:00:00 3.4 C 90 % 1.92 C
3842 27-11-2018 08:05:00 3.4 C 90 % 1.92 C
3843 27-11-2018 08:10:00 3.4 C 90 % 1.92 C
3844 27-11-2018 08:15:00 3.4 C 90 % 1.92 C
3845 27-11-2018 08:20:00 3.4 C 90 % 1.92 C
3846 27-11-2018 08:25:00 3.4 C 90 % 1.92 C
3847 27-11-2018 08:30:00 3.5 C 90 % 2.02 C
3848 27-11-2018 08:35:00 3.5 C 90 % 2.02 C
3849 27-11-2018 08:40:00 3.5 C 90 % 2.02 C
3850 27-11-2018 08:45:00 3.5 C 90 % 2.02 C
Sensor: Nr:Datum:Temp:Feuchte:Taupunkt:
Aussen-T/F 3851 27-11-2018 08:50:00 3.6 C 90 % 2.12 C
3852 27-11-2018 08:55:00 3.6 C 90 % 2.12 C
3853 27-11-2018 09:00:00 3.6 C 90 % 2.12 C
3854 27-11-2018 09:05:00 3.6 C 90 % 2.12 C
3855 27-11-2018 09:10:00 3.6 C 90 % 2.12 C
3856 27-11-2018 09:15:00 3.7 C 90 % 2.22 C
3857 27-11-2018 09:20:00 3.7 C 90 % 2.22 C
3858 27-11-2018 09:25:00 3.7 C 90 % 2.22 C
3859 27-11-2018 09:30:00 3.7 C 90 % 2.22 C
3860 27-11-2018 09:35:00 3.8 C 90 % 2.31 C
3861 27-11-2018 09:40:00 3.8 C 90 % 2.31 C
3862 27-11-2018 09:45:00 3.8 C 90 % 2.31 C
3863 27-11-2018 09:50:00 3.9 C 90 % 2.41 C
3864 27-11-2018 09:55:00 3.9 C 90 % 2.41 C
3865 27-11-2018 10:00:00 4 C 89 % 2.36 C
3866 27-11-2018 10:05:00 4.1 C 89 % 2.45 C
3867 27-11-2018 10:10:00 4.2 C 89 % 2.55 C
3868 27-11-2018 10:15:00 4.3 C 89 % 2.65 C
3869 27-11-2018 10:20:00 4.4 C 89 % 2.75 C
3870 27-11-2018 10:25:00 4.6 C 88 % 2.79 C
3871 27-11-2018 10:30:00 4.7 C 88 % 2.89 C
3872 27-11-2018 10:35:00 4.7 C 87 % 2.73 C
3873 27-11-2018 10:40:00 4.8 C 87 % 2.82 C
3874 27-11-2018 10:45:00 4.8 C 86 % 2.66 C
3875 27-11-2018 10:50:00 4.9 C 86 % 2.76 C
Sensor: Nr:Datum:Temp:Feuchte:Taupunkt:
Aussen-T/F 3876 27-11-2018 10:55:00 5.1 C 85 % 2.79 C
3877 27-11-2018 11:00:00 5.2 C 84 % 2.72 C
3878 27-11-2018 11:05:00 5.2 C 84 % 2.72 C
3879 27-11-2018 11:10:00 5.3 C 83 % 2.65 C
3880 27-11-2018 11:15:00 5.3 C 82 % 2.48 C
3881 27-11-2018 11:20:00 5.4 C 81 % 2.41 C
3882 27-11-2018 11:25:00 5.5 C 81 % 2.51 C
3883 27-11-2018 11:30:00 5.6 C 82 % 2.78 C
3884 27-11-2018 11:35:00 5.6 C 82 % 2.78 C
3885 27-11-2018 11:40:00 5.7 C 81 % 2.7 C
3886 27-11-2018 11:45:00 5.7 C 81 % 2.7 C
3887 27-11-2018 11:50:00 5.7 C 80 % 2.53 C
3888 27-11-2018 11:55:00 5.7 C 79 % 2.35 C
3889 27-11-2018 12:00:00 5.7 C 80 % 2.53 C
3890 27-11-2018 12:05:00 5.7 C 79 % 2.35 C
3891 27-11-2018 12:10:00 5.7 C 79 % 2.35 C
3892 27-11-2018 12:15:00 5.7 C 79 % 2.35 C
3893 27-11-2018 12:20:00 5.7 C 79 % 2.35 C
3894 27-11-2018 12:25:00 5.7 C 78 % 2.17 C
3895 27-11-2018 12:30:00 5.8 C 79 % 2.45 C
3896 27-11-2018 12:35:00 5.8 C 78 % 2.27 C
3897 27-11-2018 12:40:00 5.8 C 77 % 2.09 C
3898 27-11-2018 12:45:00 5.8 C 77 % 2.09 C
3899 27-11-2018 12:50:00 5.8 C 76 % 1.91 C
3900 27-11-2018 12:55:00 5.8 C 76 % 1.91 C